<?xml version="1.0" encoding="UTF-8"?>
<gpx version="1.1" creator="RoadTrp.org" xmlns="http://www.topografix.com/GPX/1/1">
<trk><name>Back Nine Trail — July 28, 2026</name><trkseg>
<trkpt lat="35.197408" lon="-84.89689"><ele>220.4</ele><time>2026-07-28T23:53:23Z</time></trkpt>
<trkpt lat="35.197378" lon="-84.896887"><ele>219.2</ele><time>2026-07-28T23:53:28Z</time></trkpt>
<trkpt lat="35.197342" lon="-84.896904"><ele>218.5</ele><time>2026-07-28T23:53:31Z</time></trkpt>
<trkpt lat="35.197311" lon="-84.896931"><ele>218.5</ele><time>2026-07-28T23:53:34Z</time></trkpt>
<trkpt lat="35.197281" lon="-84.896951"><ele>218.5</ele><time>2026-07-28T23:53:37Z</time></trkpt>
<trkpt lat="35.197254" lon="-84.896974"><ele>218.5</ele><time>2026-07-28T23:53:40Z</time></trkpt>
<trkpt lat="35.197222" lon="-84.896988"><ele>218.5</ele><time>2026-07-28T23:53:43Z</time></trkpt>
<trkpt lat="35.197196" lon="-84.897011"><ele>219.2</ele><time>2026-07-28T23:53:46Z</time></trkpt>
<trkpt lat="35.197173" lon="-84.897043"><ele>219.2</ele><time>2026-07-28T23:53:49Z</time></trkpt>
<trkpt lat="35.197148" lon="-84.897072"><ele>219.2</ele><time>2026-07-28T23:53:52Z</time></trkpt>
<trkpt lat="35.197126" lon="-84.8971"><ele>218.5</ele><time>2026-07-28T23:53:55Z</time></trkpt>
<trkpt lat="35.197103" lon="-84.897135"><ele>218.5</ele><time>2026-07-28T23:53:58Z</time></trkpt>
<trkpt lat="35.197084" lon="-84.897165"><ele>219.2</ele><time>2026-07-28T23:54:01Z</time></trkpt>
<trkpt lat="35.197063" lon="-84.897191"><ele>219.2</ele><time>2026-07-28T23:54:04Z</time></trkpt>
<trkpt lat="35.19704" lon="-84.897223"><ele>218.8</ele><time>2026-07-28T23:54:07Z</time></trkpt>
<trkpt lat="35.197026" lon="-84.897256"><ele>218.5</ele><time>2026-07-28T23:54:10Z</time></trkpt>
<trkpt lat="35.197051" lon="-84.897294"><ele>218.5</ele><time>2026-07-28T23:54:13Z</time></trkpt>
<trkpt lat="35.197068" lon="-84.89732"><ele>218.2</ele><time>2026-07-28T23:54:15Z</time></trkpt>
<trkpt lat="35.197094" lon="-84.897357"><ele>217.9</ele><time>2026-07-28T23:54:18Z</time></trkpt>
<trkpt lat="35.197112" lon="-84.897384"><ele>218.2</ele><time>2026-07-28T23:54:20Z</time></trkpt>
<trkpt lat="35.197132" lon="-84.89741"><ele>218.5</ele><time>2026-07-28T23:54:22Z</time></trkpt>
<trkpt lat="35.197153" lon="-84.897434"><ele>219.2</ele><time>2026-07-28T23:54:24Z</time></trkpt>
<trkpt lat="35.197178" lon="-84.897461"><ele>219.8</ele><time>2026-07-28T23:54:27Z</time></trkpt>
<trkpt lat="35.197203" lon="-84.897494"><ele>220.1</ele><time>2026-07-28T23:54:30Z</time></trkpt>
<trkpt lat="35.19723" lon="-84.897523"><ele>220.1</ele><time>2026-07-28T23:54:33Z</time></trkpt>
<trkpt lat="35.197256" lon="-84.897552"><ele>218.8</ele><time>2026-07-28T23:54:36Z</time></trkpt>
<trkpt lat="35.197292" lon="-84.897565"><ele>219.2</ele><time>2026-07-28T23:54:39Z</time></trkpt>
<trkpt lat="35.197316" lon="-84.897538"><ele>218.8</ele><time>2026-07-28T23:54:42Z</time></trkpt>
<trkpt lat="35.197339" lon="-84.89752"><ele>219.2</ele><time>2026-07-28T23:54:44Z</time></trkpt>
<trkpt lat="35.197367" lon="-84.897539"><ele>219.5</ele><time>2026-07-28T23:54:46Z</time></trkpt>
<trkpt lat="35.197391" lon="-84.89756"><ele>219.5</ele><time>2026-07-28T23:54:48Z</time></trkpt>
<trkpt lat="35.197423" lon="-84.897587"><ele>220.1</ele><time>2026-07-28T23:54:51Z</time></trkpt>
<trkpt lat="35.197456" lon="-84.897601"><ele>220.1</ele><time>2026-07-28T23:54:54Z</time></trkpt>
<trkpt lat="35.197494" lon="-84.8976"><ele>220.1</ele><time>2026-07-28T23:54:57Z</time></trkpt>
<trkpt lat="35.197526" lon="-84.897585"><ele>220.1</ele><time>2026-07-28T23:55:00Z</time></trkpt>
<trkpt lat="35.197556" lon="-84.897572"><ele>219.8</ele><time>2026-07-28T23:55:03Z</time></trkpt>
<trkpt lat="35.197591" lon="-84.897549"><ele>219.8</ele><time>2026-07-28T23:55:06Z</time></trkpt>
<trkpt lat="35.197625" lon="-84.897528"><ele>220.1</ele><time>2026-07-28T23:55:09Z</time></trkpt>
<trkpt lat="35.197656" lon="-84.897507"><ele>219.8</ele><time>2026-07-28T23:55:12Z</time></trkpt>
<trkpt lat="35.197688" lon="-84.897493"><ele>220.1</ele><time>2026-07-28T23:55:15Z</time></trkpt>
<trkpt lat="35.19772" lon="-84.89747"><ele>220.7</ele><time>2026-07-28T23:55:18Z</time></trkpt>
<trkpt lat="35.197745" lon="-84.897453"><ele>220.7</ele><time>2026-07-28T23:55:20Z</time></trkpt>
<trkpt lat="35.197781" lon="-84.897435"><ele>221.6</ele><time>2026-07-28T23:55:23Z</time></trkpt>
<trkpt lat="35.197815" lon="-84.897423"><ele>221.6</ele><time>2026-07-28T23:55:26Z</time></trkpt>
<trkpt lat="35.197853" lon="-84.89741"><ele>221.9</ele><time>2026-07-28T23:55:29Z</time></trkpt>
<trkpt lat="35.197878" lon="-84.89744"><ele>222.5</ele><time>2026-07-28T23:55:32Z</time></trkpt>
<trkpt lat="35.197894" lon="-84.89748"><ele>222.8</ele><time>2026-07-28T23:55:35Z</time></trkpt>
<trkpt lat="35.197914" lon="-84.89752"><ele>222.8</ele><time>2026-07-28T23:55:38Z</time></trkpt>
<trkpt lat="35.19793" lon="-84.897556"><ele>223.1</ele><time>2026-07-28T23:55:41Z</time></trkpt>
<trkpt lat="35.197946" lon="-84.897598"><ele>223.4</ele><time>2026-07-28T23:55:44Z</time></trkpt>
<trkpt lat="35.197964" lon="-84.897641"><ele>223.4</ele><time>2026-07-28T23:55:47Z</time></trkpt>
<trkpt lat="35.19798" lon="-84.897678"><ele>223.7</ele><time>2026-07-28T23:55:50Z</time></trkpt>
<trkpt lat="35.197992" lon="-84.897722"><ele>223.7</ele><time>2026-07-28T23:55:53Z</time></trkpt>
<trkpt lat="35.198011" lon="-84.897763"><ele>223.7</ele><time>2026-07-28T23:55:56Z</time></trkpt>
<trkpt lat="35.198024" lon="-84.897796"><ele>223.7</ele><time>2026-07-28T23:55:59Z</time></trkpt>
<trkpt lat="35.198044" lon="-84.897834"><ele>223.7</ele><time>2026-07-28T23:56:02Z</time></trkpt>
<trkpt lat="35.198058" lon="-84.897867"><ele>223.7</ele><time>2026-07-28T23:56:05Z</time></trkpt>
<trkpt lat="35.198072" lon="-84.897905"><ele>224.0</ele><time>2026-07-28T23:56:08Z</time></trkpt>
<trkpt lat="35.198087" lon="-84.897942"><ele>224.6</ele><time>2026-07-28T23:56:11Z</time></trkpt>
<trkpt lat="35.198099" lon="-84.89798"><ele>224.9</ele><time>2026-07-28T23:56:14Z</time></trkpt>
<trkpt lat="35.19811" lon="-84.898012"><ele>225.2</ele><time>2026-07-28T23:56:16Z</time></trkpt>
<trkpt lat="35.198116" lon="-84.898053"><ele>225.6</ele><time>2026-07-28T23:56:19Z</time></trkpt>
<trkpt lat="35.198128" lon="-84.898094"><ele>225.9</ele><time>2026-07-28T23:56:22Z</time></trkpt>
<trkpt lat="35.198137" lon="-84.898125"><ele>225.9</ele><time>2026-07-28T23:56:24Z</time></trkpt>
<trkpt lat="35.198159" lon="-84.898169"><ele>225.6</ele><time>2026-07-28T23:56:27Z</time></trkpt>
<trkpt lat="35.198179" lon="-84.898205"><ele>225.6</ele><time>2026-07-28T23:56:30Z</time></trkpt>
<trkpt lat="35.198198" lon="-84.898243"><ele>225.6</ele><time>2026-07-28T23:56:33Z</time></trkpt>
<trkpt lat="35.198212" lon="-84.898287"><ele>225.9</ele><time>2026-07-28T23:56:36Z</time></trkpt>
<trkpt lat="35.198223" lon="-84.898319"><ele>225.6</ele><time>2026-07-28T23:56:38Z</time></trkpt>
<trkpt lat="35.198239" lon="-84.898361"><ele>225.6</ele><time>2026-07-28T23:56:41Z</time></trkpt>
<trkpt lat="35.198253" lon="-84.898399"><ele>225.2</ele><time>2026-07-28T23:56:44Z</time></trkpt>
<trkpt lat="35.198269" lon="-84.898442"><ele>224.6</ele><time>2026-07-28T23:56:47Z</time></trkpt>
<trkpt lat="35.198289" lon="-84.898485"><ele>224.3</ele><time>2026-07-28T23:56:50Z</time></trkpt>
<trkpt lat="35.198302" lon="-84.898516"><ele>224.3</ele><time>2026-07-28T23:56:52Z</time></trkpt>
<trkpt lat="35.198312" lon="-84.898547"><ele>224.0</ele><time>2026-07-28T23:56:54Z</time></trkpt>
<trkpt lat="35.198324" lon="-84.89858"><ele>223.4</ele><time>2026-07-28T23:56:56Z</time></trkpt>
<trkpt lat="35.198342" lon="-84.898623"><ele>223.7</ele><time>2026-07-28T23:56:59Z</time></trkpt>
<trkpt lat="35.198358" lon="-84.898664"><ele>223.4</ele><time>2026-07-28T23:57:02Z</time></trkpt>
<trkpt lat="35.198375" lon="-84.898703"><ele>223.1</ele><time>2026-07-28T23:57:05Z</time></trkpt>
<trkpt lat="35.198393" lon="-84.898743"><ele>222.5</ele><time>2026-07-28T23:57:08Z</time></trkpt>
<trkpt lat="35.198404" lon="-84.898774"><ele>222.2</ele><time>2026-07-28T23:57:10Z</time></trkpt>
<trkpt lat="35.198415" lon="-84.898807"><ele>221.9</ele><time>2026-07-28T23:57:12Z</time></trkpt>
<trkpt lat="35.198429" lon="-84.898837"><ele>221.9</ele><time>2026-07-28T23:57:14Z</time></trkpt>
<trkpt lat="35.198442" lon="-84.898869"><ele>221.6</ele><time>2026-07-28T23:57:16Z</time></trkpt>
<trkpt lat="35.198461" lon="-84.898913"><ele>221.3</ele><time>2026-07-28T23:57:19Z</time></trkpt>
<trkpt lat="35.198477" lon="-84.898956"><ele>221.3</ele><time>2026-07-28T23:57:22Z</time></trkpt>
<trkpt lat="35.198489" lon="-84.899"><ele>221.3</ele><time>2026-07-28T23:57:25Z</time></trkpt>
<trkpt lat="35.198505" lon="-84.899045"><ele>220.7</ele><time>2026-07-28T23:57:28Z</time></trkpt>
<trkpt lat="35.198513" lon="-84.899078"><ele>220.7</ele><time>2026-07-28T23:57:30Z</time></trkpt>
<trkpt lat="35.198523" lon="-84.89911"><ele>220.7</ele><time>2026-07-28T23:57:32Z</time></trkpt>
<trkpt lat="35.198535" lon="-84.899144"><ele>220.7</ele><time>2026-07-28T23:57:34Z</time></trkpt>
<trkpt lat="35.198546" lon="-84.899175"><ele>220.7</ele><time>2026-07-28T23:57:36Z</time></trkpt>
<trkpt lat="35.198564" lon="-84.899215"><ele>221.0</ele><time>2026-07-28T23:57:39Z</time></trkpt>
<trkpt lat="35.198578" lon="-84.899255"><ele>220.7</ele><time>2026-07-28T23:57:42Z</time></trkpt>
<trkpt lat="35.198593" lon="-84.899301"><ele>220.7</ele><time>2026-07-28T23:57:45Z</time></trkpt>
<trkpt lat="35.198606" lon="-84.899336"><ele>220.7</ele><time>2026-07-28T23:57:47Z</time></trkpt>
<trkpt lat="35.198617" lon="-84.899367"><ele>220.7</ele><time>2026-07-28T23:57:49Z</time></trkpt>
<trkpt lat="35.19863" lon="-84.899398"><ele>220.4</ele><time>2026-07-28T23:57:51Z</time></trkpt>
<trkpt lat="35.198649" lon="-84.899439"><ele>220.7</ele><time>2026-07-28T23:57:54Z</time></trkpt>
<trkpt lat="35.198664" lon="-84.89948"><ele>220.7</ele><time>2026-07-28T23:57:57Z</time></trkpt>
<trkpt lat="35.198675" lon="-84.899511"><ele>220.4</ele><time>2026-07-28T23:57:59Z</time></trkpt>
<trkpt lat="35.198685" lon="-84.899543"><ele>220.1</ele><time>2026-07-28T23:58:01Z</time></trkpt>
<trkpt lat="35.198696" lon="-84.899577"><ele>220.1</ele><time>2026-07-28T23:58:03Z</time></trkpt>
<trkpt lat="35.198714" lon="-84.899621"><ele>220.1</ele><time>2026-07-28T23:58:06Z</time></trkpt>
<trkpt lat="35.198734" lon="-84.899658"><ele>220.4</ele><time>2026-07-28T23:58:09Z</time></trkpt>
<trkpt lat="35.19875" lon="-84.899701"><ele>220.4</ele><time>2026-07-28T23:58:12Z</time></trkpt>
<trkpt lat="35.19876" lon="-84.899734"><ele>220.4</ele><time>2026-07-28T23:58:14Z</time></trkpt>
<trkpt lat="35.198771" lon="-84.899768"><ele>220.1</ele><time>2026-07-28T23:58:16Z</time></trkpt>
<trkpt lat="35.198783" lon="-84.899799"><ele>220.4</ele><time>2026-07-28T23:58:18Z</time></trkpt>
<trkpt lat="35.198797" lon="-84.899839"><ele>220.4</ele><time>2026-07-28T23:58:21Z</time></trkpt>
<trkpt lat="35.198813" lon="-84.89988"><ele>220.1</ele><time>2026-07-28T23:58:24Z</time></trkpt>
<trkpt lat="35.19882" lon="-84.899914"><ele>220.4</ele><time>2026-07-28T23:58:26Z</time></trkpt>
<trkpt lat="35.198818" lon="-84.89995"><ele>220.4</ele><time>2026-07-28T23:58:28Z</time></trkpt>
<trkpt lat="35.198794" lon="-84.899975"><ele>220.4</ele><time>2026-07-28T23:58:30Z</time></trkpt>
<trkpt lat="35.198768" lon="-84.899989"><ele>220.1</ele><time>2026-07-28T23:58:32Z</time></trkpt>
<trkpt lat="35.198729" lon="-84.9"><ele>219.8</ele><time>2026-07-28T23:58:35Z</time></trkpt>
<trkpt lat="35.198702" lon="-84.900006"><ele>219.5</ele><time>2026-07-28T23:58:37Z</time></trkpt>
<trkpt lat="35.198673" lon="-84.900013"><ele>219.5</ele><time>2026-07-28T23:58:39Z</time></trkpt>
<trkpt lat="35.198643" lon="-84.90002"><ele>219.5</ele><time>2026-07-28T23:58:41Z</time></trkpt>
<trkpt lat="35.198614" lon="-84.900028"><ele>219.2</ele><time>2026-07-28T23:58:43Z</time></trkpt>
<trkpt lat="35.198585" lon="-84.900033"><ele>219.2</ele><time>2026-07-28T23:58:45Z</time></trkpt>
<trkpt lat="35.198552" lon="-84.900049"><ele>218.8</ele><time>2026-07-28T23:58:48Z</time></trkpt>
<trkpt lat="35.198515" lon="-84.900066"><ele>218.5</ele><time>2026-07-28T23:58:51Z</time></trkpt>
<trkpt lat="35.198478" lon="-84.900089"><ele>218.5</ele><time>2026-07-28T23:58:54Z</time></trkpt>
<trkpt lat="35.198451" lon="-84.900101"><ele>218.5</ele><time>2026-07-28T23:58:56Z</time></trkpt>
<trkpt lat="35.198422" lon="-84.900108"><ele>218.8</ele><time>2026-07-28T23:58:58Z</time></trkpt>
<trkpt lat="35.198385" lon="-84.900109"><ele>218.8</ele><time>2026-07-28T23:59:01Z</time></trkpt>
<trkpt lat="35.198352" lon="-84.900103"><ele>218.5</ele><time>2026-07-28T23:59:04Z</time></trkpt>
<trkpt lat="35.198319" lon="-84.900122"><ele>218.2</ele><time>2026-07-28T23:59:07Z</time></trkpt>
<trkpt lat="35.198298" lon="-84.900163"><ele>218.5</ele><time>2026-07-28T23:59:10Z</time></trkpt>
<trkpt lat="35.198268" lon="-84.900195"><ele>218.5</ele><time>2026-07-28T23:59:13Z</time></trkpt>
<trkpt lat="35.198241" lon="-84.900218"><ele>218.2</ele><time>2026-07-28T23:59:16Z</time></trkpt>
<trkpt lat="35.198208" lon="-84.900239"><ele>218.2</ele><time>2026-07-28T23:59:19Z</time></trkpt>
<trkpt lat="35.198184" lon="-84.900258"><ele>218.5</ele><time>2026-07-28T23:59:21Z</time></trkpt>
<trkpt lat="35.198159" lon="-84.900274"><ele>218.2</ele><time>2026-07-28T23:59:23Z</time></trkpt>
<trkpt lat="35.19813" lon="-84.900296"><ele>218.2</ele><time>2026-07-28T23:59:26Z</time></trkpt>
<trkpt lat="35.1981" lon="-84.900318"><ele>218.5</ele><time>2026-07-28T23:59:29Z</time></trkpt>
<trkpt lat="35.198072" lon="-84.900349"><ele>218.5</ele><time>2026-07-28T23:59:32Z</time></trkpt>
<trkpt lat="35.198049" lon="-84.900373"><ele>218.8</ele><time>2026-07-28T23:59:34Z</time></trkpt>
<trkpt lat="35.198019" lon="-84.900399"><ele>218.5</ele><time>2026-07-28T23:59:37Z</time></trkpt>
<trkpt lat="35.19799" lon="-84.900424"><ele>218.2</ele><time>2026-07-28T23:59:40Z</time></trkpt>
<trkpt lat="35.197969" lon="-84.900447"><ele>218.5</ele><time>2026-07-28T23:59:42Z</time></trkpt>
<trkpt lat="35.197953" lon="-84.900474"><ele>218.8</ele><time>2026-07-28T23:59:44Z</time></trkpt>
<trkpt lat="35.19793" lon="-84.900512"><ele>219.5</ele><time>2026-07-28T23:59:47Z</time></trkpt>
<trkpt lat="35.197903" lon="-84.900544"><ele>218.5</ele><time>2026-07-28T23:59:50Z</time></trkpt>
<trkpt lat="35.19788" lon="-84.90058"><ele>218.2</ele><time>2026-07-28T23:59:53Z</time></trkpt>
<trkpt lat="35.197857" lon="-84.900618"><ele>218.2</ele><time>2026-07-28T23:59:56Z</time></trkpt>
<trkpt lat="35.197846" lon="-84.90065"><ele>218.5</ele><time>2026-07-28T23:59:58Z</time></trkpt>
<trkpt lat="35.197842" lon="-84.900685"><ele>218.8</ele><time>2026-07-29T00:00:00Z</time></trkpt>
<trkpt lat="35.197837" lon="-84.900732"><ele>218.8</ele><time>2026-07-29T00:00:03Z</time></trkpt>
<trkpt lat="35.197829" lon="-84.900775"><ele>218.5</ele><time>2026-07-29T00:00:06Z</time></trkpt>
<trkpt lat="35.197823" lon="-84.900823"><ele>218.8</ele><time>2026-07-29T00:00:09Z</time></trkpt>
<trkpt lat="35.197819" lon="-84.900859"><ele>218.8</ele><time>2026-07-29T00:00:11Z</time></trkpt>
<trkpt lat="35.197818" lon="-84.900893"><ele>218.8</ele><time>2026-07-29T00:00:13Z</time></trkpt>
<trkpt lat="35.197805" lon="-84.900933"><ele>218.8</ele><time>2026-07-29T00:00:16Z</time></trkpt>
<trkpt lat="35.19779" lon="-84.900973"><ele>218.8</ele><time>2026-07-29T00:00:19Z</time></trkpt>
<trkpt lat="35.197776" lon="-84.901005"><ele>218.8</ele><time>2026-07-29T00:00:21Z</time></trkpt>
<trkpt lat="35.19776" lon="-84.901034"><ele>219.2</ele><time>2026-07-29T00:00:23Z</time></trkpt>
<trkpt lat="35.197739" lon="-84.901064"><ele>219.2</ele><time>2026-07-29T00:00:26Z</time></trkpt>
<trkpt lat="35.197715" lon="-84.901094"><ele>218.8</ele><time>2026-07-29T00:00:29Z</time></trkpt>
<trkpt lat="35.197696" lon="-84.901119"><ele>219.5</ele><time>2026-07-29T00:00:31Z</time></trkpt>
<trkpt lat="35.197671" lon="-84.901158"><ele>219.8</ele><time>2026-07-29T00:00:34Z</time></trkpt>
<trkpt lat="35.197643" lon="-84.901189"><ele>219.5</ele><time>2026-07-29T00:00:37Z</time></trkpt>
<trkpt lat="35.197618" lon="-84.901225"><ele>219.2</ele><time>2026-07-29T00:00:40Z</time></trkpt>
<trkpt lat="35.197598" lon="-84.901251"><ele>219.2</ele><time>2026-07-29T00:00:42Z</time></trkpt>
<trkpt lat="35.19758" lon="-84.901277"><ele>219.2</ele><time>2026-07-29T00:00:44Z</time></trkpt>
<trkpt lat="35.197561" lon="-84.901301"><ele>218.8</ele><time>2026-07-29T00:00:46Z</time></trkpt>
<trkpt lat="35.197536" lon="-84.901328"><ele>219.2</ele><time>2026-07-29T00:00:49Z</time></trkpt>
<trkpt lat="35.197512" lon="-84.901363"><ele>218.8</ele><time>2026-07-29T00:00:52Z</time></trkpt>
<trkpt lat="35.197494" lon="-84.901392"><ele>218.8</ele><time>2026-07-29T00:00:54Z</time></trkpt>
<trkpt lat="35.197475" lon="-84.901417"><ele>218.8</ele><time>2026-07-29T00:00:56Z</time></trkpt>
<trkpt lat="35.197446" lon="-84.901449"><ele>219.2</ele><time>2026-07-29T00:00:59Z</time></trkpt>
<trkpt lat="35.197424" lon="-84.901484"><ele>219.5</ele><time>2026-07-29T00:01:02Z</time></trkpt>
<trkpt lat="35.197397" lon="-84.901521"><ele>218.8</ele><time>2026-07-29T00:01:05Z</time></trkpt>
<trkpt lat="35.197379" lon="-84.901547"><ele>218.8</ele><time>2026-07-29T00:01:07Z</time></trkpt>
<trkpt lat="35.19735" lon="-84.90158"><ele>219.2</ele><time>2026-07-29T00:01:10Z</time></trkpt>
<trkpt lat="35.197333" lon="-84.901609"><ele>219.2</ele><time>2026-07-29T00:01:12Z</time></trkpt>
<trkpt lat="35.197316" lon="-84.901637"><ele>219.2</ele><time>2026-07-29T00:01:14Z</time></trkpt>
<trkpt lat="35.19729" lon="-84.901668"><ele>218.8</ele><time>2026-07-29T00:01:17Z</time></trkpt>
<trkpt lat="35.197269" lon="-84.901701"><ele>219.5</ele><time>2026-07-29T00:01:20Z</time></trkpt>
<trkpt lat="35.197254" lon="-84.90173"><ele>219.5</ele><time>2026-07-29T00:01:22Z</time></trkpt>
<trkpt lat="35.197231" lon="-84.901768"><ele>219.5</ele><time>2026-07-29T00:01:25Z</time></trkpt>
<trkpt lat="35.197208" lon="-84.901803"><ele>219.8</ele><time>2026-07-29T00:01:28Z</time></trkpt>
<trkpt lat="35.197188" lon="-84.901844"><ele>220.4</ele><time>2026-07-29T00:01:31Z</time></trkpt>
<trkpt lat="35.197164" lon="-84.901885"><ele>220.4</ele><time>2026-07-29T00:01:34Z</time></trkpt>
<trkpt lat="35.197137" lon="-84.901919"><ele>220.1</ele><time>2026-07-29T00:01:37Z</time></trkpt>
<trkpt lat="35.197116" lon="-84.901957"><ele>219.8</ele><time>2026-07-29T00:01:40Z</time></trkpt>
<trkpt lat="35.197095" lon="-84.901998"><ele>219.5</ele><time>2026-07-29T00:01:43Z</time></trkpt>
<trkpt lat="35.197081" lon="-84.902026"><ele>219.5</ele><time>2026-07-29T00:01:45Z</time></trkpt>
<trkpt lat="35.197064" lon="-84.902055"><ele>219.8</ele><time>2026-07-29T00:01:47Z</time></trkpt>
<trkpt lat="35.197041" lon="-84.902093"><ele>219.8</ele><time>2026-07-29T00:01:50Z</time></trkpt>
<trkpt lat="35.197022" lon="-84.902125"><ele>219.8</ele><time>2026-07-29T00:01:53Z</time></trkpt>
<trkpt lat="35.197" lon="-84.902163"><ele>219.8</ele><time>2026-07-29T00:01:56Z</time></trkpt>
<trkpt lat="35.19698" lon="-84.902206"><ele>219.5</ele><time>2026-07-29T00:01:59Z</time></trkpt>
<trkpt lat="35.196957" lon="-84.902241"><ele>219.5</ele><time>2026-07-29T00:02:02Z</time></trkpt>
<trkpt lat="35.196935" lon="-84.90228"><ele>219.5</ele><time>2026-07-29T00:02:05Z</time></trkpt>
<trkpt lat="35.19692" lon="-84.902324"><ele>219.5</ele><time>2026-07-29T00:02:08Z</time></trkpt>
<trkpt lat="35.196909" lon="-84.902355"><ele>220.1</ele><time>2026-07-29T00:02:10Z</time></trkpt>
<trkpt lat="35.196891" lon="-84.902393"><ele>220.4</ele><time>2026-07-29T00:02:13Z</time></trkpt>
<trkpt lat="35.196877" lon="-84.902438"><ele>220.7</ele><time>2026-07-29T00:02:16Z</time></trkpt>
<trkpt lat="35.196867" lon="-84.902486"><ele>220.1</ele><time>2026-07-29T00:02:19Z</time></trkpt>
<trkpt lat="35.196856" lon="-84.90253"><ele>219.5</ele><time>2026-07-29T00:02:22Z</time></trkpt>
<trkpt lat="35.19685" lon="-84.902577"><ele>220.4</ele><time>2026-07-29T00:02:25Z</time></trkpt>
<trkpt lat="35.196843" lon="-84.902624"><ele>219.5</ele><time>2026-07-29T00:02:28Z</time></trkpt>
<trkpt lat="35.196838" lon="-84.902672"><ele>219.8</ele><time>2026-07-29T00:02:31Z</time></trkpt>
<trkpt lat="35.196829" lon="-84.902717"><ele>220.1</ele><time>2026-07-29T00:02:34Z</time></trkpt>
<trkpt lat="35.196825" lon="-84.902764"><ele>221.0</ele><time>2026-07-29T00:02:37Z</time></trkpt>
<trkpt lat="35.196823" lon="-84.902809"><ele>221.3</ele><time>2026-07-29T00:02:40Z</time></trkpt>
<trkpt lat="35.196829" lon="-84.902857"><ele>220.4</ele><time>2026-07-29T00:02:43Z</time></trkpt>
<trkpt lat="35.19683" lon="-84.902903"><ele>220.4</ele><time>2026-07-29T00:02:46Z</time></trkpt>
<trkpt lat="35.196826" lon="-84.902949"><ele>219.8</ele><time>2026-07-29T00:02:49Z</time></trkpt>
<trkpt lat="35.196823" lon="-84.902995"><ele>219.8</ele><time>2026-07-29T00:02:52Z</time></trkpt>
<trkpt lat="35.196827" lon="-84.90304"><ele>220.4</ele><time>2026-07-29T00:02:55Z</time></trkpt>
<trkpt lat="35.196824" lon="-84.903074"><ele>219.5</ele><time>2026-07-29T00:02:57Z</time></trkpt>
<trkpt lat="35.196816" lon="-84.903107"><ele>218.8</ele><time>2026-07-29T00:02:59Z</time></trkpt>
<trkpt lat="35.196818" lon="-84.90314"><ele>220.1</ele><time>2026-07-29T00:03:01Z</time></trkpt>
<trkpt lat="35.196816" lon="-84.903191"><ele>219.8</ele><time>2026-07-29T00:03:04Z</time></trkpt>
<trkpt lat="35.19681" lon="-84.903236"><ele>220.4</ele><time>2026-07-29T00:03:07Z</time></trkpt>
<trkpt lat="35.196803" lon="-84.903268"><ele>220.7</ele><time>2026-07-29T00:03:09Z</time></trkpt>
<trkpt lat="35.196801" lon="-84.903316"><ele>221.0</ele><time>2026-07-29T00:03:12Z</time></trkpt>
<trkpt lat="35.196796" lon="-84.903361"><ele>221.6</ele><time>2026-07-29T00:03:15Z</time></trkpt>
<trkpt lat="35.196797" lon="-84.903403"><ele>222.2</ele><time>2026-07-29T00:03:18Z</time></trkpt>
<trkpt lat="35.196795" lon="-84.903448"><ele>222.8</ele><time>2026-07-29T00:03:21Z</time></trkpt>
<trkpt lat="35.196795" lon="-84.903494"><ele>222.2</ele><time>2026-07-29T00:03:24Z</time></trkpt>
<trkpt lat="35.196795" lon="-84.903539"><ele>221.6</ele><time>2026-07-29T00:03:27Z</time></trkpt>
<trkpt lat="35.196794" lon="-84.903585"><ele>221.6</ele><time>2026-07-29T00:03:30Z</time></trkpt>
<trkpt lat="35.196788" lon="-84.903634"><ele>221.6</ele><time>2026-07-29T00:03:33Z</time></trkpt>
<trkpt lat="35.196783" lon="-84.903681"><ele>221.0</ele><time>2026-07-29T00:03:36Z</time></trkpt>
<trkpt lat="35.196775" lon="-84.903729"><ele>221.3</ele><time>2026-07-29T00:03:39Z</time></trkpt>
<trkpt lat="35.196773" lon="-84.903775"><ele>221.9</ele><time>2026-07-29T00:03:42Z</time></trkpt>
<trkpt lat="35.196766" lon="-84.90382"><ele>221.9</ele><time>2026-07-29T00:03:45Z</time></trkpt>
<trkpt lat="35.196763" lon="-84.903869"><ele>221.6</ele><time>2026-07-29T00:03:48Z</time></trkpt>
<trkpt lat="35.196762" lon="-84.903916"><ele>221.3</ele><time>2026-07-29T00:03:51Z</time></trkpt>
<trkpt lat="35.196757" lon="-84.903957"><ele>221.3</ele><time>2026-07-29T00:03:54Z</time></trkpt>
<trkpt lat="35.196758" lon="-84.904006"><ele>221.0</ele><time>2026-07-29T00:03:57Z</time></trkpt>
<trkpt lat="35.196759" lon="-84.90404"><ele>220.7</ele><time>2026-07-29T00:03:59Z</time></trkpt>
<trkpt lat="35.196754" lon="-84.904087"><ele>220.1</ele><time>2026-07-29T00:04:02Z</time></trkpt>
<trkpt lat="35.19676" lon="-84.904135"><ele>218.8</ele><time>2026-07-29T00:04:05Z</time></trkpt>
<trkpt lat="35.196754" lon="-84.904183"><ele>218.8</ele><time>2026-07-29T00:04:08Z</time></trkpt>
<trkpt lat="35.196749" lon="-84.904217"><ele>218.2</ele><time>2026-07-29T00:04:10Z</time></trkpt>
<trkpt lat="35.196747" lon="-84.904251"><ele>218.5</ele><time>2026-07-29T00:04:12Z</time></trkpt>
<trkpt lat="35.196745" lon="-84.904295"><ele>217.0</ele><time>2026-07-29T00:04:15Z</time></trkpt>
<trkpt lat="35.196746" lon="-84.904341"><ele>217.9</ele><time>2026-07-29T00:04:18Z</time></trkpt>
<trkpt lat="35.196749" lon="-84.90439"><ele>219.2</ele><time>2026-07-29T00:04:21Z</time></trkpt>
<trkpt lat="35.196749" lon="-84.904423"><ele>218.8</ele><time>2026-07-29T00:04:23Z</time></trkpt>
<trkpt lat="35.196742" lon="-84.90447"><ele>219.5</ele><time>2026-07-29T00:04:26Z</time></trkpt>
<trkpt lat="35.196742" lon="-84.904518"><ele>219.5</ele><time>2026-07-29T00:04:29Z</time></trkpt>
<trkpt lat="35.19675" lon="-84.904566"><ele>219.2</ele><time>2026-07-29T00:04:32Z</time></trkpt>
<trkpt lat="35.196751" lon="-84.904611"><ele>218.8</ele><time>2026-07-29T00:04:35Z</time></trkpt>
<trkpt lat="35.196753" lon="-84.904657"><ele>220.1</ele><time>2026-07-29T00:04:38Z</time></trkpt>
<trkpt lat="35.196752" lon="-84.904692"><ele>219.2</ele><time>2026-07-29T00:04:40Z</time></trkpt>
<trkpt lat="35.196753" lon="-84.904742"><ele>219.8</ele><time>2026-07-29T00:04:43Z</time></trkpt>
<trkpt lat="35.196761" lon="-84.904789"><ele>218.8</ele><time>2026-07-29T00:04:46Z</time></trkpt>
<trkpt lat="35.19677" lon="-84.904833"><ele>219.5</ele><time>2026-07-29T00:04:49Z</time></trkpt>
<trkpt lat="35.196788" lon="-84.904877"><ele>220.7</ele><time>2026-07-29T00:04:52Z</time></trkpt>
<trkpt lat="35.196791" lon="-84.904924"><ele>221.0</ele><time>2026-07-29T00:04:55Z</time></trkpt>
<trkpt lat="35.196794" lon="-84.904961"><ele>221.3</ele><time>2026-07-29T00:04:57Z</time></trkpt>
<trkpt lat="35.196796" lon="-84.90501"><ele>220.4</ele><time>2026-07-29T00:05:00Z</time></trkpt>
<trkpt lat="35.196797" lon="-84.905057"><ele>220.7</ele><time>2026-07-29T00:05:03Z</time></trkpt>
<trkpt lat="35.196801" lon="-84.905099"><ele>221.0</ele><time>2026-07-29T00:05:06Z</time></trkpt>
<trkpt lat="35.196808" lon="-84.905147"><ele>222.2</ele><time>2026-07-29T00:05:09Z</time></trkpt>
<trkpt lat="35.196809" lon="-84.905197"><ele>222.5</ele><time>2026-07-29T00:05:12Z</time></trkpt>
<trkpt lat="35.196813" lon="-84.905245"><ele>222.5</ele><time>2026-07-29T00:05:15Z</time></trkpt>
<trkpt lat="35.196818" lon="-84.905294"><ele>221.9</ele><time>2026-07-29T00:05:18Z</time></trkpt>
<trkpt lat="35.196822" lon="-84.905328"><ele>221.6</ele><time>2026-07-29T00:05:20Z</time></trkpt>
<trkpt lat="35.196831" lon="-84.905362"><ele>221.3</ele><time>2026-07-29T00:05:22Z</time></trkpt>
<trkpt lat="35.196832" lon="-84.905398"><ele>220.1</ele><time>2026-07-29T00:05:24Z</time></trkpt>
<trkpt lat="35.196834" lon="-84.905432"><ele>220.1</ele><time>2026-07-29T00:05:26Z</time></trkpt>
<trkpt lat="35.196837" lon="-84.905482"><ele>220.4</ele><time>2026-07-29T00:05:29Z</time></trkpt>
<trkpt lat="35.196844" lon="-84.90553"><ele>220.7</ele><time>2026-07-29T00:05:32Z</time></trkpt>
<trkpt lat="35.196856" lon="-84.905575"><ele>220.1</ele><time>2026-07-29T00:05:35Z</time></trkpt>
<trkpt lat="35.196862" lon="-84.905623"><ele>219.8</ele><time>2026-07-29T00:05:38Z</time></trkpt>
<trkpt lat="35.196862" lon="-84.905657"><ele>220.7</ele><time>2026-07-29T00:05:40Z</time></trkpt>
<trkpt lat="35.196863" lon="-84.905707"><ele>219.8</ele><time>2026-07-29T00:05:43Z</time></trkpt>
<trkpt lat="35.196868" lon="-84.905741"><ele>219.5</ele><time>2026-07-29T00:05:45Z</time></trkpt>
<trkpt lat="35.196873" lon="-84.905775"><ele>222.8</ele><time>2026-07-29T00:05:47Z</time></trkpt>
<trkpt lat="35.196888" lon="-84.905804"><ele>222.5</ele><time>2026-07-29T00:05:49Z</time></trkpt>
<trkpt lat="35.196896" lon="-84.905853"><ele>223.1</ele><time>2026-07-29T00:05:52Z</time></trkpt>
<trkpt lat="35.196892" lon="-84.905902"><ele>224.6</ele><time>2026-07-29T00:05:55Z</time></trkpt>
<trkpt lat="35.196895" lon="-84.90595"><ele>224.9</ele><time>2026-07-29T00:05:58Z</time></trkpt>
<trkpt lat="35.196903" lon="-84.905982"><ele>224.0</ele><time>2026-07-29T00:06:00Z</time></trkpt>
<trkpt lat="35.196906" lon="-84.906032"><ele>224.6</ele><time>2026-07-29T00:06:03Z</time></trkpt>
<trkpt lat="35.196905" lon="-84.906066"><ele>224.0</ele><time>2026-07-29T00:06:05Z</time></trkpt>
<trkpt lat="35.196905" lon="-84.906101"><ele>223.4</ele><time>2026-07-29T00:06:07Z</time></trkpt>
<trkpt lat="35.196902" lon="-84.906135"><ele>224.3</ele><time>2026-07-29T00:06:09Z</time></trkpt>
<trkpt lat="35.196896" lon="-84.906182"><ele>224.0</ele><time>2026-07-29T00:06:12Z</time></trkpt>
<trkpt lat="35.196898" lon="-84.906229"><ele>224.0</ele><time>2026-07-29T00:06:15Z</time></trkpt>
<trkpt lat="35.196902" lon="-84.90627"><ele>223.7</ele><time>2026-07-29T00:06:18Z</time></trkpt>
<trkpt lat="35.196902" lon="-84.906316"><ele>223.7</ele><time>2026-07-29T00:06:21Z</time></trkpt>
<trkpt lat="35.196904" lon="-84.906364"><ele>224.3</ele><time>2026-07-29T00:06:24Z</time></trkpt>
<trkpt lat="35.19691" lon="-84.906411"><ele>223.7</ele><time>2026-07-29T00:06:27Z</time></trkpt>
<trkpt lat="35.196919" lon="-84.906457"><ele>222.5</ele><time>2026-07-29T00:06:30Z</time></trkpt>
<trkpt lat="35.196924" lon="-84.906491"><ele>221.3</ele><time>2026-07-29T00:06:32Z</time></trkpt>
<trkpt lat="35.196918" lon="-84.906537"><ele>222.2</ele><time>2026-07-29T00:06:35Z</time></trkpt>
<trkpt lat="35.19691" lon="-84.906583"><ele>222.5</ele><time>2026-07-29T00:06:38Z</time></trkpt>
<trkpt lat="35.196893" lon="-84.906626"><ele>223.1</ele><time>2026-07-29T00:06:41Z</time></trkpt>
<trkpt lat="35.196891" lon="-84.906672"><ele>222.8</ele><time>2026-07-29T00:06:44Z</time></trkpt>
<trkpt lat="35.196897" lon="-84.906707"><ele>221.9</ele><time>2026-07-29T00:06:46Z</time></trkpt>
<trkpt lat="35.196904" lon="-84.906756"><ele>221.6</ele><time>2026-07-29T00:06:49Z</time></trkpt>
<trkpt lat="35.196907" lon="-84.906803"><ele>220.7</ele><time>2026-07-29T00:06:52Z</time></trkpt>
<trkpt lat="35.196912" lon="-84.906837"><ele>221.9</ele><time>2026-07-29T00:06:54Z</time></trkpt>
<trkpt lat="35.196917" lon="-84.906886"><ele>222.2</ele><time>2026-07-29T00:06:57Z</time></trkpt>
<trkpt lat="35.19692" lon="-84.906936"><ele>222.8</ele><time>2026-07-29T00:07:00Z</time></trkpt>
<trkpt lat="35.196929" lon="-84.906983"><ele>223.4</ele><time>2026-07-29T00:07:03Z</time></trkpt>
<trkpt lat="35.196937" lon="-84.907017"><ele>223.7</ele><time>2026-07-29T00:07:05Z</time></trkpt>
<trkpt lat="35.196943" lon="-84.90705"><ele>223.1</ele><time>2026-07-29T00:07:07Z</time></trkpt>
<trkpt lat="35.196952" lon="-84.907082"><ele>222.5</ele><time>2026-07-29T00:07:09Z</time></trkpt>
<trkpt lat="35.196963" lon="-84.907129"><ele>222.2</ele><time>2026-07-29T00:07:12Z</time></trkpt>
<trkpt lat="35.196976" lon="-84.907174"><ele>220.7</ele><time>2026-07-29T00:07:15Z</time></trkpt>
<trkpt lat="35.196981" lon="-84.907207"><ele>220.7</ele><time>2026-07-29T00:07:17Z</time></trkpt>
<trkpt lat="35.19699" lon="-84.907254"><ele>220.7</ele><time>2026-07-29T00:07:20Z</time></trkpt>
<trkpt lat="35.197001" lon="-84.9073"><ele>219.8</ele><time>2026-07-29T00:07:23Z</time></trkpt>
<trkpt lat="35.196998" lon="-84.907347"><ele>219.5</ele><time>2026-07-29T00:07:26Z</time></trkpt>
<trkpt lat="35.197007" lon="-84.907393"><ele>219.5</ele><time>2026-07-29T00:07:29Z</time></trkpt>
<trkpt lat="35.197017" lon="-84.90744"><ele>219.8</ele><time>2026-07-29T00:07:32Z</time></trkpt>
<trkpt lat="35.197022" lon="-84.907488"><ele>221.0</ele><time>2026-07-29T00:07:35Z</time></trkpt>
<trkpt lat="35.197029" lon="-84.907536"><ele>219.8</ele><time>2026-07-29T00:07:38Z</time></trkpt>
<trkpt lat="35.197029" lon="-84.907569"><ele>219.8</ele><time>2026-07-29T00:07:40Z</time></trkpt>
<trkpt lat="35.197027" lon="-84.907619"><ele>220.1</ele><time>2026-07-29T00:07:43Z</time></trkpt>
<trkpt lat="35.197032" lon="-84.907667"><ele>221.9</ele><time>2026-07-29T00:07:46Z</time></trkpt>
<trkpt lat="35.19703" lon="-84.907716"><ele>222.8</ele><time>2026-07-29T00:07:49Z</time></trkpt>
<trkpt lat="35.197031" lon="-84.90776"><ele>223.7</ele><time>2026-07-29T00:07:52Z</time></trkpt>
<trkpt lat="35.197027" lon="-84.907808"><ele>224.0</ele><time>2026-07-29T00:07:55Z</time></trkpt>
<trkpt lat="35.197028" lon="-84.907857"><ele>224.6</ele><time>2026-07-29T00:07:58Z</time></trkpt>
<trkpt lat="35.197025" lon="-84.907905"><ele>225.2</ele><time>2026-07-29T00:08:01Z</time></trkpt>
<trkpt lat="35.197021" lon="-84.907955"><ele>226.2</ele><time>2026-07-29T00:08:04Z</time></trkpt>
<trkpt lat="35.197019" lon="-84.908001"><ele>226.2</ele><time>2026-07-29T00:08:07Z</time></trkpt>
<trkpt lat="35.197013" lon="-84.908034"><ele>226.8</ele><time>2026-07-29T00:08:09Z</time></trkpt>
<trkpt lat="35.197018" lon="-84.908067"><ele>226.5</ele><time>2026-07-29T00:08:11Z</time></trkpt>
<trkpt lat="35.197021" lon="-84.908101"><ele>226.2</ele><time>2026-07-29T00:08:13Z</time></trkpt>
<trkpt lat="35.197019" lon="-84.908151"><ele>225.6</ele><time>2026-07-29T00:08:16Z</time></trkpt>
<trkpt lat="35.197023" lon="-84.908194"><ele>225.6</ele><time>2026-07-29T00:08:19Z</time></trkpt>
<trkpt lat="35.197025" lon="-84.908239"><ele>225.6</ele><time>2026-07-29T00:08:22Z</time></trkpt>
<trkpt lat="35.197035" lon="-84.908287"><ele>224.0</ele><time>2026-07-29T00:08:25Z</time></trkpt>
<trkpt lat="35.197044" lon="-84.90832"><ele>224.3</ele><time>2026-07-29T00:08:27Z</time></trkpt>
<trkpt lat="35.19706" lon="-84.908363"><ele>224.6</ele><time>2026-07-29T00:08:30Z</time></trkpt>
<trkpt lat="35.197077" lon="-84.908404"><ele>224.0</ele><time>2026-07-29T00:08:33Z</time></trkpt>
<trkpt lat="35.197091" lon="-84.908445"><ele>223.7</ele><time>2026-07-29T00:08:36Z</time></trkpt>
<trkpt lat="35.19709" lon="-84.908492"><ele>222.5</ele><time>2026-07-29T00:08:39Z</time></trkpt>
<trkpt lat="35.197079" lon="-84.908525"><ele>223.1</ele><time>2026-07-29T00:08:41Z</time></trkpt>
<trkpt lat="35.197054" lon="-84.908558"><ele>222.8</ele><time>2026-07-29T00:08:44Z</time></trkpt>
<trkpt lat="35.197023" lon="-84.908584"><ele>222.8</ele><time>2026-07-29T00:08:47Z</time></trkpt>
<trkpt lat="35.19699" lon="-84.908614"><ele>222.8</ele><time>2026-07-29T00:08:50Z</time></trkpt>
<trkpt lat="35.196966" lon="-84.908631"><ele>222.5</ele><time>2026-07-29T00:08:52Z</time></trkpt>
<trkpt lat="35.196939" lon="-84.908644"><ele>223.1</ele><time>2026-07-29T00:08:54Z</time></trkpt>
<trkpt lat="35.196905" lon="-84.908659"><ele>223.4</ele><time>2026-07-29T00:08:57Z</time></trkpt>
<trkpt lat="35.196871" lon="-84.908679"><ele>223.4</ele><time>2026-07-29T00:09:00Z</time></trkpt>
<trkpt lat="35.196837" lon="-84.908701"><ele>223.7</ele><time>2026-07-29T00:09:03Z</time></trkpt>
<trkpt lat="35.196809" lon="-84.908716"><ele>223.4</ele><time>2026-07-29T00:09:05Z</time></trkpt>
<trkpt lat="35.196781" lon="-84.90873"><ele>223.4</ele><time>2026-07-29T00:09:07Z</time></trkpt>
<trkpt lat="35.196755" lon="-84.908745"><ele>223.1</ele><time>2026-07-29T00:09:09Z</time></trkpt>
<trkpt lat="35.196723" lon="-84.908761"><ele>222.8</ele><time>2026-07-29T00:09:12Z</time></trkpt>
<trkpt lat="35.196687" lon="-84.908782"><ele>222.8</ele><time>2026-07-29T00:09:15Z</time></trkpt>
<trkpt lat="35.19666" lon="-84.9088"><ele>223.4</ele><time>2026-07-29T00:09:17Z</time></trkpt>
<trkpt lat="35.196634" lon="-84.908816"><ele>223.7</ele><time>2026-07-29T00:09:19Z</time></trkpt>
<trkpt lat="35.196607" lon="-84.908832"><ele>223.7</ele><time>2026-07-29T00:09:21Z</time></trkpt>
<trkpt lat="35.196581" lon="-84.908846"><ele>223.7</ele><time>2026-07-29T00:09:23Z</time></trkpt>
<trkpt lat="35.196546" lon="-84.908865"><ele>223.4</ele><time>2026-07-29T00:09:26Z</time></trkpt>
<trkpt lat="35.19651" lon="-84.908887"><ele>223.4</ele><time>2026-07-29T00:09:29Z</time></trkpt>
<trkpt lat="35.19647" lon="-84.908905"><ele>223.4</ele><time>2026-07-29T00:09:32Z</time></trkpt>
<trkpt lat="35.196442" lon="-84.908915"><ele>223.1</ele><time>2026-07-29T00:09:34Z</time></trkpt>
<trkpt lat="35.1964" lon="-84.90893"><ele>222.8</ele><time>2026-07-29T00:09:37Z</time></trkpt>
<trkpt lat="35.196365" lon="-84.908942"><ele>222.5</ele><time>2026-07-29T00:09:40Z</time></trkpt>
<trkpt lat="35.196332" lon="-84.908952"><ele>222.2</ele><time>2026-07-29T00:09:43Z</time></trkpt>
<trkpt lat="35.196304" lon="-84.908959"><ele>222.5</ele><time>2026-07-29T00:09:45Z</time></trkpt>
<trkpt lat="35.196274" lon="-84.908966"><ele>222.8</ele><time>2026-07-29T00:09:47Z</time></trkpt>
<trkpt lat="35.196243" lon="-84.908974"><ele>223.4</ele><time>2026-07-29T00:09:49Z</time></trkpt>
<trkpt lat="35.196215" lon="-84.908979"><ele>223.7</ele><time>2026-07-29T00:09:51Z</time></trkpt>
<trkpt lat="35.196181" lon="-84.908983"><ele>223.7</ele><time>2026-07-29T00:09:54Z</time></trkpt>
<trkpt lat="35.196143" lon="-84.90899"><ele>223.7</ele><time>2026-07-29T00:09:57Z</time></trkpt>
<trkpt lat="35.196115" lon="-84.908995"><ele>223.4</ele><time>2026-07-29T00:09:59Z</time></trkpt>
<trkpt lat="35.196086" lon="-84.908997"><ele>223.4</ele><time>2026-07-29T00:10:01Z</time></trkpt>
<trkpt lat="35.196056" lon="-84.908999"><ele>223.1</ele><time>2026-07-29T00:10:03Z</time></trkpt>
<trkpt lat="35.196021" lon="-84.909001"><ele>223.1</ele><time>2026-07-29T00:10:06Z</time></trkpt>
<trkpt lat="35.195985" lon="-84.909005"><ele>222.8</ele><time>2026-07-29T00:10:09Z</time></trkpt>
<trkpt lat="35.195957" lon="-84.909003"><ele>223.1</ele><time>2026-07-29T00:10:11Z</time></trkpt>
<trkpt lat="35.195928" lon="-84.908999"><ele>223.4</ele><time>2026-07-29T00:10:13Z</time></trkpt>
<trkpt lat="35.1959" lon="-84.908991"><ele>223.1</ele><time>2026-07-29T00:10:15Z</time></trkpt>
<trkpt lat="35.195865" lon="-84.908977"><ele>222.8</ele><time>2026-07-29T00:10:18Z</time></trkpt>
<trkpt lat="35.195835" lon="-84.908952"><ele>222.5</ele><time>2026-07-29T00:10:21Z</time></trkpt>
<trkpt lat="35.19581" lon="-84.908916"><ele>222.5</ele><time>2026-07-29T00:10:24Z</time></trkpt>
<trkpt lat="35.1958" lon="-84.908882"><ele>222.5</ele><time>2026-07-29T00:10:26Z</time></trkpt>
<trkpt lat="35.195796" lon="-84.908847"><ele>222.2</ele><time>2026-07-29T00:10:28Z</time></trkpt>
<trkpt lat="35.195795" lon="-84.908813"><ele>222.2</ele><time>2026-07-29T00:10:30Z</time></trkpt>
<trkpt lat="35.195799" lon="-84.908768"><ele>221.9</ele><time>2026-07-29T00:10:33Z</time></trkpt>
<trkpt lat="35.195811" lon="-84.908727"><ele>222.5</ele><time>2026-07-29T00:10:36Z</time></trkpt>
<trkpt lat="35.195816" lon="-84.908692"><ele>222.8</ele><time>2026-07-29T00:10:38Z</time></trkpt>
<trkpt lat="35.19582" lon="-84.908657"><ele>222.8</ele><time>2026-07-29T00:10:40Z</time></trkpt>
<trkpt lat="35.19582" lon="-84.908619"><ele>222.8</ele><time>2026-07-29T00:10:42Z</time></trkpt>
<trkpt lat="35.19582" lon="-84.908581"><ele>223.1</ele><time>2026-07-29T00:10:44Z</time></trkpt>
<trkpt lat="35.195824" lon="-84.908534"><ele>224.0</ele><time>2026-07-29T00:10:47Z</time></trkpt>
<trkpt lat="35.19582" lon="-84.908487"><ele>224.3</ele><time>2026-07-29T00:10:50Z</time></trkpt>
<trkpt lat="35.195822" lon="-84.908436"><ele>224.0</ele><time>2026-07-29T00:10:53Z</time></trkpt>
<trkpt lat="35.195825" lon="-84.908401"><ele>223.4</ele><time>2026-07-29T00:10:55Z</time></trkpt>
<trkpt lat="35.195826" lon="-84.908363"><ele>223.4</ele><time>2026-07-29T00:10:57Z</time></trkpt>
<trkpt lat="35.195831" lon="-84.908318"><ele>223.4</ele><time>2026-07-29T00:11:00Z</time></trkpt>
<trkpt lat="35.195844" lon="-84.908278"><ele>224.0</ele><time>2026-07-29T00:11:03Z</time></trkpt>
<trkpt lat="35.195854" lon="-84.908233"><ele>223.7</ele><time>2026-07-29T00:11:06Z</time></trkpt>
<trkpt lat="35.195859" lon="-84.9082"><ele>223.4</ele><time>2026-07-29T00:11:08Z</time></trkpt>
<trkpt lat="35.195867" lon="-84.908166"><ele>222.8</ele><time>2026-07-29T00:11:10Z</time></trkpt>
<trkpt lat="35.195872" lon="-84.90813"><ele>222.5</ele><time>2026-07-29T00:11:12Z</time></trkpt>
<trkpt lat="35.195878" lon="-84.908096"><ele>222.8</ele><time>2026-07-29T00:11:14Z</time></trkpt>
<trkpt lat="35.195889" lon="-84.908053"><ele>222.8</ele><time>2026-07-29T00:11:17Z</time></trkpt>
<trkpt lat="35.195904" lon="-84.908014"><ele>223.7</ele><time>2026-07-29T00:11:20Z</time></trkpt>
<trkpt lat="35.195911" lon="-84.907963"><ele>224.3</ele><time>2026-07-29T00:11:23Z</time></trkpt>
<trkpt lat="35.195919" lon="-84.907923"><ele>224.6</ele><time>2026-07-29T00:11:25Z</time></trkpt>
<trkpt lat="35.195931" lon="-84.907886"><ele>225.6</ele><time>2026-07-29T00:11:27Z</time></trkpt>
<trkpt lat="35.19594" lon="-84.907848"><ele>226.2</ele><time>2026-07-29T00:11:29Z</time></trkpt>
<trkpt lat="35.195947" lon="-84.907809"><ele>226.5</ele><time>2026-07-29T00:11:31Z</time></trkpt>
<trkpt lat="35.195954" lon="-84.907771"><ele>226.8</ele><time>2026-07-29T00:11:33Z</time></trkpt>
<trkpt lat="35.19596" lon="-84.907724"><ele>225.2</ele><time>2026-07-29T00:11:36Z</time></trkpt>
<trkpt lat="35.195973" lon="-84.907675"><ele>226.2</ele><time>2026-07-29T00:11:39Z</time></trkpt>
<trkpt lat="35.195979" lon="-84.907641"><ele>226.5</ele><time>2026-07-29T00:11:41Z</time></trkpt>
<trkpt lat="35.19598" lon="-84.907593"><ele>225.2</ele><time>2026-07-29T00:11:44Z</time></trkpt>
<trkpt lat="35.19599" lon="-84.907562"><ele>225.6</ele><time>2026-07-29T00:11:46Z</time></trkpt>
<trkpt lat="35.196002" lon="-84.907528"><ele>226.5</ele><time>2026-07-29T00:11:48Z</time></trkpt>
<trkpt lat="35.196016" lon="-84.907497"><ele>227.1</ele><time>2026-07-29T00:11:50Z</time></trkpt>
<trkpt lat="35.196025" lon="-84.907462"><ele>227.1</ele><time>2026-07-29T00:11:52Z</time></trkpt>
<trkpt lat="35.196032" lon="-84.907426"><ele>227.7</ele><time>2026-07-29T00:11:54Z</time></trkpt>
<trkpt lat="35.196041" lon="-84.907392"><ele>227.1</ele><time>2026-07-29T00:11:56Z</time></trkpt>
<trkpt lat="35.196051" lon="-84.907345"><ele>227.1</ele><time>2026-07-29T00:11:59Z</time></trkpt>
<trkpt lat="35.196061" lon="-84.907309"><ele>228.0</ele><time>2026-07-29T00:12:01Z</time></trkpt>
<trkpt lat="35.196068" lon="-84.907275"><ele>227.4</ele><time>2026-07-29T00:12:03Z</time></trkpt>
<trkpt lat="35.196073" lon="-84.90723"><ele>227.4</ele><time>2026-07-29T00:12:06Z</time></trkpt>
<trkpt lat="35.196074" lon="-84.907194"><ele>227.4</ele><time>2026-07-29T00:12:08Z</time></trkpt>
<trkpt lat="35.196074" lon="-84.907159"><ele>227.7</ele><time>2026-07-29T00:12:10Z</time></trkpt>
<trkpt lat="35.196075" lon="-84.907124"><ele>228.3</ele><time>2026-07-29T00:12:12Z</time></trkpt>
<trkpt lat="35.196078" lon="-84.907088"><ele>228.9</ele><time>2026-07-29T00:12:14Z</time></trkpt>
<trkpt lat="35.19608" lon="-84.90705"><ele>229.2</ele><time>2026-07-29T00:12:16Z</time></trkpt>
<trkpt lat="35.196081" lon="-84.90701"><ele>228.3</ele><time>2026-07-29T00:12:19Z</time></trkpt>
<trkpt lat="35.196083" lon="-84.906974"><ele>228.9</ele><time>2026-07-29T00:12:21Z</time></trkpt>
<trkpt lat="35.19608" lon="-84.906926"><ele>229.8</ele><time>2026-07-29T00:12:24Z</time></trkpt>
<trkpt lat="35.196078" lon="-84.906892"><ele>230.1</ele><time>2026-07-29T00:12:26Z</time></trkpt>
<trkpt lat="35.196074" lon="-84.906857"><ele>229.5</ele><time>2026-07-29T00:12:28Z</time></trkpt>
<trkpt lat="35.196071" lon="-84.906824"><ele>228.6</ele><time>2026-07-29T00:12:30Z</time></trkpt>
<trkpt lat="35.196072" lon="-84.90678"><ele>228.6</ele><time>2026-07-29T00:12:33Z</time></trkpt>
<trkpt lat="35.196069" lon="-84.906731"><ele>227.7</ele><time>2026-07-29T00:12:36Z</time></trkpt>
<trkpt lat="35.196069" lon="-84.90668"><ele>228.3</ele><time>2026-07-29T00:12:39Z</time></trkpt>
<trkpt lat="35.196063" lon="-84.906646"><ele>228.9</ele><time>2026-07-29T00:12:41Z</time></trkpt>
<trkpt lat="35.19606" lon="-84.906611"><ele>227.4</ele><time>2026-07-29T00:12:43Z</time></trkpt>
<trkpt lat="35.196059" lon="-84.906578"><ele>226.8</ele><time>2026-07-29T00:12:45Z</time></trkpt>
<trkpt lat="35.196054" lon="-84.906544"><ele>227.1</ele><time>2026-07-29T00:12:47Z</time></trkpt>
<trkpt lat="35.19605" lon="-84.90651"><ele>226.8</ele><time>2026-07-29T00:12:49Z</time></trkpt>
<trkpt lat="35.19605" lon="-84.906476"><ele>227.1</ele><time>2026-07-29T00:12:51Z</time></trkpt>
<trkpt lat="35.196048" lon="-84.906428"><ele>226.5</ele><time>2026-07-29T00:12:54Z</time></trkpt>
<trkpt lat="35.196047" lon="-84.906393"><ele>227.4</ele><time>2026-07-29T00:12:56Z</time></trkpt>
<trkpt lat="35.196045" lon="-84.906345"><ele>226.8</ele><time>2026-07-29T00:12:59Z</time></trkpt>
<trkpt lat="35.196041" lon="-84.906295"><ele>227.1</ele><time>2026-07-29T00:13:02Z</time></trkpt>
<trkpt lat="35.196041" lon="-84.906261"><ele>227.4</ele><time>2026-07-29T00:13:04Z</time></trkpt>
<trkpt lat="35.196043" lon="-84.906223"><ele>226.2</ele><time>2026-07-29T00:13:07Z</time></trkpt>
<trkpt lat="35.196038" lon="-84.906176"><ele>226.5</ele><time>2026-07-29T00:13:10Z</time></trkpt>
<trkpt lat="35.196036" lon="-84.90614"><ele>225.9</ele><time>2026-07-29T00:13:12Z</time></trkpt>
<trkpt lat="35.19603" lon="-84.906092"><ele>224.3</ele><time>2026-07-29T00:13:15Z</time></trkpt>
<trkpt lat="35.196022" lon="-84.906043"><ele>224.3</ele><time>2026-07-29T00:13:18Z</time></trkpt>
<trkpt lat="35.196019" lon="-84.905997"><ele>224.3</ele><time>2026-07-29T00:13:21Z</time></trkpt>
<trkpt lat="35.196012" lon="-84.905951"><ele>224.0</ele><time>2026-07-29T00:13:24Z</time></trkpt>
<trkpt lat="35.196008" lon="-84.905906"><ele>223.1</ele><time>2026-07-29T00:13:27Z</time></trkpt>
<trkpt lat="35.196004" lon="-84.90587"><ele>223.4</ele><time>2026-07-29T00:13:29Z</time></trkpt>
<trkpt lat="35.196004" lon="-84.905832"><ele>223.7</ele><time>2026-07-29T00:13:31Z</time></trkpt>
<trkpt lat="35.196003" lon="-84.905796"><ele>224.0</ele><time>2026-07-29T00:13:33Z</time></trkpt>
<trkpt lat="35.196002" lon="-84.90576"><ele>223.7</ele><time>2026-07-29T00:13:35Z</time></trkpt>
<trkpt lat="35.195999" lon="-84.905711"><ele>224.6</ele><time>2026-07-29T00:13:38Z</time></trkpt>
<trkpt lat="35.195996" lon="-84.905677"><ele>224.6</ele><time>2026-07-29T00:13:40Z</time></trkpt>
<trkpt lat="35.195992" lon="-84.905629"><ele>224.3</ele><time>2026-07-29T00:13:43Z</time></trkpt>
<trkpt lat="35.195991" lon="-84.905594"><ele>224.3</ele><time>2026-07-29T00:13:45Z</time></trkpt>
<trkpt lat="35.195987" lon="-84.905559"><ele>224.9</ele><time>2026-07-29T00:13:47Z</time></trkpt>
<trkpt lat="35.195979" lon="-84.905525"><ele>224.3</ele><time>2026-07-29T00:13:49Z</time></trkpt>
<trkpt lat="35.195973" lon="-84.905491"><ele>224.0</ele><time>2026-07-29T00:13:51Z</time></trkpt>
<trkpt lat="35.195963" lon="-84.905443"><ele>224.3</ele><time>2026-07-29T00:13:54Z</time></trkpt>
<trkpt lat="35.195956" lon="-84.905393"><ele>224.3</ele><time>2026-07-29T00:13:57Z</time></trkpt>
<trkpt lat="35.195955" lon="-84.905359"><ele>224.6</ele><time>2026-07-29T00:13:59Z</time></trkpt>
<trkpt lat="35.19595" lon="-84.90531"><ele>225.2</ele><time>2026-07-29T00:14:02Z</time></trkpt>
<trkpt lat="35.195949" lon="-84.905274"><ele>226.2</ele><time>2026-07-29T00:14:04Z</time></trkpt>
<trkpt lat="35.195941" lon="-84.905226"><ele>225.9</ele><time>2026-07-29T00:14:07Z</time></trkpt>
<trkpt lat="35.19593" lon="-84.905194"><ele>225.2</ele><time>2026-07-29T00:14:09Z</time></trkpt>
<trkpt lat="35.195922" lon="-84.905162"><ele>224.9</ele><time>2026-07-29T00:14:11Z</time></trkpt>
<trkpt lat="35.195919" lon="-84.905126"><ele>225.9</ele><time>2026-07-29T00:14:13Z</time></trkpt>
<trkpt lat="35.195914" lon="-84.90509"><ele>226.5</ele><time>2026-07-29T00:14:15Z</time></trkpt>
<trkpt lat="35.19591" lon="-84.905055"><ele>227.1</ele><time>2026-07-29T00:14:17Z</time></trkpt>
<trkpt lat="35.195901" lon="-84.905004"><ele>225.9</ele><time>2026-07-29T00:14:20Z</time></trkpt>
<trkpt lat="35.195894" lon="-84.904957"><ele>226.2</ele><time>2026-07-29T00:14:23Z</time></trkpt>
<trkpt lat="35.195885" lon="-84.904908"><ele>225.9</ele><time>2026-07-29T00:14:26Z</time></trkpt>
<trkpt lat="35.195883" lon="-84.904872"><ele>225.6</ele><time>2026-07-29T00:14:28Z</time></trkpt>
<trkpt lat="35.195881" lon="-84.904838"><ele>225.9</ele><time>2026-07-29T00:14:30Z</time></trkpt>
<trkpt lat="35.195872" lon="-84.904803"><ele>224.9</ele><time>2026-07-29T00:14:32Z</time></trkpt>
<trkpt lat="35.195866" lon="-84.904767"><ele>224.9</ele><time>2026-07-29T00:14:34Z</time></trkpt>
<trkpt lat="35.195864" lon="-84.904733"><ele>224.0</ele><time>2026-07-29T00:14:36Z</time></trkpt>
<trkpt lat="35.195863" lon="-84.904699"><ele>223.7</ele><time>2026-07-29T00:14:38Z</time></trkpt>
<trkpt lat="35.195864" lon="-84.904663"><ele>224.0</ele><time>2026-07-29T00:14:40Z</time></trkpt>
<trkpt lat="35.19586" lon="-84.904615"><ele>225.2</ele><time>2026-07-29T00:14:43Z</time></trkpt>
<trkpt lat="35.195855" lon="-84.904582"><ele>225.6</ele><time>2026-07-29T00:14:45Z</time></trkpt>
<trkpt lat="35.195854" lon="-84.904548"><ele>226.2</ele><time>2026-07-29T00:14:47Z</time></trkpt>
<trkpt lat="35.19585" lon="-84.904498"><ele>225.6</ele><time>2026-07-29T00:14:50Z</time></trkpt>
<trkpt lat="35.19584" lon="-84.904461"><ele>226.2</ele><time>2026-07-29T00:14:52Z</time></trkpt>
<trkpt lat="35.195847" lon="-84.904424"><ele>226.2</ele><time>2026-07-29T00:14:54Z</time></trkpt>
<trkpt lat="35.195853" lon="-84.904377"><ele>227.1</ele><time>2026-07-29T00:14:56Z</time></trkpt>
<trkpt lat="35.195855" lon="-84.90433"><ele>228.6</ele><time>2026-07-29T00:14:59Z</time></trkpt>
<trkpt lat="35.195872" lon="-84.904288"><ele>229.8</ele><time>2026-07-29T00:15:02Z</time></trkpt>
<trkpt lat="35.195893" lon="-84.904255"><ele>230.4</ele><time>2026-07-29T00:15:05Z</time></trkpt>
<trkpt lat="35.195918" lon="-84.904252"><ele>232.3</ele><time>2026-07-29T00:15:07Z</time></trkpt>
<trkpt lat="35.195919" lon="-84.904256"><ele>231.3</ele><time>2026-07-29T00:15:08Z</time></trkpt>
<trkpt lat="35.195916" lon="-84.904262"><ele>231.0</ele><time>2026-07-29T00:15:46Z</time></trkpt>
<trkpt lat="35.195913" lon="-84.904257"><ele>230.4</ele><time>2026-07-29T00:15:47Z</time></trkpt>
<trkpt lat="35.195939" lon="-84.904222"><ele>229.8</ele><time>2026-07-29T00:15:49Z</time></trkpt>
<trkpt lat="35.195956" lon="-84.904195"><ele>229.8</ele><time>2026-07-29T00:15:52Z</time></trkpt>
<trkpt lat="35.195884" lon="-84.90414"><ele>227.7</ele><time>2026-07-29T00:15:54Z</time></trkpt>
<trkpt lat="35.195852" lon="-84.904118"><ele>223.4</ele><time>2026-07-29T00:15:56Z</time></trkpt>
<trkpt lat="35.195857" lon="-84.904066"><ele>224.0</ele><time>2026-07-29T00:15:59Z</time></trkpt>
<trkpt lat="35.195858" lon="-84.904029"><ele>224.9</ele><time>2026-07-29T00:16:01Z</time></trkpt>
<trkpt lat="35.195849" lon="-84.903996"><ele>223.1</ele><time>2026-07-29T00:16:04Z</time></trkpt>
<trkpt lat="35.195846" lon="-84.903945"><ele>223.1</ele><time>2026-07-29T00:16:07Z</time></trkpt>
<trkpt lat="35.19585" lon="-84.903898"><ele>223.4</ele><time>2026-07-29T00:16:10Z</time></trkpt>
<trkpt lat="35.195857" lon="-84.903864"><ele>223.1</ele><time>2026-07-29T00:16:12Z</time></trkpt>
<trkpt lat="35.195863" lon="-84.903827"><ele>222.5</ele><time>2026-07-29T00:16:14Z</time></trkpt>
<trkpt lat="35.195865" lon="-84.90379"><ele>221.6</ele><time>2026-07-29T00:16:16Z</time></trkpt>
<trkpt lat="35.195863" lon="-84.903755"><ele>221.0</ele><time>2026-07-29T00:16:18Z</time></trkpt>
<trkpt lat="35.195875" lon="-84.903711"><ele>221.3</ele><time>2026-07-29T00:16:21Z</time></trkpt>
<trkpt lat="35.195875" lon="-84.903665"><ele>220.7</ele><time>2026-07-29T00:16:24Z</time></trkpt>
<trkpt lat="35.195883" lon="-84.903618"><ele>220.7</ele><time>2026-07-29T00:16:27Z</time></trkpt>
<trkpt lat="35.195892" lon="-84.903572"><ele>221.3</ele><time>2026-07-29T00:16:30Z</time></trkpt>
<trkpt lat="35.195895" lon="-84.903524"><ele>221.9</ele><time>2026-07-29T00:16:33Z</time></trkpt>
<trkpt lat="35.1959" lon="-84.903473"><ele>222.5</ele><time>2026-07-29T00:16:36Z</time></trkpt>
<trkpt lat="35.195907" lon="-84.903436"><ele>223.4</ele><time>2026-07-29T00:16:38Z</time></trkpt>
<trkpt lat="35.195919" lon="-84.903401"><ele>224.0</ele><time>2026-07-29T00:16:40Z</time></trkpt>
<trkpt lat="35.195934" lon="-84.903361"><ele>226.2</ele><time>2026-07-29T00:16:42Z</time></trkpt>
<trkpt lat="35.195951" lon="-84.903327"><ele>226.5</ele><time>2026-07-29T00:16:44Z</time></trkpt>
<trkpt lat="35.195952" lon="-84.903288"><ele>226.5</ele><time>2026-07-29T00:16:46Z</time></trkpt>
<trkpt lat="35.195952" lon="-84.903252"><ele>226.2</ele><time>2026-07-29T00:16:48Z</time></trkpt>
<trkpt lat="35.195958" lon="-84.903216"><ele>225.2</ele><time>2026-07-29T00:16:50Z</time></trkpt>
<trkpt lat="35.195966" lon="-84.903178"><ele>226.2</ele><time>2026-07-29T00:16:52Z</time></trkpt>
<trkpt lat="35.195972" lon="-84.903142"><ele>226.5</ele><time>2026-07-29T00:16:54Z</time></trkpt>
<trkpt lat="35.195976" lon="-84.903107"><ele>226.8</ele><time>2026-07-29T00:16:56Z</time></trkpt>
<trkpt lat="35.195988" lon="-84.90306"><ele>226.8</ele><time>2026-07-29T00:16:59Z</time></trkpt>
<trkpt lat="35.195991" lon="-84.903027"><ele>225.9</ele><time>2026-07-29T00:17:01Z</time></trkpt>
<trkpt lat="35.195992" lon="-84.902977"><ele>224.3</ele><time>2026-07-29T00:17:04Z</time></trkpt>
<trkpt lat="35.195995" lon="-84.902931"><ele>224.6</ele><time>2026-07-29T00:17:07Z</time></trkpt>
<trkpt lat="35.196007" lon="-84.902883"><ele>223.7</ele><time>2026-07-29T00:17:10Z</time></trkpt>
<trkpt lat="35.196017" lon="-84.902838"><ele>224.0</ele><time>2026-07-29T00:17:13Z</time></trkpt>
<trkpt lat="35.196021" lon="-84.902788"><ele>223.7</ele><time>2026-07-29T00:17:16Z</time></trkpt>
<trkpt lat="35.196024" lon="-84.90275"><ele>224.0</ele><time>2026-07-29T00:17:18Z</time></trkpt>
<trkpt lat="35.196027" lon="-84.902716"><ele>224.0</ele><time>2026-07-29T00:17:20Z</time></trkpt>
<trkpt lat="35.196036" lon="-84.90267"><ele>223.7</ele><time>2026-07-29T00:17:23Z</time></trkpt>
<trkpt lat="35.196041" lon="-84.902636"><ele>223.4</ele><time>2026-07-29T00:17:25Z</time></trkpt>
<trkpt lat="35.196051" lon="-84.902588"><ele>224.0</ele><time>2026-07-29T00:17:28Z</time></trkpt>
<trkpt lat="35.196054" lon="-84.902541"><ele>223.4</ele><time>2026-07-29T00:17:31Z</time></trkpt>
<trkpt lat="35.196056" lon="-84.902494"><ele>222.5</ele><time>2026-07-29T00:17:34Z</time></trkpt>
<trkpt lat="35.196063" lon="-84.902448"><ele>223.7</ele><time>2026-07-29T00:17:37Z</time></trkpt>
<trkpt lat="35.196072" lon="-84.902415"><ele>222.2</ele><time>2026-07-29T00:17:39Z</time></trkpt>
<trkpt lat="35.196082" lon="-84.902382"><ele>222.2</ele><time>2026-07-29T00:17:41Z</time></trkpt>
<trkpt lat="35.196098" lon="-84.902351"><ele>222.8</ele><time>2026-07-29T00:17:43Z</time></trkpt>
<trkpt lat="35.196107" lon="-84.902316"><ele>222.8</ele><time>2026-07-29T00:17:45Z</time></trkpt>
<trkpt lat="35.196112" lon="-84.902283"><ele>222.8</ele><time>2026-07-29T00:17:47Z</time></trkpt>
<trkpt lat="35.196118" lon="-84.902234"><ele>222.2</ele><time>2026-07-29T00:17:50Z</time></trkpt>
<trkpt lat="35.196123" lon="-84.9022"><ele>221.9</ele><time>2026-07-29T00:17:52Z</time></trkpt>
<trkpt lat="35.196131" lon="-84.902168"><ele>222.5</ele><time>2026-07-29T00:17:54Z</time></trkpt>
<trkpt lat="35.196131" lon="-84.902133"><ele>222.5</ele><time>2026-07-29T00:17:56Z</time></trkpt>
<trkpt lat="35.196136" lon="-84.902099"><ele>223.1</ele><time>2026-07-29T00:17:58Z</time></trkpt>
<trkpt lat="35.196148" lon="-84.902068"><ele>222.5</ele><time>2026-07-29T00:18:00Z</time></trkpt>
<trkpt lat="35.196157" lon="-84.90202"><ele>222.2</ele><time>2026-07-29T00:18:03Z</time></trkpt>
<trkpt lat="35.196161" lon="-84.901986"><ele>222.2</ele><time>2026-07-29T00:18:05Z</time></trkpt>
<trkpt lat="35.19617" lon="-84.901939"><ele>222.8</ele><time>2026-07-29T00:18:08Z</time></trkpt>
<trkpt lat="35.196177" lon="-84.901905"><ele>223.1</ele><time>2026-07-29T00:18:10Z</time></trkpt>
<trkpt lat="35.196186" lon="-84.90187"><ele>223.1</ele><time>2026-07-29T00:18:12Z</time></trkpt>
<trkpt lat="35.196194" lon="-84.901838"><ele>223.1</ele><time>2026-07-29T00:18:14Z</time></trkpt>
<trkpt lat="35.196203" lon="-84.901806"><ele>223.1</ele><time>2026-07-29T00:18:16Z</time></trkpt>
<trkpt lat="35.196213" lon="-84.901773"><ele>223.4</ele><time>2026-07-29T00:18:18Z</time></trkpt>
<trkpt lat="35.196227" lon="-84.901728"><ele>222.8</ele><time>2026-07-29T00:18:21Z</time></trkpt>
<trkpt lat="35.196231" lon="-84.901694"><ele>222.2</ele><time>2026-07-29T00:18:23Z</time></trkpt>
<trkpt lat="35.196236" lon="-84.901661"><ele>222.2</ele><time>2026-07-29T00:18:25Z</time></trkpt>
<trkpt lat="35.196242" lon="-84.901626"><ele>223.1</ele><time>2026-07-29T00:18:27Z</time></trkpt>
<trkpt lat="35.196249" lon="-84.901592"><ele>222.8</ele><time>2026-07-29T00:18:29Z</time></trkpt>
<trkpt lat="35.196262" lon="-84.901562"><ele>222.5</ele><time>2026-07-29T00:18:31Z</time></trkpt>
<trkpt lat="35.196283" lon="-84.90152"><ele>222.2</ele><time>2026-07-29T00:18:34Z</time></trkpt>
<trkpt lat="35.196294" lon="-84.901473"><ele>222.2</ele><time>2026-07-29T00:18:37Z</time></trkpt>
<trkpt lat="35.196304" lon="-84.90144"><ele>221.6</ele><time>2026-07-29T00:18:39Z</time></trkpt>
<trkpt lat="35.196321" lon="-84.901395"><ele>223.1</ele><time>2026-07-29T00:18:42Z</time></trkpt>
<trkpt lat="35.196338" lon="-84.901352"><ele>223.4</ele><time>2026-07-29T00:18:45Z</time></trkpt>
<trkpt lat="35.196357" lon="-84.901311"><ele>223.4</ele><time>2026-07-29T00:18:48Z</time></trkpt>
<trkpt lat="35.19638" lon="-84.901271"><ele>223.1</ele><time>2026-07-29T00:18:51Z</time></trkpt>
<trkpt lat="35.196399" lon="-84.901228"><ele>222.2</ele><time>2026-07-29T00:18:54Z</time></trkpt>
<trkpt lat="35.196411" lon="-84.901197"><ele>222.2</ele><time>2026-07-29T00:18:56Z</time></trkpt>
<trkpt lat="35.196435" lon="-84.901158"><ele>222.2</ele><time>2026-07-29T00:18:59Z</time></trkpt>
<trkpt lat="35.196459" lon="-84.901122"><ele>221.6</ele><time>2026-07-29T00:19:02Z</time></trkpt>
<trkpt lat="35.196477" lon="-84.901078"><ele>221.9</ele><time>2026-07-29T00:19:05Z</time></trkpt>
<trkpt lat="35.196491" lon="-84.901049"><ele>221.6</ele><time>2026-07-29T00:19:07Z</time></trkpt>
<trkpt lat="35.196512" lon="-84.901004"><ele>220.7</ele><time>2026-07-29T00:19:10Z</time></trkpt>
<trkpt lat="35.196529" lon="-84.900977"><ele>221.3</ele><time>2026-07-29T00:19:12Z</time></trkpt>
<trkpt lat="35.196553" lon="-84.900942"><ele>220.7</ele><time>2026-07-29T00:19:15Z</time></trkpt>
<trkpt lat="35.196573" lon="-84.900901"><ele>220.1</ele><time>2026-07-29T00:19:18Z</time></trkpt>
<trkpt lat="35.196605" lon="-84.900872"><ele>220.7</ele><time>2026-07-29T00:19:21Z</time></trkpt>
<trkpt lat="35.196627" lon="-84.90085"><ele>221.0</ele><time>2026-07-29T00:19:23Z</time></trkpt>
<trkpt lat="35.196639" lon="-84.900811"><ele>218.8</ele><time>2026-07-29T00:19:26Z</time></trkpt>
<trkpt lat="35.196667" lon="-84.900786"><ele>218.8</ele><time>2026-07-29T00:19:29Z</time></trkpt>
<trkpt lat="35.196706" lon="-84.900778"><ele>218.5</ele><time>2026-07-29T00:19:32Z</time></trkpt>
<trkpt lat="35.196739" lon="-84.900761"><ele>217.6</ele><time>2026-07-29T00:19:35Z</time></trkpt>
<trkpt lat="35.196774" lon="-84.900732"><ele>219.5</ele><time>2026-07-29T00:19:38Z</time></trkpt>
<trkpt lat="35.1968" lon="-84.900712"><ele>219.5</ele><time>2026-07-29T00:19:40Z</time></trkpt>
<trkpt lat="35.196826" lon="-84.900691"><ele>219.5</ele><time>2026-07-29T00:19:42Z</time></trkpt>
<trkpt lat="35.196847" lon="-84.900664"><ele>219.5</ele><time>2026-07-29T00:19:44Z</time></trkpt>
<trkpt lat="35.196869" lon="-84.900641"><ele>219.5</ele><time>2026-07-29T00:19:46Z</time></trkpt>
<trkpt lat="35.196892" lon="-84.90062"><ele>219.5</ele><time>2026-07-29T00:19:48Z</time></trkpt>
<trkpt lat="35.196923" lon="-84.90059"><ele>219.2</ele><time>2026-07-29T00:19:51Z</time></trkpt>
<trkpt lat="35.196944" lon="-84.900567"><ele>219.2</ele><time>2026-07-29T00:19:53Z</time></trkpt>
<trkpt lat="35.196972" lon="-84.900534"><ele>218.8</ele><time>2026-07-29T00:19:56Z</time></trkpt>
<trkpt lat="35.196993" lon="-84.900511"><ele>218.8</ele><time>2026-07-29T00:19:58Z</time></trkpt>
<trkpt lat="35.197016" lon="-84.900491"><ele>219.2</ele><time>2026-07-29T00:20:00Z</time></trkpt>
<trkpt lat="35.197042" lon="-84.900455"><ele>218.8</ele><time>2026-07-29T00:20:03Z</time></trkpt>
<trkpt lat="35.197062" lon="-84.900427"><ele>219.2</ele><time>2026-07-29T00:20:05Z</time></trkpt>
<trkpt lat="35.197082" lon="-84.900402"><ele>219.5</ele><time>2026-07-29T00:20:07Z</time></trkpt>
<trkpt lat="35.197112" lon="-84.900372"><ele>219.5</ele><time>2026-07-29T00:20:10Z</time></trkpt>
<trkpt lat="35.197141" lon="-84.900341"><ele>219.2</ele><time>2026-07-29T00:20:13Z</time></trkpt>
<trkpt lat="35.197176" lon="-84.900315"><ele>219.5</ele><time>2026-07-29T00:20:16Z</time></trkpt>
<trkpt lat="35.1972" lon="-84.900299"><ele>219.2</ele><time>2026-07-29T00:20:18Z</time></trkpt>
<trkpt lat="35.197225" lon="-84.900281"><ele>219.2</ele><time>2026-07-29T00:20:20Z</time></trkpt>
<trkpt lat="35.197251" lon="-84.900264"><ele>219.2</ele><time>2026-07-29T00:20:22Z</time></trkpt>
<trkpt lat="35.197277" lon="-84.90025"><ele>219.5</ele><time>2026-07-29T00:20:24Z</time></trkpt>
<trkpt lat="35.197302" lon="-84.900233"><ele>219.2</ele><time>2026-07-29T00:20:26Z</time></trkpt>
<trkpt lat="35.197323" lon="-84.900211"><ele>219.2</ele><time>2026-07-29T00:20:28Z</time></trkpt>
<trkpt lat="35.197345" lon="-84.900189"><ele>219.2</ele><time>2026-07-29T00:20:30Z</time></trkpt>
<trkpt lat="35.197373" lon="-84.900153"><ele>219.8</ele><time>2026-07-29T00:20:33Z</time></trkpt>
<trkpt lat="35.197392" lon="-84.900127"><ele>220.4</ele><time>2026-07-29T00:20:35Z</time></trkpt>
<trkpt lat="35.197421" lon="-84.900091"><ele>220.4</ele><time>2026-07-29T00:20:38Z</time></trkpt>
<trkpt lat="35.197448" lon="-84.900057"><ele>220.1</ele><time>2026-07-29T00:20:41Z</time></trkpt>
<trkpt lat="35.197476" lon="-84.900028"><ele>219.5</ele><time>2026-07-29T00:20:44Z</time></trkpt>
<trkpt lat="35.197495" lon="-84.900004"><ele>219.8</ele><time>2026-07-29T00:20:46Z</time></trkpt>
<trkpt lat="35.197522" lon="-84.899971"><ele>219.5</ele><time>2026-07-29T00:20:49Z</time></trkpt>
<trkpt lat="35.197553" lon="-84.899941"><ele>219.2</ele><time>2026-07-29T00:20:52Z</time></trkpt>
<trkpt lat="35.197585" lon="-84.899913"><ele>218.8</ele><time>2026-07-29T00:20:55Z</time></trkpt>
<trkpt lat="35.197615" lon="-84.899885"><ele>218.8</ele><time>2026-07-29T00:20:58Z</time></trkpt>
<trkpt lat="35.197637" lon="-84.899864"><ele>218.8</ele><time>2026-07-29T00:21:00Z</time></trkpt>
<trkpt lat="35.19766" lon="-84.899843"><ele>219.2</ele><time>2026-07-29T00:21:02Z</time></trkpt>
<trkpt lat="35.19769" lon="-84.899822"><ele>219.8</ele><time>2026-07-29T00:21:04Z</time></trkpt>
<trkpt lat="35.197723" lon="-84.899794"><ele>219.8</ele><time>2026-07-29T00:21:07Z</time></trkpt>
<trkpt lat="35.197756" lon="-84.899765"><ele>220.1</ele><time>2026-07-29T00:21:10Z</time></trkpt>
<trkpt lat="35.197778" lon="-84.899744"><ele>220.1</ele><time>2026-07-29T00:21:12Z</time></trkpt>
<trkpt lat="35.1978" lon="-84.899723"><ele>220.1</ele><time>2026-07-29T00:21:14Z</time></trkpt>
<trkpt lat="35.197835" lon="-84.8997"><ele>219.8</ele><time>2026-07-29T00:21:17Z</time></trkpt>
<trkpt lat="35.197868" lon="-84.899673"><ele>219.5</ele><time>2026-07-29T00:21:20Z</time></trkpt>
<trkpt lat="35.197902" lon="-84.899648"><ele>219.5</ele><time>2026-07-29T00:21:23Z</time></trkpt>
<trkpt lat="35.197936" lon="-84.899619"><ele>218.8</ele><time>2026-07-29T00:21:26Z</time></trkpt>
<trkpt lat="35.197959" lon="-84.8996"><ele>219.8</ele><time>2026-07-29T00:21:28Z</time></trkpt>
<trkpt lat="35.197981" lon="-84.899576"><ele>219.5</ele><time>2026-07-29T00:21:30Z</time></trkpt>
<trkpt lat="35.198005" lon="-84.899554"><ele>220.4</ele><time>2026-07-29T00:21:32Z</time></trkpt>
<trkpt lat="35.198031" lon="-84.899527"><ele>221.0</ele><time>2026-07-29T00:21:34Z</time></trkpt>
<trkpt lat="35.198053" lon="-84.899505"><ele>221.3</ele><time>2026-07-29T00:21:36Z</time></trkpt>
<trkpt lat="35.198044" lon="-84.899511"><ele>220.1</ele><time>2026-07-29T00:21:39Z</time></trkpt>
<trkpt lat="35.198054" lon="-84.899502"><ele>220.1</ele><time>2026-07-29T00:21:42Z</time></trkpt>
<trkpt lat="35.198069" lon="-84.899509"><ele>220.1</ele><time>2026-07-29T00:21:45Z</time></trkpt>
<trkpt lat="35.198087" lon="-84.899524"><ele>219.8</ele><time>2026-07-29T00:21:48Z</time></trkpt>
<trkpt lat="35.198105" lon="-84.899569"><ele>219.8</ele><time>2026-07-29T00:21:51Z</time></trkpt>
<trkpt lat="35.198123" lon="-84.899614"><ele>219.8</ele><time>2026-07-29T00:21:54Z</time></trkpt>
<trkpt lat="35.198141" lon="-84.899659"><ele>219.8</ele><time>2026-07-29T00:21:57Z</time></trkpt>
<trkpt lat="35.198158" lon="-84.899705"><ele>219.8</ele><time>2026-07-29T00:22:00Z</time></trkpt>
<trkpt lat="35.19818" lon="-84.899767"><ele>219.8</ele><time>2026-07-29T00:22:04Z</time></trkpt>
<trkpt lat="35.198205" lon="-84.899831"><ele>219.8</ele><time>2026-07-29T00:22:08Z</time></trkpt>
<trkpt lat="35.198224" lon="-84.899881"><ele>219.8</ele><time>2026-07-29T00:22:11Z</time></trkpt>
<trkpt lat="35.198251" lon="-84.899945"><ele>219.8</ele><time>2026-07-29T00:22:15Z</time></trkpt>
<trkpt lat="35.198288" lon="-84.900021"><ele>220.1</ele><time>2026-07-29T00:22:20Z</time></trkpt>
<trkpt lat="35.1983" lon="-84.900049"><ele>220.1</ele><time>2026-07-29T00:22:22Z</time></trkpt>
<trkpt lat="35.198307" lon="-84.900075"><ele>220.1</ele><time>2026-07-29T00:22:24Z</time></trkpt>
<trkpt lat="35.198314" lon="-84.900101"><ele>220.1</ele><time>2026-07-29T00:22:26Z</time></trkpt>
<trkpt lat="35.198307" lon="-84.900155"><ele>219.8</ele><time>2026-07-29T00:22:30Z</time></trkpt>
<trkpt lat="35.198293" lon="-84.900175"><ele>219.8</ele><time>2026-07-29T00:22:32Z</time></trkpt>
<trkpt lat="35.198272" lon="-84.900192"><ele>219.8</ele><time>2026-07-29T00:22:34Z</time></trkpt>
<trkpt lat="35.198241" lon="-84.900206"><ele>220.7</ele><time>2026-07-29T00:22:37Z</time></trkpt>
<trkpt lat="35.198217" lon="-84.900225"><ele>220.7</ele><time>2026-07-29T00:22:39Z</time></trkpt>
<trkpt lat="35.198192" lon="-84.900242"><ele>221.6</ele><time>2026-07-29T00:22:41Z</time></trkpt>
<trkpt lat="35.198157" lon="-84.900269"><ele>221.3</ele><time>2026-07-29T00:22:44Z</time></trkpt>
<trkpt lat="35.19813" lon="-84.900288"><ele>221.9</ele><time>2026-07-29T00:22:46Z</time></trkpt>
<trkpt lat="35.198106" lon="-84.90031"><ele>221.0</ele><time>2026-07-29T00:22:48Z</time></trkpt>
<trkpt lat="35.198084" lon="-84.900332"><ele>221.0</ele><time>2026-07-29T00:22:50Z</time></trkpt>
<trkpt lat="35.198058" lon="-84.900357"><ele>221.0</ele><time>2026-07-29T00:22:52Z</time></trkpt>
<trkpt lat="35.19803" lon="-84.90038"><ele>221.3</ele><time>2026-07-29T00:22:54Z</time></trkpt>
<trkpt lat="35.198004" lon="-84.900399"><ele>221.6</ele><time>2026-07-29T00:22:56Z</time></trkpt>
<trkpt lat="35.197982" lon="-84.90042"><ele>221.0</ele><time>2026-07-29T00:22:58Z</time></trkpt>
<trkpt lat="35.19796" lon="-84.900444"><ele>221.3</ele><time>2026-07-29T00:23:00Z</time></trkpt>
<trkpt lat="35.197938" lon="-84.900468"><ele>221.6</ele><time>2026-07-29T00:23:02Z</time></trkpt>
<trkpt lat="35.197918" lon="-84.900492"><ele>220.4</ele><time>2026-07-29T00:23:04Z</time></trkpt>
<trkpt lat="35.197901" lon="-84.900521"><ele>220.7</ele><time>2026-07-29T00:23:06Z</time></trkpt>
<trkpt lat="35.197875" lon="-84.900554"><ele>220.1</ele><time>2026-07-29T00:23:09Z</time></trkpt>
<trkpt lat="35.197852" lon="-84.900593"><ele>218.8</ele><time>2026-07-29T00:23:12Z</time></trkpt>
<trkpt lat="35.197836" lon="-84.900624"><ele>218.2</ele><time>2026-07-29T00:23:14Z</time></trkpt>
<trkpt lat="35.197826" lon="-84.900659"><ele>217.6</ele><time>2026-07-29T00:23:16Z</time></trkpt>
<trkpt lat="35.197824" lon="-84.900698"><ele>218.2</ele><time>2026-07-29T00:23:18Z</time></trkpt>
<trkpt lat="35.197822" lon="-84.900735"><ele>218.5</ele><time>2026-07-29T00:23:20Z</time></trkpt>
<trkpt lat="35.197823" lon="-84.900772"><ele>218.8</ele><time>2026-07-29T00:23:22Z</time></trkpt>
<trkpt lat="35.197819" lon="-84.90081"><ele>219.5</ele><time>2026-07-29T00:23:24Z</time></trkpt>
<trkpt lat="35.197817" lon="-84.900847"><ele>220.4</ele><time>2026-07-29T00:23:26Z</time></trkpt>
<trkpt lat="35.197817" lon="-84.900886"><ele>220.1</ele><time>2026-07-29T00:23:28Z</time></trkpt>
<trkpt lat="35.197814" lon="-84.900925"><ele>220.1</ele><time>2026-07-29T00:23:30Z</time></trkpt>
<trkpt lat="35.197798" lon="-84.900959"><ele>219.5</ele><time>2026-07-29T00:23:32Z</time></trkpt>
<trkpt lat="35.197782" lon="-84.900992"><ele>219.5</ele><time>2026-07-29T00:23:34Z</time></trkpt>
<trkpt lat="35.197761" lon="-84.901022"><ele>219.2</ele><time>2026-07-29T00:23:36Z</time></trkpt>
<trkpt lat="35.197738" lon="-84.901051"><ele>218.5</ele><time>2026-07-29T00:23:38Z</time></trkpt>
<trkpt lat="35.197717" lon="-84.901077"><ele>218.8</ele><time>2026-07-29T00:23:40Z</time></trkpt>
<trkpt lat="35.197687" lon="-84.901112"><ele>218.8</ele><time>2026-07-29T00:23:43Z</time></trkpt>
<trkpt lat="35.197661" lon="-84.90115"><ele>219.2</ele><time>2026-07-29T00:23:46Z</time></trkpt>
<trkpt lat="35.197639" lon="-84.901177"><ele>219.2</ele><time>2026-07-29T00:23:48Z</time></trkpt>
<trkpt lat="35.197619" lon="-84.901206"><ele>219.5</ele><time>2026-07-29T00:23:50Z</time></trkpt>
<trkpt lat="35.197601" lon="-84.901234"><ele>219.8</ele><time>2026-07-29T00:23:52Z</time></trkpt>
<trkpt lat="35.197578" lon="-84.901259"><ele>220.4</ele><time>2026-07-29T00:23:54Z</time></trkpt>
<trkpt lat="35.197554" lon="-84.901285"><ele>220.7</ele><time>2026-07-29T00:23:56Z</time></trkpt>
<trkpt lat="35.197532" lon="-84.90131"><ele>221.0</ele><time>2026-07-29T00:23:58Z</time></trkpt>
<trkpt lat="35.197511" lon="-84.901336"><ele>221.0</ele><time>2026-07-29T00:24:00Z</time></trkpt>
<trkpt lat="35.19749" lon="-84.901362"><ele>221.9</ele><time>2026-07-29T00:24:02Z</time></trkpt>
<trkpt lat="35.197468" lon="-84.90139"><ele>221.9</ele><time>2026-07-29T00:24:04Z</time></trkpt>
<trkpt lat="35.197449" lon="-84.901416"><ele>221.6</ele><time>2026-07-29T00:24:06Z</time></trkpt>
<trkpt lat="35.19743" lon="-84.901442"><ele>221.6</ele><time>2026-07-29T00:24:08Z</time></trkpt>
<trkpt lat="35.197409" lon="-84.901467"><ele>221.6</ele><time>2026-07-29T00:24:10Z</time></trkpt>
<trkpt lat="35.197392" lon="-84.901494"><ele>221.9</ele><time>2026-07-29T00:24:12Z</time></trkpt>
<trkpt lat="35.197374" lon="-84.901522"><ele>221.9</ele><time>2026-07-29T00:24:14Z</time></trkpt>
<trkpt lat="35.197355" lon="-84.901552"><ele>221.6</ele><time>2026-07-29T00:24:16Z</time></trkpt>
<trkpt lat="35.197337" lon="-84.901581"><ele>221.9</ele><time>2026-07-29T00:24:18Z</time></trkpt>
<trkpt lat="35.197318" lon="-84.901609"><ele>222.2</ele><time>2026-07-29T00:24:20Z</time></trkpt>
<trkpt lat="35.1973" lon="-84.901637"><ele>222.2</ele><time>2026-07-29T00:24:22Z</time></trkpt>
<trkpt lat="35.197283" lon="-84.901665"><ele>222.2</ele><time>2026-07-29T00:24:24Z</time></trkpt>
<trkpt lat="35.197266" lon="-84.901694"><ele>222.5</ele><time>2026-07-29T00:24:26Z</time></trkpt>
<trkpt lat="35.197251" lon="-84.901723"><ele>222.8</ele><time>2026-07-29T00:24:28Z</time></trkpt>
<trkpt lat="35.197234" lon="-84.901749"><ele>223.1</ele><time>2026-07-29T00:24:30Z</time></trkpt>
<trkpt lat="35.197216" lon="-84.901776"><ele>223.1</ele><time>2026-07-29T00:24:32Z</time></trkpt>
<trkpt lat="35.197198" lon="-84.901802"><ele>223.1</ele><time>2026-07-29T00:24:34Z</time></trkpt>
<trkpt lat="35.197181" lon="-84.90183"><ele>223.4</ele><time>2026-07-29T00:24:36Z</time></trkpt>
<trkpt lat="35.197164" lon="-84.901858"><ele>224.0</ele><time>2026-07-29T00:24:38Z</time></trkpt>
<trkpt lat="35.197148" lon="-84.901887"><ele>224.0</ele><time>2026-07-29T00:24:40Z</time></trkpt>
<trkpt lat="35.197132" lon="-84.901916"><ele>224.0</ele><time>2026-07-29T00:24:42Z</time></trkpt>
<trkpt lat="35.197116" lon="-84.901942"><ele>224.0</ele><time>2026-07-29T00:24:44Z</time></trkpt>
<trkpt lat="35.197093" lon="-84.901987"><ele>223.7</ele><time>2026-07-29T00:24:47Z</time></trkpt>
<trkpt lat="35.197076" lon="-84.902018"><ele>224.3</ele><time>2026-07-29T00:24:49Z</time></trkpt>
<trkpt lat="35.19706" lon="-84.902047"><ele>224.3</ele><time>2026-07-29T00:24:51Z</time></trkpt>
<trkpt lat="35.197041" lon="-84.902076"><ele>224.9</ele><time>2026-07-29T00:24:53Z</time></trkpt>
<trkpt lat="35.197026" lon="-84.902106"><ele>225.2</ele><time>2026-07-29T00:24:55Z</time></trkpt>
<trkpt lat="35.19701" lon="-84.902134"><ele>225.9</ele><time>2026-07-29T00:24:57Z</time></trkpt>
<trkpt lat="35.196993" lon="-84.902166"><ele>226.8</ele><time>2026-07-29T00:24:59Z</time></trkpt>
<trkpt lat="35.196978" lon="-84.902197"><ele>227.1</ele><time>2026-07-29T00:25:01Z</time></trkpt>
<trkpt lat="35.196963" lon="-84.902228"><ele>227.1</ele><time>2026-07-29T00:25:03Z</time></trkpt>
<trkpt lat="35.196948" lon="-84.902257"><ele>227.4</ele><time>2026-07-29T00:25:05Z</time></trkpt>
<trkpt lat="35.196933" lon="-84.902286"><ele>227.4</ele><time>2026-07-29T00:25:07Z</time></trkpt>
<trkpt lat="35.196916" lon="-84.902317"><ele>227.1</ele><time>2026-07-29T00:25:09Z</time></trkpt>
<trkpt lat="35.196898" lon="-84.902344"><ele>227.4</ele><time>2026-07-29T00:25:11Z</time></trkpt>
<trkpt lat="35.196883" lon="-84.90239"><ele>227.7</ele><time>2026-07-29T00:25:14Z</time></trkpt>
<trkpt lat="35.19687" lon="-84.902424"><ele>227.7</ele><time>2026-07-29T00:25:16Z</time></trkpt>
<trkpt lat="35.19686" lon="-84.902458"><ele>227.4</ele><time>2026-07-29T00:25:18Z</time></trkpt>
<trkpt lat="35.196852" lon="-84.90249"><ele>227.1</ele><time>2026-07-29T00:25:20Z</time></trkpt>
<trkpt lat="35.196842" lon="-84.902524"><ele>227.1</ele><time>2026-07-29T00:25:22Z</time></trkpt>
<trkpt lat="35.196834" lon="-84.902574"><ele>226.8</ele><time>2026-07-29T00:25:25Z</time></trkpt>
<trkpt lat="35.196828" lon="-84.902624"><ele>226.5</ele><time>2026-07-29T00:25:28Z</time></trkpt>
<trkpt lat="35.196825" lon="-84.902659"><ele>226.5</ele><time>2026-07-29T00:25:30Z</time></trkpt>
<trkpt lat="35.196824" lon="-84.902694"><ele>226.5</ele><time>2026-07-29T00:25:32Z</time></trkpt>
<trkpt lat="35.196825" lon="-84.90273"><ele>226.8</ele><time>2026-07-29T00:25:34Z</time></trkpt>
<trkpt lat="35.196824" lon="-84.90278"><ele>226.5</ele><time>2026-07-29T00:25:37Z</time></trkpt>
<trkpt lat="35.196824" lon="-84.902814"><ele>226.5</ele><time>2026-07-29T00:25:39Z</time></trkpt>
<trkpt lat="35.196822" lon="-84.90285"><ele>226.5</ele><time>2026-07-29T00:25:41Z</time></trkpt>
<trkpt lat="35.19682" lon="-84.902883"><ele>226.8</ele><time>2026-07-29T00:25:43Z</time></trkpt>
<trkpt lat="35.196816" lon="-84.902917"><ele>226.2</ele><time>2026-07-29T00:25:45Z</time></trkpt>
<trkpt lat="35.196815" lon="-84.902952"><ele>226.2</ele><time>2026-07-29T00:25:47Z</time></trkpt>
<trkpt lat="35.196808" lon="-84.902997"><ele>226.5</ele><time>2026-07-29T00:25:50Z</time></trkpt>
<trkpt lat="35.196803" lon="-84.903047"><ele>226.2</ele><time>2026-07-29T00:25:53Z</time></trkpt>
<trkpt lat="35.196803" lon="-84.903082"><ele>227.1</ele><time>2026-07-29T00:25:55Z</time></trkpt>
<trkpt lat="35.196798" lon="-84.903119"><ele>225.9</ele><time>2026-07-29T00:25:57Z</time></trkpt>
<trkpt lat="35.196797" lon="-84.903156"><ele>225.9</ele><time>2026-07-29T00:25:59Z</time></trkpt>
<trkpt lat="35.196797" lon="-84.903189"><ele>226.5</ele><time>2026-07-29T00:26:01Z</time></trkpt>
<trkpt lat="35.196797" lon="-84.903225"><ele>226.8</ele><time>2026-07-29T00:26:03Z</time></trkpt>
<trkpt lat="35.196794" lon="-84.90326"><ele>227.4</ele><time>2026-07-29T00:26:05Z</time></trkpt>
<trkpt lat="35.196793" lon="-84.903294"><ele>227.7</ele><time>2026-07-29T00:26:07Z</time></trkpt>
<trkpt lat="35.19679" lon="-84.903329"><ele>227.1</ele><time>2026-07-29T00:26:09Z</time></trkpt>
<trkpt lat="35.196788" lon="-84.903364"><ele>226.8</ele><time>2026-07-29T00:26:11Z</time></trkpt>
<trkpt lat="35.196788" lon="-84.903398"><ele>227.1</ele><time>2026-07-29T00:26:13Z</time></trkpt>
<trkpt lat="35.196785" lon="-84.903449"><ele>227.4</ele><time>2026-07-29T00:26:16Z</time></trkpt>
<trkpt lat="35.196781" lon="-84.903486"><ele>227.4</ele><time>2026-07-29T00:26:18Z</time></trkpt>
<trkpt lat="35.196778" lon="-84.903523"><ele>227.7</ele><time>2026-07-29T00:26:20Z</time></trkpt>
<trkpt lat="35.196777" lon="-84.903569"><ele>226.8</ele><time>2026-07-29T00:26:23Z</time></trkpt>
<trkpt lat="35.196776" lon="-84.903605"><ele>226.5</ele><time>2026-07-29T00:26:25Z</time></trkpt>
<trkpt lat="35.196775" lon="-84.903642"><ele>227.1</ele><time>2026-07-29T00:26:27Z</time></trkpt>
<trkpt lat="35.196773" lon="-84.90368"><ele>227.4</ele><time>2026-07-29T00:26:29Z</time></trkpt>
<trkpt lat="35.19677" lon="-84.903715"><ele>227.4</ele><time>2026-07-29T00:26:31Z</time></trkpt>
<trkpt lat="35.196766" lon="-84.903749"><ele>227.1</ele><time>2026-07-29T00:26:33Z</time></trkpt>
<trkpt lat="35.196764" lon="-84.903797"><ele>226.5</ele><time>2026-07-29T00:26:36Z</time></trkpt>
<trkpt lat="35.196758" lon="-84.903845"><ele>226.5</ele><time>2026-07-29T00:26:39Z</time></trkpt>
<trkpt lat="35.196756" lon="-84.903892"><ele>225.9</ele><time>2026-07-29T00:26:42Z</time></trkpt>
<trkpt lat="35.196752" lon="-84.903942"><ele>225.6</ele><time>2026-07-29T00:26:45Z</time></trkpt>
<trkpt lat="35.196753" lon="-84.903978"><ele>225.6</ele><time>2026-07-29T00:26:47Z</time></trkpt>
<trkpt lat="35.196752" lon="-84.904014"><ele>225.2</ele><time>2026-07-29T00:26:49Z</time></trkpt>
<trkpt lat="35.196747" lon="-84.904048"><ele>225.6</ele><time>2026-07-29T00:26:51Z</time></trkpt>
<trkpt lat="35.196747" lon="-84.904082"><ele>225.2</ele><time>2026-07-29T00:26:53Z</time></trkpt>
<trkpt lat="35.196744" lon="-84.904116"><ele>225.6</ele><time>2026-07-29T00:26:55Z</time></trkpt>
<trkpt lat="35.196739" lon="-84.904165"><ele>225.6</ele><time>2026-07-29T00:26:58Z</time></trkpt>
<trkpt lat="35.196733" lon="-84.9042"><ele>225.2</ele><time>2026-07-29T00:27:00Z</time></trkpt>
<trkpt lat="35.196729" lon="-84.904237"><ele>224.9</ele><time>2026-07-29T00:27:02Z</time></trkpt>
<trkpt lat="35.196732" lon="-84.904276"><ele>224.0</ele><time>2026-07-29T00:27:04Z</time></trkpt>
<trkpt lat="35.196735" lon="-84.904314"><ele>223.7</ele><time>2026-07-29T00:27:06Z</time></trkpt>
<trkpt lat="35.196735" lon="-84.904349"><ele>224.0</ele><time>2026-07-29T00:27:08Z</time></trkpt>
<trkpt lat="35.196736" lon="-84.904385"><ele>224.0</ele><time>2026-07-29T00:27:10Z</time></trkpt>
<trkpt lat="35.196736" lon="-84.90442"><ele>224.0</ele><time>2026-07-29T00:27:12Z</time></trkpt>
<trkpt lat="35.196739" lon="-84.904454"><ele>223.7</ele><time>2026-07-29T00:27:14Z</time></trkpt>
<trkpt lat="35.196739" lon="-84.904503"><ele>223.4</ele><time>2026-07-29T00:27:17Z</time></trkpt>
<trkpt lat="35.196745" lon="-84.904537"><ele>223.4</ele><time>2026-07-29T00:27:19Z</time></trkpt>
<trkpt lat="35.196748" lon="-84.904572"><ele>223.7</ele><time>2026-07-29T00:27:21Z</time></trkpt>
<trkpt lat="35.196742" lon="-84.90461"><ele>223.1</ele><time>2026-07-29T00:27:23Z</time></trkpt>
<trkpt lat="35.196743" lon="-84.904647"><ele>223.7</ele><time>2026-07-29T00:27:25Z</time></trkpt>
<trkpt lat="35.196745" lon="-84.904682"><ele>224.3</ele><time>2026-07-29T00:27:27Z</time></trkpt>
<trkpt lat="35.196747" lon="-84.904718"><ele>223.7</ele><time>2026-07-29T00:27:29Z</time></trkpt>
<trkpt lat="35.19675" lon="-84.904752"><ele>224.0</ele><time>2026-07-29T00:27:31Z</time></trkpt>
<trkpt lat="35.196754" lon="-84.904787"><ele>223.7</ele><time>2026-07-29T00:27:33Z</time></trkpt>
<trkpt lat="35.196756" lon="-84.904825"><ele>224.0</ele><time>2026-07-29T00:27:35Z</time></trkpt>
<trkpt lat="35.196762" lon="-84.904862"><ele>224.0</ele><time>2026-07-29T00:27:37Z</time></trkpt>
<trkpt lat="35.196768" lon="-84.904897"><ele>223.7</ele><time>2026-07-29T00:27:39Z</time></trkpt>
<trkpt lat="35.196772" lon="-84.904931"><ele>224.0</ele><time>2026-07-29T00:27:41Z</time></trkpt>
<trkpt lat="35.196779" lon="-84.90498"><ele>224.6</ele><time>2026-07-29T00:27:44Z</time></trkpt>
<trkpt lat="35.196785" lon="-84.905031"><ele>224.6</ele><time>2026-07-29T00:27:47Z</time></trkpt>
<trkpt lat="35.196789" lon="-84.905066"><ele>224.6</ele><time>2026-07-29T00:27:49Z</time></trkpt>
<trkpt lat="35.196794" lon="-84.905099"><ele>224.6</ele><time>2026-07-29T00:27:51Z</time></trkpt>
<trkpt lat="35.196798" lon="-84.905132"><ele>224.9</ele><time>2026-07-29T00:27:53Z</time></trkpt>
<trkpt lat="35.196801" lon="-84.905166"><ele>225.6</ele><time>2026-07-29T00:27:55Z</time></trkpt>
<trkpt lat="35.196806" lon="-84.905214"><ele>225.6</ele><time>2026-07-29T00:27:58Z</time></trkpt>
<trkpt lat="35.196811" lon="-84.905248"><ele>225.2</ele><time>2026-07-29T00:28:00Z</time></trkpt>
<trkpt lat="35.196815" lon="-84.905282"><ele>225.2</ele><time>2026-07-29T00:28:02Z</time></trkpt>
<trkpt lat="35.19682" lon="-84.905318"><ele>224.9</ele><time>2026-07-29T00:28:04Z</time></trkpt>
<trkpt lat="35.196827" lon="-84.905354"><ele>225.2</ele><time>2026-07-29T00:28:06Z</time></trkpt>
<trkpt lat="35.196829" lon="-84.905389"><ele>225.2</ele><time>2026-07-29T00:28:08Z</time></trkpt>
<trkpt lat="35.196832" lon="-84.905423"><ele>225.2</ele><time>2026-07-29T00:28:10Z</time></trkpt>
<trkpt lat="35.196837" lon="-84.905459"><ele>225.2</ele><time>2026-07-29T00:28:12Z</time></trkpt>
<trkpt lat="35.196839" lon="-84.905496"><ele>225.2</ele><time>2026-07-29T00:28:14Z</time></trkpt>
<trkpt lat="35.196841" lon="-84.905533"><ele>225.2</ele><time>2026-07-29T00:28:16Z</time></trkpt>
<trkpt lat="35.196848" lon="-84.905567"><ele>224.9</ele><time>2026-07-29T00:28:18Z</time></trkpt>
<trkpt lat="35.196847" lon="-84.905602"><ele>224.9</ele><time>2026-07-29T00:28:20Z</time></trkpt>
<trkpt lat="35.196848" lon="-84.905653"><ele>224.6</ele><time>2026-07-29T00:28:23Z</time></trkpt>
<trkpt lat="35.196847" lon="-84.905688"><ele>224.9</ele><time>2026-07-29T00:28:25Z</time></trkpt>
<trkpt lat="35.196847" lon="-84.905725"><ele>224.6</ele><time>2026-07-29T00:28:27Z</time></trkpt>
<trkpt lat="35.196848" lon="-84.905761"><ele>224.6</ele><time>2026-07-29T00:28:29Z</time></trkpt>
<trkpt lat="35.196858" lon="-84.905795"><ele>226.2</ele><time>2026-07-29T00:28:31Z</time></trkpt>
<trkpt lat="35.19686" lon="-84.905829"><ele>227.4</ele><time>2026-07-29T00:28:33Z</time></trkpt>
<trkpt lat="35.196863" lon="-84.905862"><ele>229.8</ele><time>2026-07-29T00:28:35Z</time></trkpt>
<trkpt lat="35.196869" lon="-84.905895"><ele>230.4</ele><time>2026-07-29T00:28:37Z</time></trkpt>
<trkpt lat="35.196871" lon="-84.905929"><ele>229.2</ele><time>2026-07-29T00:28:39Z</time></trkpt>
<trkpt lat="35.19687" lon="-84.905977"><ele>228.0</ele><time>2026-07-29T00:28:42Z</time></trkpt>
<trkpt lat="35.196873" lon="-84.90601"><ele>227.7</ele><time>2026-07-29T00:28:44Z</time></trkpt>
<trkpt lat="35.196874" lon="-84.90606"><ele>227.4</ele><time>2026-07-29T00:28:47Z</time></trkpt>
<trkpt lat="35.196878" lon="-84.906096"><ele>228.3</ele><time>2026-07-29T00:28:49Z</time></trkpt>
<trkpt lat="35.196883" lon="-84.906132"><ele>229.5</ele><time>2026-07-29T00:28:51Z</time></trkpt>
<trkpt lat="35.196888" lon="-84.906167"><ele>229.8</ele><time>2026-07-29T00:28:53Z</time></trkpt>
<trkpt lat="35.196892" lon="-84.906203"><ele>229.5</ele><time>2026-07-29T00:28:55Z</time></trkpt>
<trkpt lat="35.196891" lon="-84.906253"><ele>228.9</ele><time>2026-07-29T00:28:58Z</time></trkpt>
<trkpt lat="35.196892" lon="-84.906302"><ele>228.6</ele><time>2026-07-29T00:29:01Z</time></trkpt>
<trkpt lat="35.196894" lon="-84.906336"><ele>227.4</ele><time>2026-07-29T00:29:03Z</time></trkpt>
<trkpt lat="35.196894" lon="-84.90637"><ele>228.3</ele><time>2026-07-29T00:29:05Z</time></trkpt>
<trkpt lat="35.196893" lon="-84.906406"><ele>228.3</ele><time>2026-07-29T00:29:07Z</time></trkpt>
<trkpt lat="35.196896" lon="-84.906441"><ele>227.1</ele><time>2026-07-29T00:29:09Z</time></trkpt>
<trkpt lat="35.196899" lon="-84.906478"><ele>227.1</ele><time>2026-07-29T00:29:11Z</time></trkpt>
<trkpt lat="35.196896" lon="-84.906513"><ele>227.7</ele><time>2026-07-29T00:29:13Z</time></trkpt>
<trkpt lat="35.196897" lon="-84.906562"><ele>227.1</ele><time>2026-07-29T00:29:16Z</time></trkpt>
<trkpt lat="35.196898" lon="-84.906608"><ele>225.6</ele><time>2026-07-29T00:29:19Z</time></trkpt>
<trkpt lat="35.196897" lon="-84.906657"><ele>223.7</ele><time>2026-07-29T00:29:22Z</time></trkpt>
<trkpt lat="35.196901" lon="-84.906693"><ele>223.4</ele><time>2026-07-29T00:29:24Z</time></trkpt>
<trkpt lat="35.196901" lon="-84.906728"><ele>223.7</ele><time>2026-07-29T00:29:26Z</time></trkpt>
<trkpt lat="35.196896" lon="-84.906764"><ele>224.9</ele><time>2026-07-29T00:29:28Z</time></trkpt>
<trkpt lat="35.1969" lon="-84.906804"><ele>224.9</ele><time>2026-07-29T00:29:30Z</time></trkpt>
<trkpt lat="35.196905" lon="-84.906842"><ele>225.9</ele><time>2026-07-29T00:29:32Z</time></trkpt>
<trkpt lat="35.19691" lon="-84.906879"><ele>225.9</ele><time>2026-07-29T00:29:34Z</time></trkpt>
<trkpt lat="35.196915" lon="-84.906916"><ele>225.9</ele><time>2026-07-29T00:29:36Z</time></trkpt>
<trkpt lat="35.19692" lon="-84.906954"><ele>225.9</ele><time>2026-07-29T00:29:38Z</time></trkpt>
<trkpt lat="35.19693" lon="-84.906989"><ele>224.3</ele><time>2026-07-29T00:29:40Z</time></trkpt>
<trkpt lat="35.196941" lon="-84.907025"><ele>223.4</ele><time>2026-07-29T00:29:42Z</time></trkpt>
<trkpt lat="35.19695" lon="-84.907064"><ele>222.5</ele><time>2026-07-29T00:29:44Z</time></trkpt>
<trkpt lat="35.19696" lon="-84.907102"><ele>222.5</ele><time>2026-07-29T00:29:46Z</time></trkpt>
<trkpt lat="35.19697" lon="-84.907138"><ele>221.9</ele><time>2026-07-29T00:29:48Z</time></trkpt>
<trkpt lat="35.196977" lon="-84.907176"><ele>222.5</ele><time>2026-07-29T00:29:50Z</time></trkpt>
<trkpt lat="35.196986" lon="-84.907211"><ele>222.5</ele><time>2026-07-29T00:29:52Z</time></trkpt>
<trkpt lat="35.196993" lon="-84.907247"><ele>224.0</ele><time>2026-07-29T00:29:54Z</time></trkpt>
<trkpt lat="35.196994" lon="-84.907281"><ele>224.0</ele><time>2026-07-29T00:29:56Z</time></trkpt>
<trkpt lat="35.196998" lon="-84.907318"><ele>223.1</ele><time>2026-07-29T00:29:58Z</time></trkpt>
<trkpt lat="35.197005" lon="-84.907356"><ele>223.1</ele><time>2026-07-29T00:30:00Z</time></trkpt>
<trkpt lat="35.19701" lon="-84.907391"><ele>222.8</ele><time>2026-07-29T00:30:02Z</time></trkpt>
<trkpt lat="35.197017" lon="-84.907427"><ele>223.1</ele><time>2026-07-29T00:30:04Z</time></trkpt>
<trkpt lat="35.197024" lon="-84.907461"><ele>223.1</ele><time>2026-07-29T00:30:06Z</time></trkpt>
<trkpt lat="35.197027" lon="-84.907497"><ele>224.0</ele><time>2026-07-29T00:30:08Z</time></trkpt>
<trkpt lat="35.197031" lon="-84.907534"><ele>223.7</ele><time>2026-07-29T00:30:10Z</time></trkpt>
<trkpt lat="35.197034" lon="-84.907571"><ele>223.7</ele><time>2026-07-29T00:30:12Z</time></trkpt>
<trkpt lat="35.19703" lon="-84.907607"><ele>222.5</ele><time>2026-07-29T00:30:14Z</time></trkpt>
<trkpt lat="35.197029" lon="-84.907644"><ele>222.5</ele><time>2026-07-29T00:30:16Z</time></trkpt>
<trkpt lat="35.197033" lon="-84.907682"><ele>223.4</ele><time>2026-07-29T00:30:18Z</time></trkpt>
<trkpt lat="35.197038" lon="-84.907719"><ele>223.4</ele><time>2026-07-29T00:30:20Z</time></trkpt>
<trkpt lat="35.197037" lon="-84.907757"><ele>222.8</ele><time>2026-07-29T00:30:22Z</time></trkpt>
<trkpt lat="35.19704" lon="-84.907798"><ele>222.8</ele><time>2026-07-29T00:30:24Z</time></trkpt>
<trkpt lat="35.19704" lon="-84.907835"><ele>224.0</ele><time>2026-07-29T00:30:26Z</time></trkpt>
<trkpt lat="35.197041" lon="-84.907871"><ele>224.3</ele><time>2026-07-29T00:30:28Z</time></trkpt>
<trkpt lat="35.19704" lon="-84.907909"><ele>224.3</ele><time>2026-07-29T00:30:30Z</time></trkpt>
<trkpt lat="35.197041" lon="-84.907948"><ele>223.1</ele><time>2026-07-29T00:30:32Z</time></trkpt>
<trkpt lat="35.197038" lon="-84.907989"><ele>223.7</ele><time>2026-07-29T00:30:34Z</time></trkpt>
<trkpt lat="35.197034" lon="-84.908029"><ele>223.7</ele><time>2026-07-29T00:30:36Z</time></trkpt>
<trkpt lat="35.19703" lon="-84.90807"><ele>223.7</ele><time>2026-07-29T00:30:38Z</time></trkpt>
<trkpt lat="35.197027" lon="-84.908108"><ele>224.9</ele><time>2026-07-29T00:30:40Z</time></trkpt>
<trkpt lat="35.197024" lon="-84.908146"><ele>226.2</ele><time>2026-07-29T00:30:42Z</time></trkpt>
<trkpt lat="35.197027" lon="-84.908183"><ele>225.9</ele><time>2026-07-29T00:30:44Z</time></trkpt>
<trkpt lat="35.197033" lon="-84.908223"><ele>226.5</ele><time>2026-07-29T00:30:46Z</time></trkpt>
<trkpt lat="35.197038" lon="-84.908265"><ele>226.8</ele><time>2026-07-29T00:30:48Z</time></trkpt>
<trkpt lat="35.197046" lon="-84.908303"><ele>226.8</ele><time>2026-07-29T00:30:50Z</time></trkpt>
<trkpt lat="35.197053" lon="-84.908341"><ele>226.2</ele><time>2026-07-29T00:30:52Z</time></trkpt>
<trkpt lat="35.197039" lon="-84.908372"><ele>223.7</ele><time>2026-07-29T00:30:54Z</time></trkpt>
<trkpt lat="35.197052" lon="-84.908404"><ele>224.9</ele><time>2026-07-29T00:30:56Z</time></trkpt>
<trkpt lat="35.197069" lon="-84.908436"><ele>224.9</ele><time>2026-07-29T00:30:58Z</time></trkpt>
<trkpt lat="35.197077" lon="-84.908471"><ele>225.2</ele><time>2026-07-29T00:31:00Z</time></trkpt>
<trkpt lat="35.197079" lon="-84.908508"><ele>225.6</ele><time>2026-07-29T00:31:02Z</time></trkpt>
<trkpt lat="35.197069" lon="-84.908544"><ele>225.2</ele><time>2026-07-29T00:31:04Z</time></trkpt>
<trkpt lat="35.197051" lon="-84.908574"><ele>224.6</ele><time>2026-07-29T00:31:06Z</time></trkpt>
<trkpt lat="35.197028" lon="-84.908601"><ele>224.9</ele><time>2026-07-29T00:31:08Z</time></trkpt>
<trkpt lat="35.197004" lon="-84.908622"><ele>224.9</ele><time>2026-07-29T00:31:10Z</time></trkpt>
<trkpt lat="35.196981" lon="-84.908642"><ele>225.6</ele><time>2026-07-29T00:31:12Z</time></trkpt>
<trkpt lat="35.196957" lon="-84.908661"><ele>226.2</ele><time>2026-07-29T00:31:14Z</time></trkpt>
<trkpt lat="35.196931" lon="-84.908674"><ele>226.2</ele><time>2026-07-29T00:31:16Z</time></trkpt>
<trkpt lat="35.196895" lon="-84.908693"><ele>225.9</ele><time>2026-07-29T00:31:19Z</time></trkpt>
<trkpt lat="35.196869" lon="-84.908706"><ele>225.9</ele><time>2026-07-29T00:31:21Z</time></trkpt>
<trkpt lat="35.196832" lon="-84.908722"><ele>224.9</ele><time>2026-07-29T00:31:24Z</time></trkpt>
<trkpt lat="35.196805" lon="-84.908734"><ele>224.9</ele><time>2026-07-29T00:31:26Z</time></trkpt>
<trkpt lat="35.196778" lon="-84.908746"><ele>224.6</ele><time>2026-07-29T00:31:28Z</time></trkpt>
<trkpt lat="35.196751" lon="-84.908757"><ele>224.3</ele><time>2026-07-29T00:31:30Z</time></trkpt>
<trkpt lat="35.196722" lon="-84.908771"><ele>224.3</ele><time>2026-07-29T00:31:32Z</time></trkpt>
<trkpt lat="35.196696" lon="-84.908788"><ele>224.0</ele><time>2026-07-29T00:31:34Z</time></trkpt>
<trkpt lat="35.196668" lon="-84.908806"><ele>224.3</ele><time>2026-07-29T00:31:36Z</time></trkpt>
<trkpt lat="35.19664" lon="-84.908822"><ele>224.6</ele><time>2026-07-29T00:31:38Z</time></trkpt>
<trkpt lat="35.196615" lon="-84.90884"><ele>224.9</ele><time>2026-07-29T00:31:40Z</time></trkpt>
<trkpt lat="35.196589" lon="-84.908856"><ele>224.9</ele><time>2026-07-29T00:31:42Z</time></trkpt>
<trkpt lat="35.196562" lon="-84.908875"><ele>224.3</ele><time>2026-07-29T00:31:44Z</time></trkpt>
<trkpt lat="35.196535" lon="-84.908887"><ele>224.3</ele><time>2026-07-29T00:31:46Z</time></trkpt>
<trkpt lat="35.196509" lon="-84.9089"><ele>224.0</ele><time>2026-07-29T00:31:48Z</time></trkpt>
<trkpt lat="35.19648" lon="-84.908912"><ele>224.3</ele><time>2026-07-29T00:31:50Z</time></trkpt>
<trkpt lat="35.196447" lon="-84.90892"><ele>224.3</ele><time>2026-07-29T00:31:52Z</time></trkpt>
<trkpt lat="35.196417" lon="-84.908935"><ele>225.2</ele><time>2026-07-29T00:31:54Z</time></trkpt>
<trkpt lat="35.19639" lon="-84.908945"><ele>224.6</ele><time>2026-07-29T00:31:56Z</time></trkpt>
<trkpt lat="35.196365" lon="-84.908958"><ele>225.2</ele><time>2026-07-29T00:31:58Z</time></trkpt>
<trkpt lat="35.196335" lon="-84.908969"><ele>225.6</ele><time>2026-07-29T00:32:00Z</time></trkpt>
<trkpt lat="35.196305" lon="-84.908977"><ele>225.6</ele><time>2026-07-29T00:32:02Z</time></trkpt>
<trkpt lat="35.196276" lon="-84.908985"><ele>225.6</ele><time>2026-07-29T00:32:04Z</time></trkpt>
<trkpt lat="35.196244" lon="-84.908987"><ele>226.5</ele><time>2026-07-29T00:32:06Z</time></trkpt>
<trkpt lat="35.196214" lon="-84.908992"><ele>226.5</ele><time>2026-07-29T00:32:08Z</time></trkpt>
<trkpt lat="35.196185" lon="-84.908996"><ele>226.2</ele><time>2026-07-29T00:32:10Z</time></trkpt>
<trkpt lat="35.196157" lon="-84.909001"><ele>226.2</ele><time>2026-07-29T00:32:12Z</time></trkpt>
<trkpt lat="35.196126" lon="-84.909006"><ele>226.2</ele><time>2026-07-29T00:32:14Z</time></trkpt>
<trkpt lat="35.196097" lon="-84.909017"><ele>226.2</ele><time>2026-07-29T00:32:16Z</time></trkpt>
<trkpt lat="35.196067" lon="-84.909012"><ele>226.8</ele><time>2026-07-29T00:32:19Z</time></trkpt>
<trkpt lat="35.196036" lon="-84.909011"><ele>226.2</ele><time>2026-07-29T00:32:21Z</time></trkpt>
<trkpt lat="35.196002" lon="-84.909014"><ele>225.9</ele><time>2026-07-29T00:32:23Z</time></trkpt>
<trkpt lat="35.195971" lon="-84.909012"><ele>225.9</ele><time>2026-07-29T00:32:25Z</time></trkpt>
<trkpt lat="35.19594" lon="-84.909001"><ele>224.9</ele><time>2026-07-29T00:32:27Z</time></trkpt>
<trkpt lat="35.195913" lon="-84.908993"><ele>224.6</ele><time>2026-07-29T00:32:29Z</time></trkpt>
<trkpt lat="35.195886" lon="-84.908985"><ele>223.7</ele><time>2026-07-29T00:32:31Z</time></trkpt>
<trkpt lat="35.195858" lon="-84.908969"><ele>223.1</ele><time>2026-07-29T00:32:33Z</time></trkpt>
<trkpt lat="35.195826" lon="-84.908947"><ele>222.5</ele><time>2026-07-29T00:32:35Z</time></trkpt>
<trkpt lat="35.195807" lon="-84.908892"><ele>222.2</ele><time>2026-07-29T00:32:37Z</time></trkpt>
<trkpt lat="35.195802" lon="-84.908823"><ele>222.5</ele><time>2026-07-29T00:32:39Z</time></trkpt>
<trkpt lat="35.195802" lon="-84.908788"><ele>221.6</ele><time>2026-07-29T00:32:40Z</time></trkpt>
<trkpt lat="35.195806" lon="-84.908751"><ele>221.3</ele><time>2026-07-29T00:32:41Z</time></trkpt>
<trkpt lat="35.195811" lon="-84.908715"><ele>221.3</ele><time>2026-07-29T00:32:42Z</time></trkpt>
<trkpt lat="35.195816" lon="-84.908678"><ele>221.9</ele><time>2026-07-29T00:32:43Z</time></trkpt>
<trkpt lat="35.19582" lon="-84.908641"><ele>221.9</ele><time>2026-07-29T00:32:44Z</time></trkpt>
<trkpt lat="35.195823" lon="-84.908603"><ele>221.9</ele><time>2026-07-29T00:32:45Z</time></trkpt>
<trkpt lat="35.195823" lon="-84.908567"><ele>221.6</ele><time>2026-07-29T00:32:46Z</time></trkpt>
<trkpt lat="35.195821" lon="-84.908531"><ele>221.6</ele><time>2026-07-29T00:32:47Z</time></trkpt>
<trkpt lat="35.195822" lon="-84.908496"><ele>221.6</ele><time>2026-07-29T00:32:48Z</time></trkpt>
<trkpt lat="35.195821" lon="-84.90846"><ele>221.9</ele><time>2026-07-29T00:32:49Z</time></trkpt>
<trkpt lat="35.195823" lon="-84.908424"><ele>221.6</ele><time>2026-07-29T00:32:50Z</time></trkpt>
<trkpt lat="35.195826" lon="-84.908387"><ele>221.9</ele><time>2026-07-29T00:32:51Z</time></trkpt>
<trkpt lat="35.195829" lon="-84.90832"><ele>221.6</ele><time>2026-07-29T00:32:53Z</time></trkpt>
<trkpt lat="35.195832" lon="-84.908286"><ele>221.6</ele><time>2026-07-29T00:32:54Z</time></trkpt>
<trkpt lat="35.195844" lon="-84.908219"><ele>221.9</ele><time>2026-07-29T00:32:56Z</time></trkpt>
<trkpt lat="35.195855" lon="-84.908157"><ele>221.9</ele><time>2026-07-29T00:32:58Z</time></trkpt>
<trkpt lat="35.195863" lon="-84.908123"><ele>221.9</ele><time>2026-07-29T00:32:59Z</time></trkpt>
<trkpt lat="35.195878" lon="-84.908055"><ele>221.3</ele><time>2026-07-29T00:33:01Z</time></trkpt>
<trkpt lat="35.19589" lon="-84.907989"><ele>221.0</ele><time>2026-07-29T00:33:03Z</time></trkpt>
<trkpt lat="35.195895" lon="-84.907954"><ele>221.0</ele><time>2026-07-29T00:33:04Z</time></trkpt>
<trkpt lat="35.195907" lon="-84.907887"><ele>221.0</ele><time>2026-07-29T00:33:06Z</time></trkpt>
<trkpt lat="35.195912" lon="-84.90785"><ele>221.3</ele><time>2026-07-29T00:33:07Z</time></trkpt>
<trkpt lat="35.195916" lon="-84.907813"><ele>221.9</ele><time>2026-07-29T00:33:08Z</time></trkpt>
<trkpt lat="35.195923" lon="-84.907777"><ele>221.9</ele><time>2026-07-29T00:33:09Z</time></trkpt>
<trkpt lat="35.195929" lon="-84.907742"><ele>221.9</ele><time>2026-07-29T00:33:10Z</time></trkpt>
<trkpt lat="35.195936" lon="-84.907707"><ele>221.6</ele><time>2026-07-29T00:33:11Z</time></trkpt>
<trkpt lat="35.195956" lon="-84.907653"><ele>221.3</ele><time>2026-07-29T00:33:13Z</time></trkpt>
<trkpt lat="35.195962" lon="-84.907617"><ele>221.9</ele><time>2026-07-29T00:33:14Z</time></trkpt>
<trkpt lat="35.195968" lon="-84.907582"><ele>221.6</ele><time>2026-07-29T00:33:15Z</time></trkpt>
<trkpt lat="35.195975" lon="-84.907545"><ele>221.3</ele><time>2026-07-29T00:33:16Z</time></trkpt>
<trkpt lat="35.195983" lon="-84.907512"><ele>221.3</ele><time>2026-07-29T00:33:17Z</time></trkpt>
<trkpt lat="35.195991" lon="-84.907471"><ele>221.9</ele><time>2026-07-29T00:33:18Z</time></trkpt>
<trkpt lat="35.195997" lon="-84.907433"><ele>221.9</ele><time>2026-07-29T00:33:19Z</time></trkpt>
<trkpt lat="35.196006" lon="-84.907396"><ele>222.2</ele><time>2026-07-29T00:33:20Z</time></trkpt>
<trkpt lat="35.196017" lon="-84.907356"><ele>222.8</ele><time>2026-07-29T00:33:21Z</time></trkpt>
<trkpt lat="35.196024" lon="-84.90732"><ele>222.5</ele><time>2026-07-29T00:33:22Z</time></trkpt>
<trkpt lat="35.19603" lon="-84.907281"><ele>222.5</ele><time>2026-07-29T00:33:23Z</time></trkpt>
<trkpt lat="35.196036" lon="-84.907242"><ele>222.8</ele><time>2026-07-29T00:33:24Z</time></trkpt>
<trkpt lat="35.196039" lon="-84.907205"><ele>223.1</ele><time>2026-07-29T00:33:25Z</time></trkpt>
<trkpt lat="35.196039" lon="-84.90717"><ele>222.8</ele><time>2026-07-29T00:33:26Z</time></trkpt>
<trkpt lat="35.19604" lon="-84.907135"><ele>223.4</ele><time>2026-07-29T00:33:27Z</time></trkpt>
<trkpt lat="35.196043" lon="-84.9071"><ele>223.1</ele><time>2026-07-29T00:33:28Z</time></trkpt>
<trkpt lat="35.196041" lon="-84.907065"><ele>223.1</ele><time>2026-07-29T00:33:29Z</time></trkpt>
<trkpt lat="35.196043" lon="-84.907027"><ele>222.5</ele><time>2026-07-29T00:33:30Z</time></trkpt>
<trkpt lat="35.196049" lon="-84.90699"><ele>223.4</ele><time>2026-07-29T00:33:31Z</time></trkpt>
<trkpt lat="35.196059" lon="-84.906921"><ele>223.4</ele><time>2026-07-29T00:33:33Z</time></trkpt>
<trkpt lat="35.196061" lon="-84.906869"><ele>223.7</ele><time>2026-07-29T00:33:35Z</time></trkpt>
<trkpt lat="35.196057" lon="-84.906835"><ele>223.7</ele><time>2026-07-29T00:33:36Z</time></trkpt>
<trkpt lat="35.196057" lon="-84.906796"><ele>224.0</ele><time>2026-07-29T00:33:37Z</time></trkpt>
<trkpt lat="35.196062" lon="-84.906755"><ele>224.0</ele><time>2026-07-29T00:33:38Z</time></trkpt>
<trkpt lat="35.196066" lon="-84.906713"><ele>224.6</ele><time>2026-07-29T00:33:39Z</time></trkpt>
<trkpt lat="35.196063" lon="-84.906675"><ele>224.6</ele><time>2026-07-29T00:33:40Z</time></trkpt>
<trkpt lat="35.196054" lon="-84.906642"><ele>224.3</ele><time>2026-07-29T00:33:41Z</time></trkpt>
<trkpt lat="35.196048" lon="-84.906606"><ele>224.3</ele><time>2026-07-29T00:33:42Z</time></trkpt>
<trkpt lat="35.196047" lon="-84.906568"><ele>224.0</ele><time>2026-07-29T00:33:43Z</time></trkpt>
<trkpt lat="35.196048" lon="-84.906533"><ele>223.7</ele><time>2026-07-29T00:33:44Z</time></trkpt>
<trkpt lat="35.196046" lon="-84.90648"><ele>223.4</ele><time>2026-07-29T00:33:46Z</time></trkpt>
<trkpt lat="35.196042" lon="-84.906443"><ele>222.5</ele><time>2026-07-29T00:33:48Z</time></trkpt>
<trkpt lat="35.196033" lon="-84.906398"><ele>223.7</ele><time>2026-07-29T00:33:50Z</time></trkpt>
<trkpt lat="35.196033" lon="-84.906355"><ele>223.7</ele><time>2026-07-29T00:33:52Z</time></trkpt>
<trkpt lat="35.196032" lon="-84.906313"><ele>224.3</ele><time>2026-07-29T00:33:54Z</time></trkpt>
<trkpt lat="35.19603" lon="-84.906276"><ele>224.3</ele><time>2026-07-29T00:33:56Z</time></trkpt>
<trkpt lat="35.196021" lon="-84.906238"><ele>223.7</ele><time>2026-07-29T00:33:58Z</time></trkpt>
<trkpt lat="35.196013" lon="-84.906199"><ele>223.7</ele><time>2026-07-29T00:34:00Z</time></trkpt>
<trkpt lat="35.196004" lon="-84.906157"><ele>223.1</ele><time>2026-07-29T00:34:02Z</time></trkpt>
<trkpt lat="35.195999" lon="-84.906118"><ele>222.5</ele><time>2026-07-29T00:34:04Z</time></trkpt>
<trkpt lat="35.195996" lon="-84.906078"><ele>221.9</ele><time>2026-07-29T00:34:06Z</time></trkpt>
<trkpt lat="35.195999" lon="-84.90604"><ele>222.5</ele><time>2026-07-29T00:34:08Z</time></trkpt>
<trkpt lat="35.195999" lon="-84.905999"><ele>222.8</ele><time>2026-07-29T00:34:10Z</time></trkpt>
<trkpt lat="35.195998" lon="-84.905961"><ele>222.5</ele><time>2026-07-29T00:34:12Z</time></trkpt>
<trkpt lat="35.196006" lon="-84.905923"><ele>223.1</ele><time>2026-07-29T00:34:14Z</time></trkpt>
<trkpt lat="35.196012" lon="-84.905888"><ele>223.4</ele><time>2026-07-29T00:34:16Z</time></trkpt>
<trkpt lat="35.196018" lon="-84.90585"><ele>224.0</ele><time>2026-07-29T00:34:18Z</time></trkpt>
<trkpt lat="35.19601" lon="-84.905813"><ele>224.6</ele><time>2026-07-29T00:34:20Z</time></trkpt>
<trkpt lat="35.196005" lon="-84.905773"><ele>224.3</ele><time>2026-07-29T00:34:22Z</time></trkpt>
<trkpt lat="35.196001" lon="-84.905734"><ele>224.9</ele><time>2026-07-29T00:34:24Z</time></trkpt>
<trkpt lat="35.195985" lon="-84.905695"><ele>224.3</ele><time>2026-07-29T00:34:26Z</time></trkpt>
<trkpt lat="35.195977" lon="-84.905655"><ele>224.6</ele><time>2026-07-29T00:34:28Z</time></trkpt>
<trkpt lat="35.195974" lon="-84.905615"><ele>224.6</ele><time>2026-07-29T00:34:30Z</time></trkpt>
<trkpt lat="35.195968" lon="-84.905575"><ele>224.3</ele><time>2026-07-29T00:34:32Z</time></trkpt>
<trkpt lat="35.195964" lon="-84.905537"><ele>223.4</ele><time>2026-07-29T00:34:34Z</time></trkpt>
<trkpt lat="35.195956" lon="-84.905494"><ele>223.4</ele><time>2026-07-29T00:34:36Z</time></trkpt>
<trkpt lat="35.19594" lon="-84.905458"><ele>222.2</ele><time>2026-07-29T00:34:38Z</time></trkpt>
<trkpt lat="35.19593" lon="-84.90542"><ele>223.1</ele><time>2026-07-29T00:34:40Z</time></trkpt>
<trkpt lat="35.19593" lon="-84.905378"><ele>224.3</ele><time>2026-07-29T00:34:42Z</time></trkpt>
<trkpt lat="35.195935" lon="-84.905335"><ele>225.2</ele><time>2026-07-29T00:34:44Z</time></trkpt>
<trkpt lat="35.195929" lon="-84.905294"><ele>225.6</ele><time>2026-07-29T00:34:46Z</time></trkpt>
<trkpt lat="35.195928" lon="-84.905252"><ele>224.6</ele><time>2026-07-29T00:34:48Z</time></trkpt>
<trkpt lat="35.195924" lon="-84.905214"><ele>224.9</ele><time>2026-07-29T00:34:50Z</time></trkpt>
<trkpt lat="35.195914" lon="-84.905176"><ele>226.5</ele><time>2026-07-29T00:34:52Z</time></trkpt>
<trkpt lat="35.195903" lon="-84.905137"><ele>226.5</ele><time>2026-07-29T00:34:54Z</time></trkpt>
<trkpt lat="35.195897" lon="-84.905098"><ele>227.4</ele><time>2026-07-29T00:34:56Z</time></trkpt>
<trkpt lat="35.195894" lon="-84.905056"><ele>225.9</ele><time>2026-07-29T00:34:58Z</time></trkpt>
<trkpt lat="35.195885" lon="-84.905016"><ele>226.8</ele><time>2026-07-29T00:35:00Z</time></trkpt>
<trkpt lat="35.195881" lon="-84.904978"><ele>226.8</ele><time>2026-07-29T00:35:02Z</time></trkpt>
<trkpt lat="35.195873" lon="-84.904938"><ele>226.5</ele><time>2026-07-29T00:35:04Z</time></trkpt>
<trkpt lat="35.19587" lon="-84.904898"><ele>225.6</ele><time>2026-07-29T00:35:06Z</time></trkpt>
<trkpt lat="35.195863" lon="-84.904859"><ele>224.9</ele><time>2026-07-29T00:35:08Z</time></trkpt>
<trkpt lat="35.19586" lon="-84.90482"><ele>225.2</ele><time>2026-07-29T00:35:10Z</time></trkpt>
<trkpt lat="35.19584" lon="-84.904782"><ele>222.2</ele><time>2026-07-29T00:35:12Z</time></trkpt>
<trkpt lat="35.195833" lon="-84.904738"><ele>220.1</ele><time>2026-07-29T00:35:14Z</time></trkpt>
<trkpt lat="35.19582" lon="-84.904685"><ele>219.8</ele><time>2026-07-29T00:35:16Z</time></trkpt>
<trkpt lat="35.195815" lon="-84.90465"><ele>220.4</ele><time>2026-07-29T00:35:17Z</time></trkpt>
<trkpt lat="35.195816" lon="-84.904606"><ele>220.4</ele><time>2026-07-29T00:35:18Z</time></trkpt>
<trkpt lat="35.195819" lon="-84.90456"><ele>221.0</ele><time>2026-07-29T00:35:19Z</time></trkpt>
<trkpt lat="35.195819" lon="-84.904518"><ele>221.3</ele><time>2026-07-29T00:35:20Z</time></trkpt>
<trkpt lat="35.195812" lon="-84.904463"><ele>220.1</ele><time>2026-07-29T00:35:22Z</time></trkpt>
<trkpt lat="35.195829" lon="-84.904402"><ele>219.2</ele><time>2026-07-29T00:35:24Z</time></trkpt>
<trkpt lat="35.195832" lon="-84.904365"><ele>219.2</ele><time>2026-07-29T00:35:25Z</time></trkpt>
<trkpt lat="35.195835" lon="-84.904322"><ele>218.5</ele><time>2026-07-29T00:35:26Z</time></trkpt>
<trkpt lat="35.195836" lon="-84.904284"><ele>219.2</ele><time>2026-07-29T00:35:27Z</time></trkpt>
<trkpt lat="35.195832" lon="-84.904243"><ele>220.4</ele><time>2026-07-29T00:35:28Z</time></trkpt>
<trkpt lat="35.195835" lon="-84.904176"><ele>218.8</ele><time>2026-07-29T00:35:30Z</time></trkpt>
<trkpt lat="35.19584" lon="-84.904136"><ele>218.8</ele><time>2026-07-29T00:35:31Z</time></trkpt>
<trkpt lat="35.195843" lon="-84.904097"><ele>219.8</ele><time>2026-07-29T00:35:32Z</time></trkpt>
<trkpt lat="35.195838" lon="-84.904058"><ele>218.8</ele><time>2026-07-29T00:35:33Z</time></trkpt>
<trkpt lat="35.195831" lon="-84.90402"><ele>219.2</ele><time>2026-07-29T00:35:34Z</time></trkpt>
<trkpt lat="35.195827" lon="-84.903977"><ele>219.5</ele><time>2026-07-29T00:35:35Z</time></trkpt>
<trkpt lat="35.195822" lon="-84.903913"><ele>219.2</ele><time>2026-07-29T00:35:37Z</time></trkpt>
<trkpt lat="35.195832" lon="-84.903847"><ele>219.5</ele><time>2026-07-29T00:35:39Z</time></trkpt>
<trkpt lat="35.195836" lon="-84.903812"><ele>219.5</ele><time>2026-07-29T00:35:40Z</time></trkpt>
<trkpt lat="35.195842" lon="-84.903777"><ele>220.1</ele><time>2026-07-29T00:35:41Z</time></trkpt>
<trkpt lat="35.195856" lon="-84.90372"><ele>220.7</ele><time>2026-07-29T00:35:43Z</time></trkpt>
<trkpt lat="35.195863" lon="-84.903676"><ele>220.7</ele><time>2026-07-29T00:35:45Z</time></trkpt>
<trkpt lat="35.195866" lon="-84.903635"><ele>221.3</ele><time>2026-07-29T00:35:47Z</time></trkpt>
<trkpt lat="35.195866" lon="-84.903599"><ele>221.3</ele><time>2026-07-29T00:35:49Z</time></trkpt>
<trkpt lat="35.195867" lon="-84.90356"><ele>220.7</ele><time>2026-07-29T00:35:51Z</time></trkpt>
<trkpt lat="35.19587" lon="-84.903518"><ele>221.3</ele><time>2026-07-29T00:35:53Z</time></trkpt>
<trkpt lat="35.195876" lon="-84.903481"><ele>222.5</ele><time>2026-07-29T00:35:55Z</time></trkpt>
<trkpt lat="35.195885" lon="-84.903442"><ele>221.3</ele><time>2026-07-29T00:35:57Z</time></trkpt>
<trkpt lat="35.195889" lon="-84.903402"><ele>220.7</ele><time>2026-07-29T00:35:59Z</time></trkpt>
<trkpt lat="35.195896" lon="-84.903362"><ele>221.3</ele><time>2026-07-29T00:36:01Z</time></trkpt>
<trkpt lat="35.195906" lon="-84.903323"><ele>221.6</ele><time>2026-07-29T00:36:03Z</time></trkpt>
<trkpt lat="35.195912" lon="-84.903286"><ele>221.0</ele><time>2026-07-29T00:36:05Z</time></trkpt>
<trkpt lat="35.195925" lon="-84.903249"><ele>221.3</ele><time>2026-07-29T00:36:07Z</time></trkpt>
<trkpt lat="35.195927" lon="-84.903211"><ele>220.7</ele><time>2026-07-29T00:36:09Z</time></trkpt>
<trkpt lat="35.195927" lon="-84.903174"><ele>220.7</ele><time>2026-07-29T00:36:11Z</time></trkpt>
<trkpt lat="35.195935" lon="-84.903134"><ele>221.0</ele><time>2026-07-29T00:36:13Z</time></trkpt>
<trkpt lat="35.195944" lon="-84.903093"><ele>220.4</ele><time>2026-07-29T00:36:15Z</time></trkpt>
<trkpt lat="35.195948" lon="-84.903052"><ele>221.0</ele><time>2026-07-29T00:36:17Z</time></trkpt>
<trkpt lat="35.195956" lon="-84.903014"><ele>221.6</ele><time>2026-07-29T00:36:19Z</time></trkpt>
<trkpt lat="35.195963" lon="-84.902975"><ele>221.6</ele><time>2026-07-29T00:36:21Z</time></trkpt>
<trkpt lat="35.195972" lon="-84.902935"><ele>222.2</ele><time>2026-07-29T00:36:23Z</time></trkpt>
<trkpt lat="35.195976" lon="-84.902895"><ele>222.8</ele><time>2026-07-29T00:36:25Z</time></trkpt>
<trkpt lat="35.19598" lon="-84.902857"><ele>222.2</ele><time>2026-07-29T00:36:27Z</time></trkpt>
<trkpt lat="35.195984" lon="-84.902819"><ele>223.4</ele><time>2026-07-29T00:36:29Z</time></trkpt>
<trkpt lat="35.195991" lon="-84.902782"><ele>223.7</ele><time>2026-07-29T00:36:31Z</time></trkpt>
<trkpt lat="35.195998" lon="-84.902743"><ele>222.8</ele><time>2026-07-29T00:36:33Z</time></trkpt>
<trkpt lat="35.196006" lon="-84.902705"><ele>223.1</ele><time>2026-07-29T00:36:35Z</time></trkpt>
<trkpt lat="35.196012" lon="-84.902665"><ele>222.8</ele><time>2026-07-29T00:36:37Z</time></trkpt>
<trkpt lat="35.196014" lon="-84.902625"><ele>223.4</ele><time>2026-07-29T00:36:39Z</time></trkpt>
<trkpt lat="35.196022" lon="-84.902586"><ele>222.5</ele><time>2026-07-29T00:36:41Z</time></trkpt>
<trkpt lat="35.196027" lon="-84.902546"><ele>221.0</ele><time>2026-07-29T00:36:43Z</time></trkpt>
<trkpt lat="35.196031" lon="-84.902505"><ele>219.8</ele><time>2026-07-29T00:36:45Z</time></trkpt>
<trkpt lat="35.196035" lon="-84.902463"><ele>219.5</ele><time>2026-07-29T00:36:47Z</time></trkpt>
<trkpt lat="35.196037" lon="-84.902422"><ele>219.2</ele><time>2026-07-29T00:36:49Z</time></trkpt>
<trkpt lat="35.196042" lon="-84.90238"><ele>218.5</ele><time>2026-07-29T00:36:51Z</time></trkpt>
<trkpt lat="35.196044" lon="-84.902339"><ele>219.8</ele><time>2026-07-29T00:36:53Z</time></trkpt>
<trkpt lat="35.196054" lon="-84.902299"><ele>220.4</ele><time>2026-07-29T00:36:55Z</time></trkpt>
<trkpt lat="35.196063" lon="-84.902259"><ele>221.0</ele><time>2026-07-29T00:36:57Z</time></trkpt>
<trkpt lat="35.196078" lon="-84.902221"><ele>221.3</ele><time>2026-07-29T00:36:59Z</time></trkpt>
<trkpt lat="35.196083" lon="-84.902183"><ele>220.7</ele><time>2026-07-29T00:37:01Z</time></trkpt>
<trkpt lat="35.19609" lon="-84.902144"><ele>221.6</ele><time>2026-07-29T00:37:03Z</time></trkpt>
<trkpt lat="35.196099" lon="-84.902108"><ele>221.6</ele><time>2026-07-29T00:37:05Z</time></trkpt>
<trkpt lat="35.196109" lon="-84.902069"><ele>221.0</ele><time>2026-07-29T00:37:07Z</time></trkpt>
<trkpt lat="35.196118" lon="-84.902032"><ele>220.4</ele><time>2026-07-29T00:37:09Z</time></trkpt>
<trkpt lat="35.196133" lon="-84.901996"><ele>221.6</ele><time>2026-07-29T00:37:11Z</time></trkpt>
<trkpt lat="35.196141" lon="-84.901958"><ele>222.8</ele><time>2026-07-29T00:37:13Z</time></trkpt>
<trkpt lat="35.196148" lon="-84.90192"><ele>222.2</ele><time>2026-07-29T00:37:15Z</time></trkpt>
<trkpt lat="35.196153" lon="-84.901881"><ele>222.2</ele><time>2026-07-29T00:37:17Z</time></trkpt>
<trkpt lat="35.196159" lon="-84.901843"><ele>222.8</ele><time>2026-07-29T00:37:19Z</time></trkpt>
<trkpt lat="35.19617" lon="-84.901806"><ele>223.4</ele><time>2026-07-29T00:37:21Z</time></trkpt>
<trkpt lat="35.196175" lon="-84.901766"><ele>222.5</ele><time>2026-07-29T00:37:23Z</time></trkpt>
<trkpt lat="35.196182" lon="-84.901726"><ele>222.5</ele><time>2026-07-29T00:37:25Z</time></trkpt>
<trkpt lat="35.196183" lon="-84.901687"><ele>221.9</ele><time>2026-07-29T00:37:27Z</time></trkpt>
<trkpt lat="35.196198" lon="-84.90165"><ele>221.3</ele><time>2026-07-29T00:37:29Z</time></trkpt>
<trkpt lat="35.19621" lon="-84.901612"><ele>221.3</ele><time>2026-07-29T00:37:31Z</time></trkpt>
<trkpt lat="35.196224" lon="-84.901576"><ele>221.0</ele><time>2026-07-29T00:37:33Z</time></trkpt>
<trkpt lat="35.196235" lon="-84.90154"><ele>221.3</ele><time>2026-07-29T00:37:35Z</time></trkpt>
<trkpt lat="35.196247" lon="-84.901505"><ele>220.7</ele><time>2026-07-29T00:37:37Z</time></trkpt>
<trkpt lat="35.196257" lon="-84.901471"><ele>221.0</ele><time>2026-07-29T00:37:39Z</time></trkpt>
<trkpt lat="35.196267" lon="-84.901437"><ele>221.6</ele><time>2026-07-29T00:37:41Z</time></trkpt>
<trkpt lat="35.196281" lon="-84.901404"><ele>221.0</ele><time>2026-07-29T00:37:43Z</time></trkpt>
<trkpt lat="35.196298" lon="-84.901371"><ele>220.7</ele><time>2026-07-29T00:37:45Z</time></trkpt>
<trkpt lat="35.196319" lon="-84.901339"><ele>220.4</ele><time>2026-07-29T00:37:47Z</time></trkpt>
<trkpt lat="35.196337" lon="-84.901305"><ele>220.7</ele><time>2026-07-29T00:37:49Z</time></trkpt>
<trkpt lat="35.196349" lon="-84.901267"><ele>220.7</ele><time>2026-07-29T00:37:51Z</time></trkpt>
<trkpt lat="35.196364" lon="-84.901229"><ele>221.0</ele><time>2026-07-29T00:37:53Z</time></trkpt>
<trkpt lat="35.196377" lon="-84.901193"><ele>220.4</ele><time>2026-07-29T00:37:55Z</time></trkpt>
<trkpt lat="35.196398" lon="-84.90116"><ele>220.4</ele><time>2026-07-29T00:37:57Z</time></trkpt>
<trkpt lat="35.196418" lon="-84.901126"><ele>220.1</ele><time>2026-07-29T00:37:59Z</time></trkpt>
<trkpt lat="35.196438" lon="-84.901093"><ele>220.1</ele><time>2026-07-29T00:38:01Z</time></trkpt>
<trkpt lat="35.196456" lon="-84.90106"><ele>219.8</ele><time>2026-07-29T00:38:03Z</time></trkpt>
<trkpt lat="35.196473" lon="-84.901027"><ele>219.8</ele><time>2026-07-29T00:38:05Z</time></trkpt>
<trkpt lat="35.196492" lon="-84.900997"><ele>219.8</ele><time>2026-07-29T00:38:07Z</time></trkpt>
<trkpt lat="35.196512" lon="-84.900967"><ele>219.8</ele><time>2026-07-29T00:38:09Z</time></trkpt>
<trkpt lat="35.196533" lon="-84.900939"><ele>219.5</ele><time>2026-07-29T00:38:11Z</time></trkpt>
<trkpt lat="35.196557" lon="-84.900908"><ele>218.8</ele><time>2026-07-29T00:38:13Z</time></trkpt>
<trkpt lat="35.196593" lon="-84.900872"><ele>217.0</ele><time>2026-07-29T00:38:15Z</time></trkpt>
<trkpt lat="35.196622" lon="-84.900851"><ele>217.3</ele><time>2026-07-29T00:38:16Z</time></trkpt>
<trkpt lat="35.196651" lon="-84.900828"><ele>217.9</ele><time>2026-07-29T00:38:17Z</time></trkpt>
<trkpt lat="35.196678" lon="-84.900809"><ele>217.9</ele><time>2026-07-29T00:38:18Z</time></trkpt>
<trkpt lat="35.196708" lon="-84.900787"><ele>218.2</ele><time>2026-07-29T00:38:19Z</time></trkpt>
<trkpt lat="35.196738" lon="-84.900764"><ele>218.5</ele><time>2026-07-29T00:38:20Z</time></trkpt>
<trkpt lat="35.196765" lon="-84.90074"><ele>218.5</ele><time>2026-07-29T00:38:21Z</time></trkpt>
<trkpt lat="35.19679" lon="-84.900717"><ele>218.5</ele><time>2026-07-29T00:38:22Z</time></trkpt>
<trkpt lat="35.196814" lon="-84.900692"><ele>218.2</ele><time>2026-07-29T00:38:23Z</time></trkpt>
<trkpt lat="35.196839" lon="-84.900667"><ele>217.9</ele><time>2026-07-29T00:38:24Z</time></trkpt>
<trkpt lat="35.196867" lon="-84.900641"><ele>217.6</ele><time>2026-07-29T00:38:25Z</time></trkpt>
<trkpt lat="35.196895" lon="-84.900614"><ele>218.2</ele><time>2026-07-29T00:38:26Z</time></trkpt>
<trkpt lat="35.196925" lon="-84.900587"><ele>218.5</ele><time>2026-07-29T00:38:27Z</time></trkpt>
<trkpt lat="35.196952" lon="-84.900562"><ele>218.8</ele><time>2026-07-29T00:38:28Z</time></trkpt>
<trkpt lat="35.196979" lon="-84.900535"><ele>219.8</ele><time>2026-07-29T00:38:29Z</time></trkpt>
<trkpt lat="35.197003" lon="-84.900505"><ele>220.1</ele><time>2026-07-29T00:38:30Z</time></trkpt>
<trkpt lat="35.197024" lon="-84.900479"><ele>220.4</ele><time>2026-07-29T00:38:31Z</time></trkpt>
<trkpt lat="35.197047" lon="-84.90045"><ele>220.7</ele><time>2026-07-29T00:38:32Z</time></trkpt>
<trkpt lat="35.197066" lon="-84.900424"><ele>220.4</ele><time>2026-07-29T00:38:33Z</time></trkpt>
<trkpt lat="35.19709" lon="-84.900395"><ele>220.1</ele><time>2026-07-29T00:38:34Z</time></trkpt>
<trkpt lat="35.197113" lon="-84.900371"><ele>220.1</ele><time>2026-07-29T00:38:35Z</time></trkpt>
<trkpt lat="35.19714" lon="-84.900347"><ele>219.8</ele><time>2026-07-29T00:38:36Z</time></trkpt>
<trkpt lat="35.197168" lon="-84.900329"><ele>219.5</ele><time>2026-07-29T00:38:37Z</time></trkpt>
<trkpt lat="35.197198" lon="-84.900311"><ele>219.8</ele><time>2026-07-29T00:38:38Z</time></trkpt>
<trkpt lat="35.197227" lon="-84.90029"><ele>220.1</ele><time>2026-07-29T00:38:39Z</time></trkpt>
<trkpt lat="35.197255" lon="-84.90027"><ele>220.1</ele><time>2026-07-29T00:38:40Z</time></trkpt>
<trkpt lat="35.197282" lon="-84.900251"><ele>220.1</ele><time>2026-07-29T00:38:41Z</time></trkpt>
<trkpt lat="35.197309" lon="-84.900227"><ele>220.4</ele><time>2026-07-29T00:38:42Z</time></trkpt>
<trkpt lat="35.197335" lon="-84.900199"><ele>220.7</ele><time>2026-07-29T00:38:43Z</time></trkpt>
<trkpt lat="35.19736" lon="-84.900173"><ele>220.7</ele><time>2026-07-29T00:38:44Z</time></trkpt>
<trkpt lat="35.197385" lon="-84.900147"><ele>220.4</ele><time>2026-07-29T00:38:45Z</time></trkpt>
<trkpt lat="35.197406" lon="-84.900121"><ele>219.8</ele><time>2026-07-29T00:38:46Z</time></trkpt>
<trkpt lat="35.197428" lon="-84.900094"><ele>219.5</ele><time>2026-07-29T00:38:47Z</time></trkpt>
<trkpt lat="35.197451" lon="-84.900065"><ele>219.8</ele><time>2026-07-29T00:38:48Z</time></trkpt>
<trkpt lat="35.197473" lon="-84.900038"><ele>219.5</ele><time>2026-07-29T00:38:49Z</time></trkpt>
<trkpt lat="35.197494" lon="-84.900009"><ele>219.8</ele><time>2026-07-29T00:38:50Z</time></trkpt>
<trkpt lat="35.197518" lon="-84.899984"><ele>219.8</ele><time>2026-07-29T00:38:51Z</time></trkpt>
<trkpt lat="35.197543" lon="-84.899959"><ele>220.1</ele><time>2026-07-29T00:38:52Z</time></trkpt>
<trkpt lat="35.197565" lon="-84.899938"><ele>219.2</ele><time>2026-07-29T00:38:53Z</time></trkpt>
<trkpt lat="35.197589" lon="-84.899915"><ele>218.8</ele><time>2026-07-29T00:38:54Z</time></trkpt>
<trkpt lat="35.197612" lon="-84.899895"><ele>218.5</ele><time>2026-07-29T00:38:55Z</time></trkpt>
<trkpt lat="35.197653" lon="-84.899858"><ele>218.5</ele><time>2026-07-29T00:38:57Z</time></trkpt>
<trkpt lat="35.197689" lon="-84.89983"><ele>218.5</ele><time>2026-07-29T00:38:59Z</time></trkpt>
<trkpt lat="35.197717" lon="-84.899816"><ele>218.2</ele><time>2026-07-29T00:39:01Z</time></trkpt>
<trkpt lat="35.197749" lon="-84.899792"><ele>218.5</ele><time>2026-07-29T00:39:03Z</time></trkpt>
<trkpt lat="35.197772" lon="-84.899767"><ele>218.5</ele><time>2026-07-29T00:39:05Z</time></trkpt>
<trkpt lat="35.197796" lon="-84.89974"><ele>219.2</ele><time>2026-07-29T00:39:07Z</time></trkpt>
<trkpt lat="35.197823" lon="-84.899719"><ele>219.2</ele><time>2026-07-29T00:39:09Z</time></trkpt>
<trkpt lat="35.197847" lon="-84.899695"><ele>218.8</ele><time>2026-07-29T00:39:11Z</time></trkpt>
<trkpt lat="35.197871" lon="-84.899675"><ele>218.5</ele><time>2026-07-29T00:39:13Z</time></trkpt>
<trkpt lat="35.197896" lon="-84.899652"><ele>217.9</ele><time>2026-07-29T00:39:15Z</time></trkpt>
<trkpt lat="35.197926" lon="-84.899629"><ele>217.6</ele><time>2026-07-29T00:39:17Z</time></trkpt>
<trkpt lat="35.197957" lon="-84.899607"><ele>217.3</ele><time>2026-07-29T00:39:19Z</time></trkpt>
<trkpt lat="35.197985" lon="-84.899585"><ele>217.0</ele><time>2026-07-29T00:39:21Z</time></trkpt>
<trkpt lat="35.198009" lon="-84.899556"><ele>217.0</ele><time>2026-07-29T00:39:23Z</time></trkpt>
<trkpt lat="35.198033" lon="-84.899529"><ele>217.0</ele><time>2026-07-29T00:39:25Z</time></trkpt>
<trkpt lat="35.198062" lon="-84.899508"><ele>217.0</ele><time>2026-07-29T00:39:27Z</time></trkpt>
<trkpt lat="35.198093" lon="-84.899504"><ele>216.4</ele><time>2026-07-29T00:39:29Z</time></trkpt>
<trkpt lat="35.198116" lon="-84.899549"><ele>217.0</ele><time>2026-07-29T00:39:31Z</time></trkpt>
<trkpt lat="35.198129" lon="-84.899588"><ele>216.4</ele><time>2026-07-29T00:39:33Z</time></trkpt>
<trkpt lat="35.198143" lon="-84.899625"><ele>217.0</ele><time>2026-07-29T00:39:35Z</time></trkpt>
<trkpt lat="35.198156" lon="-84.899662"><ele>217.0</ele><time>2026-07-29T00:39:37Z</time></trkpt>
<trkpt lat="35.198169" lon="-84.899698"><ele>216.7</ele><time>2026-07-29T00:39:39Z</time></trkpt>
<trkpt lat="35.198185" lon="-84.899734"><ele>217.3</ele><time>2026-07-29T00:39:41Z</time></trkpt>
<trkpt lat="35.198197" lon="-84.899774"><ele>217.3</ele><time>2026-07-29T00:39:43Z</time></trkpt>
<trkpt lat="35.198211" lon="-84.899812"><ele>217.6</ele><time>2026-07-29T00:39:45Z</time></trkpt>
<trkpt lat="35.198226" lon="-84.899851"><ele>217.6</ele><time>2026-07-29T00:39:47Z</time></trkpt>
<trkpt lat="35.198244" lon="-84.899887"><ele>217.9</ele><time>2026-07-29T00:39:49Z</time></trkpt>
<trkpt lat="35.198258" lon="-84.899921"><ele>217.9</ele><time>2026-07-29T00:39:51Z</time></trkpt>
<trkpt lat="35.198269" lon="-84.899958"><ele>218.5</ele><time>2026-07-29T00:39:53Z</time></trkpt>
<trkpt lat="35.198289" lon="-84.899992"><ele>218.2</ele><time>2026-07-29T00:39:55Z</time></trkpt>
<trkpt lat="35.198309" lon="-84.900026"><ele>218.5</ele><time>2026-07-29T00:39:57Z</time></trkpt>
<trkpt lat="35.198327" lon="-84.900063"><ele>219.2</ele><time>2026-07-29T00:39:59Z</time></trkpt>
<trkpt lat="35.198334" lon="-84.900104"><ele>219.8</ele><time>2026-07-29T00:40:01Z</time></trkpt>
<trkpt lat="35.198326" lon="-84.900147"><ele>219.5</ele><time>2026-07-29T00:40:03Z</time></trkpt>
<trkpt lat="35.198304" lon="-84.900179"><ele>219.2</ele><time>2026-07-29T00:40:05Z</time></trkpt>
<trkpt lat="35.198273" lon="-84.900204"><ele>219.2</ele><time>2026-07-29T00:40:07Z</time></trkpt>
<trkpt lat="35.198243" lon="-84.900224"><ele>218.5</ele><time>2026-07-29T00:40:09Z</time></trkpt>
<trkpt lat="35.198211" lon="-84.900244"><ele>218.8</ele><time>2026-07-29T00:40:11Z</time></trkpt>
<trkpt lat="35.198182" lon="-84.90026"><ele>218.5</ele><time>2026-07-29T00:40:13Z</time></trkpt>
<trkpt lat="35.198155" lon="-84.900283"><ele>217.9</ele><time>2026-07-29T00:40:15Z</time></trkpt>
<trkpt lat="35.198127" lon="-84.900304"><ele>218.2</ele><time>2026-07-29T00:40:17Z</time></trkpt>
<trkpt lat="35.198099" lon="-84.900325"><ele>218.2</ele><time>2026-07-29T00:40:19Z</time></trkpt>
<trkpt lat="35.198074" lon="-84.900354"><ele>217.9</ele><time>2026-07-29T00:40:21Z</time></trkpt>
<trkpt lat="35.198046" lon="-84.900382"><ele>216.7</ele><time>2026-07-29T00:40:23Z</time></trkpt>
<trkpt lat="35.198016" lon="-84.900405"><ele>216.4</ele><time>2026-07-29T00:40:25Z</time></trkpt>
<trkpt lat="35.197988" lon="-84.900427"><ele>216.1</ele><time>2026-07-29T00:40:27Z</time></trkpt>
<trkpt lat="35.197962" lon="-84.900454"><ele>217.0</ele><time>2026-07-29T00:40:29Z</time></trkpt>
<trkpt lat="35.19794" lon="-84.900484"><ele>217.9</ele><time>2026-07-29T00:40:31Z</time></trkpt>
<trkpt lat="35.197918" lon="-84.900511"><ele>218.2</ele><time>2026-07-29T00:40:33Z</time></trkpt>
<trkpt lat="35.197895" lon="-84.900531"><ele>218.2</ele><time>2026-07-29T00:40:35Z</time></trkpt>
<trkpt lat="35.197874" lon="-84.900559"><ele>218.2</ele><time>2026-07-29T00:40:37Z</time></trkpt>
<trkpt lat="35.197855" lon="-84.900594"><ele>218.5</ele><time>2026-07-29T00:40:39Z</time></trkpt>
<trkpt lat="35.197841" lon="-84.900633"><ele>218.5</ele><time>2026-07-29T00:40:41Z</time></trkpt>
<trkpt lat="35.197833" lon="-84.900674"><ele>219.5</ele><time>2026-07-29T00:40:43Z</time></trkpt>
<trkpt lat="35.197821" lon="-84.900711"><ele>220.4</ele><time>2026-07-29T00:40:45Z</time></trkpt>
<trkpt lat="35.197815" lon="-84.900753"><ele>220.4</ele><time>2026-07-29T00:40:47Z</time></trkpt>
<trkpt lat="35.197812" lon="-84.900793"><ele>219.8</ele><time>2026-07-29T00:40:49Z</time></trkpt>
<trkpt lat="35.197807" lon="-84.900833"><ele>219.5</ele><time>2026-07-29T00:40:51Z</time></trkpt>
<trkpt lat="35.197799" lon="-84.900872"><ele>219.2</ele><time>2026-07-29T00:40:53Z</time></trkpt>
<trkpt lat="35.197789" lon="-84.900911"><ele>218.8</ele><time>2026-07-29T00:40:55Z</time></trkpt>
<trkpt lat="35.197778" lon="-84.900949"><ele>218.2</ele><time>2026-07-29T00:40:57Z</time></trkpt>
<trkpt lat="35.197765" lon="-84.900985"><ele>218.5</ele><time>2026-07-29T00:40:59Z</time></trkpt>
<trkpt lat="35.197747" lon="-84.901017"><ele>218.2</ele><time>2026-07-29T00:41:01Z</time></trkpt>
<trkpt lat="35.197723" lon="-84.901048"><ele>218.2</ele><time>2026-07-29T00:41:03Z</time></trkpt>
<trkpt lat="35.197702" lon="-84.901079"><ele>218.2</ele><time>2026-07-29T00:41:05Z</time></trkpt>
<trkpt lat="35.197683" lon="-84.901108"><ele>218.2</ele><time>2026-07-29T00:41:07Z</time></trkpt>
<trkpt lat="35.197661" lon="-84.901135"><ele>218.5</ele><time>2026-07-29T00:41:09Z</time></trkpt>
<trkpt lat="35.197638" lon="-84.901161"><ele>218.5</ele><time>2026-07-29T00:41:11Z</time></trkpt>
<trkpt lat="35.197613" lon="-84.901186"><ele>218.5</ele><time>2026-07-29T00:41:13Z</time></trkpt>
<trkpt lat="35.197589" lon="-84.901211"><ele>217.9</ele><time>2026-07-29T00:41:15Z</time></trkpt>
<trkpt lat="35.197567" lon="-84.901239"><ele>217.9</ele><time>2026-07-29T00:41:17Z</time></trkpt>
<trkpt lat="35.197548" lon="-84.90127"><ele>218.5</ele><time>2026-07-29T00:41:19Z</time></trkpt>
<trkpt lat="35.197527" lon="-84.901298"><ele>217.6</ele><time>2026-07-29T00:41:21Z</time></trkpt>
<trkpt lat="35.197511" lon="-84.901331"><ele>217.6</ele><time>2026-07-29T00:41:23Z</time></trkpt>
<trkpt lat="35.197494" lon="-84.901362"><ele>218.5</ele><time>2026-07-29T00:41:25Z</time></trkpt>
<trkpt lat="35.197472" lon="-84.901388"><ele>218.2</ele><time>2026-07-29T00:41:27Z</time></trkpt>
<trkpt lat="35.19745" lon="-84.901414"><ele>218.5</ele><time>2026-07-29T00:41:29Z</time></trkpt>
<trkpt lat="35.197428" lon="-84.901443"><ele>218.2</ele><time>2026-07-29T00:41:31Z</time></trkpt>
<trkpt lat="35.197405" lon="-84.901471"><ele>218.8</ele><time>2026-07-29T00:41:33Z</time></trkpt>
<trkpt lat="35.197391" lon="-84.901507"><ele>218.8</ele><time>2026-07-29T00:41:35Z</time></trkpt>
<trkpt lat="35.197375" lon="-84.901539"><ele>218.5</ele><time>2026-07-29T00:41:37Z</time></trkpt>
<trkpt lat="35.197352" lon="-84.901567"><ele>218.5</ele><time>2026-07-29T00:41:39Z</time></trkpt>
<trkpt lat="35.197331" lon="-84.901596"><ele>218.2</ele><time>2026-07-29T00:41:41Z</time></trkpt>
<trkpt lat="35.197309" lon="-84.901623"><ele>217.6</ele><time>2026-07-29T00:41:43Z</time></trkpt>
<trkpt lat="35.197287" lon="-84.901651"><ele>218.8</ele><time>2026-07-29T00:41:45Z</time></trkpt>
<trkpt lat="35.197268" lon="-84.901684"><ele>219.2</ele><time>2026-07-29T00:41:47Z</time></trkpt>
<trkpt lat="35.19725" lon="-84.901713"><ele>219.2</ele><time>2026-07-29T00:41:49Z</time></trkpt>
<trkpt lat="35.197228" lon="-84.901744"><ele>218.8</ele><time>2026-07-29T00:41:51Z</time></trkpt>
<trkpt lat="35.19721" lon="-84.901777"><ele>217.9</ele><time>2026-07-29T00:41:53Z</time></trkpt>
<trkpt lat="35.197197" lon="-84.901811"><ele>217.6</ele><time>2026-07-29T00:41:55Z</time></trkpt>
<trkpt lat="35.19718" lon="-84.901842"><ele>218.2</ele><time>2026-07-29T00:41:57Z</time></trkpt>
<trkpt lat="35.197161" lon="-84.901872"><ele>218.5</ele><time>2026-07-29T00:41:59Z</time></trkpt>
<trkpt lat="35.197143" lon="-84.901905"><ele>218.2</ele><time>2026-07-29T00:42:01Z</time></trkpt>
<trkpt lat="35.197124" lon="-84.901935"><ele>218.2</ele><time>2026-07-29T00:42:03Z</time></trkpt>
<trkpt lat="35.197108" lon="-84.901965"><ele>219.2</ele><time>2026-07-29T00:42:05Z</time></trkpt>
<trkpt lat="35.197097" lon="-84.902002"><ele>219.5</ele><time>2026-07-29T00:42:07Z</time></trkpt>
<trkpt lat="35.197079" lon="-84.902036"><ele>219.2</ele><time>2026-07-29T00:42:09Z</time></trkpt>
<trkpt lat="35.197062" lon="-84.902068"><ele>218.5</ele><time>2026-07-29T00:42:11Z</time></trkpt>
<trkpt lat="35.197045" lon="-84.902097"><ele>218.5</ele><time>2026-07-29T00:42:13Z</time></trkpt>
<trkpt lat="35.197027" lon="-84.902128"><ele>218.5</ele><time>2026-07-29T00:42:15Z</time></trkpt>
<trkpt lat="35.19701" lon="-84.902159"><ele>219.2</ele><time>2026-07-29T00:42:17Z</time></trkpt>
<trkpt lat="35.196991" lon="-84.902193"><ele>218.8</ele><time>2026-07-29T00:42:19Z</time></trkpt>
<trkpt lat="35.196973" lon="-84.902224"><ele>218.8</ele><time>2026-07-29T00:42:21Z</time></trkpt>
<trkpt lat="35.196958" lon="-84.90226"><ele>218.8</ele><time>2026-07-29T00:42:23Z</time></trkpt>
<trkpt lat="35.196944" lon="-84.902292"><ele>218.5</ele><time>2026-07-29T00:42:25Z</time></trkpt>
<trkpt lat="35.196926" lon="-84.902322"><ele>218.5</ele><time>2026-07-29T00:42:27Z</time></trkpt>
<trkpt lat="35.196914" lon="-84.902356"><ele>218.5</ele><time>2026-07-29T00:42:29Z</time></trkpt>
<trkpt lat="35.196901" lon="-84.90239"><ele>218.5</ele><time>2026-07-29T00:42:31Z</time></trkpt>
<trkpt lat="35.196885" lon="-84.902438"><ele>217.3</ele><time>2026-07-29T00:42:33Z</time></trkpt>
<trkpt lat="35.19688" lon="-84.902479"><ele>216.7</ele><time>2026-07-29T00:42:35Z</time></trkpt>
<trkpt lat="35.196865" lon="-84.902526"><ele>217.3</ele><time>2026-07-29T00:42:38Z</time></trkpt>
<trkpt lat="35.196849" lon="-84.902573"><ele>218.2</ele><time>2026-07-29T00:42:41Z</time></trkpt>
<trkpt lat="35.196841" lon="-84.902608"><ele>218.5</ele><time>2026-07-29T00:42:43Z</time></trkpt>
<trkpt lat="35.196837" lon="-84.902644"><ele>219.2</ele><time>2026-07-29T00:42:45Z</time></trkpt>
<trkpt lat="35.196838" lon="-84.902683"><ele>219.2</ele><time>2026-07-29T00:42:47Z</time></trkpt>
<trkpt lat="35.196835" lon="-84.90272"><ele>220.1</ele><time>2026-07-29T00:42:49Z</time></trkpt>
<trkpt lat="35.196833" lon="-84.902756"><ele>220.7</ele><time>2026-07-29T00:42:51Z</time></trkpt>
<trkpt lat="35.196831" lon="-84.902795"><ele>221.3</ele><time>2026-07-29T00:42:53Z</time></trkpt>
<trkpt lat="35.196827" lon="-84.902834"><ele>221.9</ele><time>2026-07-29T00:42:55Z</time></trkpt>
<trkpt lat="35.196824" lon="-84.902873"><ele>220.7</ele><time>2026-07-29T00:42:57Z</time></trkpt>
<trkpt lat="35.196824" lon="-84.902911"><ele>220.1</ele><time>2026-07-29T00:42:59Z</time></trkpt>
<trkpt lat="35.196822" lon="-84.902952"><ele>220.1</ele><time>2026-07-29T00:43:01Z</time></trkpt>
<trkpt lat="35.196821" lon="-84.90299"><ele>220.4</ele><time>2026-07-29T00:43:03Z</time></trkpt>
<trkpt lat="35.196818" lon="-84.903024"><ele>218.8</ele><time>2026-07-29T00:43:05Z</time></trkpt>
<trkpt lat="35.196817" lon="-84.903061"><ele>218.2</ele><time>2026-07-29T00:43:07Z</time></trkpt>
<trkpt lat="35.196813" lon="-84.903106"><ele>217.3</ele><time>2026-07-29T00:43:09Z</time></trkpt>
<trkpt lat="35.196805" lon="-84.903141"><ele>218.2</ele><time>2026-07-29T00:43:11Z</time></trkpt>
<trkpt lat="35.196806" lon="-84.903178"><ele>218.8</ele><time>2026-07-29T00:43:13Z</time></trkpt>
<trkpt lat="35.196803" lon="-84.903212"><ele>218.8</ele><time>2026-07-29T00:43:15Z</time></trkpt>
<trkpt lat="35.196801" lon="-84.903248"><ele>217.9</ele><time>2026-07-29T00:43:17Z</time></trkpt>
<trkpt lat="35.196804" lon="-84.903283"><ele>217.3</ele><time>2026-07-29T00:43:19Z</time></trkpt>
<trkpt lat="35.196807" lon="-84.903322"><ele>216.7</ele><time>2026-07-29T00:43:21Z</time></trkpt>
<trkpt lat="35.196805" lon="-84.903365"><ele>217.6</ele><time>2026-07-29T00:43:23Z</time></trkpt>
<trkpt lat="35.196802" lon="-84.903409"><ele>216.7</ele><time>2026-07-29T00:43:25Z</time></trkpt>
<trkpt lat="35.1968" lon="-84.903449"><ele>217.0</ele><time>2026-07-29T00:43:27Z</time></trkpt>
<trkpt lat="35.196799" lon="-84.903486"><ele>217.3</ele><time>2026-07-29T00:43:29Z</time></trkpt>
<trkpt lat="35.196795" lon="-84.90352"><ele>218.5</ele><time>2026-07-29T00:43:31Z</time></trkpt>
<trkpt lat="35.196786" lon="-84.903554"><ele>219.2</ele><time>2026-07-29T00:43:33Z</time></trkpt>
<trkpt lat="35.196783" lon="-84.903592"><ele>219.8</ele><time>2026-07-29T00:43:35Z</time></trkpt>
<trkpt lat="35.196782" lon="-84.90363"><ele>219.5</ele><time>2026-07-29T00:43:37Z</time></trkpt>
<trkpt lat="35.196779" lon="-84.903668"><ele>219.8</ele><time>2026-07-29T00:43:39Z</time></trkpt>
<trkpt lat="35.196778" lon="-84.903703"><ele>218.8</ele><time>2026-07-29T00:43:41Z</time></trkpt>
<trkpt lat="35.196773" lon="-84.903741"><ele>219.8</ele><time>2026-07-29T00:43:43Z</time></trkpt>
<trkpt lat="35.196772" lon="-84.903781"><ele>219.8</ele><time>2026-07-29T00:43:45Z</time></trkpt>
<trkpt lat="35.196769" lon="-84.903822"><ele>219.8</ele><time>2026-07-29T00:43:47Z</time></trkpt>
<trkpt lat="35.196766" lon="-84.903863"><ele>219.5</ele><time>2026-07-29T00:43:49Z</time></trkpt>
<trkpt lat="35.196763" lon="-84.903904"><ele>219.5</ele><time>2026-07-29T00:43:51Z</time></trkpt>
<trkpt lat="35.196763" lon="-84.903942"><ele>219.5</ele><time>2026-07-29T00:43:53Z</time></trkpt>
<trkpt lat="35.19676" lon="-84.903982"><ele>220.7</ele><time>2026-07-29T00:43:55Z</time></trkpt>
<trkpt lat="35.196759" lon="-84.904019"><ele>221.6</ele><time>2026-07-29T00:43:57Z</time></trkpt>
<trkpt lat="35.196759" lon="-84.904055"><ele>221.6</ele><time>2026-07-29T00:43:59Z</time></trkpt>
<trkpt lat="35.196763" lon="-84.904088"><ele>221.3</ele><time>2026-07-29T00:44:01Z</time></trkpt>
<trkpt lat="35.196759" lon="-84.904124"><ele>221.0</ele><time>2026-07-29T00:44:03Z</time></trkpt>
<trkpt lat="35.196757" lon="-84.904163"><ele>219.8</ele><time>2026-07-29T00:44:05Z</time></trkpt>
<trkpt lat="35.196753" lon="-84.904201"><ele>219.2</ele><time>2026-07-29T00:44:07Z</time></trkpt>
<trkpt lat="35.196752" lon="-84.90424"><ele>218.2</ele><time>2026-07-29T00:44:09Z</time></trkpt>
<trkpt lat="35.196744" lon="-84.904278"><ele>218.8</ele><time>2026-07-29T00:44:11Z</time></trkpt>
<trkpt lat="35.196746" lon="-84.904318"><ele>217.6</ele><time>2026-07-29T00:44:13Z</time></trkpt>
<trkpt lat="35.19675" lon="-84.904356"><ele>217.9</ele><time>2026-07-29T00:44:15Z</time></trkpt>
<trkpt lat="35.19675" lon="-84.904395"><ele>218.8</ele><time>2026-07-29T00:44:17Z</time></trkpt>
<trkpt lat="35.196751" lon="-84.904434"><ele>219.2</ele><time>2026-07-29T00:44:19Z</time></trkpt>
<trkpt lat="35.196754" lon="-84.904475"><ele>220.4</ele><time>2026-07-29T00:44:21Z</time></trkpt>
<trkpt lat="35.196756" lon="-84.904514"><ele>220.1</ele><time>2026-07-29T00:44:23Z</time></trkpt>
<trkpt lat="35.196755" lon="-84.904551"><ele>220.1</ele><time>2026-07-29T00:44:25Z</time></trkpt>
<trkpt lat="35.196758" lon="-84.904588"><ele>219.8</ele><time>2026-07-29T00:44:27Z</time></trkpt>
<trkpt lat="35.19676" lon="-84.904626"><ele>218.8</ele><time>2026-07-29T00:44:29Z</time></trkpt>
<trkpt lat="35.196762" lon="-84.904665"><ele>218.2</ele><time>2026-07-29T00:44:31Z</time></trkpt>
<trkpt lat="35.196762" lon="-84.904704"><ele>218.5</ele><time>2026-07-29T00:44:33Z</time></trkpt>
<trkpt lat="35.196769" lon="-84.90474"><ele>217.6</ele><time>2026-07-29T00:44:35Z</time></trkpt>
<trkpt lat="35.196743" lon="-84.904776"><ele>216.4</ele><time>2026-07-29T00:44:37Z</time></trkpt>
<trkpt lat="35.196764" lon="-84.904819"><ele>218.8</ele><time>2026-07-29T00:44:39Z</time></trkpt>
<trkpt lat="35.19678" lon="-84.904853"><ele>219.5</ele><time>2026-07-29T00:44:41Z</time></trkpt>
<trkpt lat="35.196786" lon="-84.90489"><ele>219.8</ele><time>2026-07-29T00:44:43Z</time></trkpt>
<trkpt lat="35.196793" lon="-84.904925"><ele>220.1</ele><time>2026-07-29T00:44:45Z</time></trkpt>
<trkpt lat="35.196801" lon="-84.90496"><ele>219.8</ele><time>2026-07-29T00:44:47Z</time></trkpt>
<trkpt lat="35.196806" lon="-84.904996"><ele>219.8</ele><time>2026-07-29T00:44:49Z</time></trkpt>
<trkpt lat="35.196811" lon="-84.905035"><ele>219.8</ele><time>2026-07-29T00:44:51Z</time></trkpt>
<trkpt lat="35.196815" lon="-84.905071"><ele>219.8</ele><time>2026-07-29T00:44:53Z</time></trkpt>
<trkpt lat="35.196819" lon="-84.905109"><ele>219.8</ele><time>2026-07-29T00:44:55Z</time></trkpt>
<trkpt lat="35.196824" lon="-84.905144"><ele>219.8</ele><time>2026-07-29T00:44:57Z</time></trkpt>
<trkpt lat="35.196826" lon="-84.90518"><ele>219.8</ele><time>2026-07-29T00:44:59Z</time></trkpt>
<trkpt lat="35.196828" lon="-84.905216"><ele>220.1</ele><time>2026-07-29T00:45:01Z</time></trkpt>
<trkpt lat="35.196829" lon="-84.905254"><ele>219.8</ele><time>2026-07-29T00:45:03Z</time></trkpt>
<trkpt lat="35.196831" lon="-84.905292"><ele>220.1</ele><time>2026-07-29T00:45:05Z</time></trkpt>
<trkpt lat="35.196839" lon="-84.905328"><ele>221.0</ele><time>2026-07-29T00:45:07Z</time></trkpt>
<trkpt lat="35.196845" lon="-84.905364"><ele>220.4</ele><time>2026-07-29T00:45:09Z</time></trkpt>
<trkpt lat="35.196847" lon="-84.905401"><ele>219.8</ele><time>2026-07-29T00:45:11Z</time></trkpt>
<trkpt lat="35.196846" lon="-84.905437"><ele>219.2</ele><time>2026-07-29T00:45:13Z</time></trkpt>
<trkpt lat="35.196848" lon="-84.905486"><ele>218.5</ele><time>2026-07-29T00:45:16Z</time></trkpt>
<trkpt lat="35.196859" lon="-84.905525"><ele>218.2</ele><time>2026-07-29T00:45:19Z</time></trkpt>
<trkpt lat="35.196861" lon="-84.905574"><ele>218.2</ele><time>2026-07-29T00:45:22Z</time></trkpt>
<trkpt lat="35.196865" lon="-84.905611"><ele>218.5</ele><time>2026-07-29T00:45:24Z</time></trkpt>
<trkpt lat="35.196867" lon="-84.90565"><ele>217.6</ele><time>2026-07-29T00:45:26Z</time></trkpt>
<trkpt lat="35.196864" lon="-84.90569"><ele>218.2</ele><time>2026-07-29T00:45:28Z</time></trkpt>
<trkpt lat="35.196864" lon="-84.90573"><ele>217.3</ele><time>2026-07-29T00:45:30Z</time></trkpt>
<trkpt lat="35.196868" lon="-84.905765"><ele>218.8</ele><time>2026-07-29T00:45:32Z</time></trkpt>
<trkpt lat="35.196863" lon="-84.9058"><ele>220.1</ele><time>2026-07-29T00:45:34Z</time></trkpt>
<trkpt lat="35.196869" lon="-84.905833"><ele>220.4</ele><time>2026-07-29T00:45:36Z</time></trkpt>
<trkpt lat="35.196872" lon="-84.905881"><ele>221.3</ele><time>2026-07-29T00:45:39Z</time></trkpt>
<trkpt lat="35.196877" lon="-84.905916"><ele>220.7</ele><time>2026-07-29T00:45:41Z</time></trkpt>
<trkpt lat="35.196883" lon="-84.905952"><ele>220.7</ele><time>2026-07-29T00:45:43Z</time></trkpt>
<trkpt lat="35.196884" lon="-84.905987"><ele>222.2</ele><time>2026-07-29T00:45:45Z</time></trkpt>
<trkpt lat="35.196887" lon="-84.906024"><ele>221.9</ele><time>2026-07-29T00:45:47Z</time></trkpt>
<trkpt lat="35.19689" lon="-84.906063"><ele>222.2</ele><time>2026-07-29T00:45:49Z</time></trkpt>
<trkpt lat="35.196895" lon="-84.906101"><ele>221.9</ele><time>2026-07-29T00:45:51Z</time></trkpt>
<trkpt lat="35.196899" lon="-84.906137"><ele>222.8</ele><time>2026-07-29T00:45:53Z</time></trkpt>
<trkpt lat="35.1969" lon="-84.906175"><ele>223.1</ele><time>2026-07-29T00:45:55Z</time></trkpt>
<trkpt lat="35.196898" lon="-84.906211"><ele>221.9</ele><time>2026-07-29T00:45:57Z</time></trkpt>
<trkpt lat="35.196898" lon="-84.906247"><ele>221.6</ele><time>2026-07-29T00:45:59Z</time></trkpt>
<trkpt lat="35.1969" lon="-84.906283"><ele>221.9</ele><time>2026-07-29T00:46:01Z</time></trkpt>
<trkpt lat="35.196905" lon="-84.90632"><ele>222.2</ele><time>2026-07-29T00:46:03Z</time></trkpt>
<trkpt lat="35.196908" lon="-84.906357"><ele>220.7</ele><time>2026-07-29T00:46:05Z</time></trkpt>
<trkpt lat="35.196909" lon="-84.906408"><ele>221.3</ele><time>2026-07-29T00:46:08Z</time></trkpt>
<trkpt lat="35.196909" lon="-84.906442"><ele>221.6</ele><time>2026-07-29T00:46:10Z</time></trkpt>
<trkpt lat="35.196908" lon="-84.906477"><ele>221.6</ele><time>2026-07-29T00:46:12Z</time></trkpt>
<trkpt lat="35.196907" lon="-84.906513"><ele>221.9</ele><time>2026-07-29T00:46:14Z</time></trkpt>
<trkpt lat="35.196908" lon="-84.90655"><ele>222.2</ele><time>2026-07-29T00:46:16Z</time></trkpt>
<trkpt lat="35.196908" lon="-84.906588"><ele>223.1</ele><time>2026-07-29T00:46:18Z</time></trkpt>
<trkpt lat="35.196908" lon="-84.906622"><ele>223.4</ele><time>2026-07-29T00:46:20Z</time></trkpt>
<trkpt lat="35.196909" lon="-84.906658"><ele>223.1</ele><time>2026-07-29T00:46:22Z</time></trkpt>
<trkpt lat="35.196911" lon="-84.906694"><ele>222.5</ele><time>2026-07-29T00:46:24Z</time></trkpt>
<trkpt lat="35.196912" lon="-84.906731"><ele>222.5</ele><time>2026-07-29T00:46:26Z</time></trkpt>
<trkpt lat="35.196914" lon="-84.906767"><ele>221.9</ele><time>2026-07-29T00:46:28Z</time></trkpt>
<trkpt lat="35.196919" lon="-84.906802"><ele>221.9</ele><time>2026-07-29T00:46:30Z</time></trkpt>
<trkpt lat="35.19692" lon="-84.906841"><ele>222.2</ele><time>2026-07-29T00:46:32Z</time></trkpt>
<trkpt lat="35.196926" lon="-84.90688"><ele>221.9</ele><time>2026-07-29T00:46:34Z</time></trkpt>
<trkpt lat="35.196929" lon="-84.906918"><ele>222.2</ele><time>2026-07-29T00:46:36Z</time></trkpt>
<trkpt lat="35.196934" lon="-84.906954"><ele>222.8</ele><time>2026-07-29T00:46:38Z</time></trkpt>
<trkpt lat="35.196941" lon="-84.906988"><ele>223.1</ele><time>2026-07-29T00:46:40Z</time></trkpt>
<trkpt lat="35.196954" lon="-84.907021"><ele>222.8</ele><time>2026-07-29T00:46:42Z</time></trkpt>
<trkpt lat="35.196969" lon="-84.907055"><ele>223.1</ele><time>2026-07-29T00:46:44Z</time></trkpt>
<trkpt lat="35.196976" lon="-84.907093"><ele>223.7</ele><time>2026-07-29T00:46:46Z</time></trkpt>
<trkpt lat="35.196984" lon="-84.907127"><ele>224.3</ele><time>2026-07-29T00:46:48Z</time></trkpt>
<trkpt lat="35.196992" lon="-84.907164"><ele>223.7</ele><time>2026-07-29T00:46:50Z</time></trkpt>
<trkpt lat="35.197004" lon="-84.907201"><ele>223.4</ele><time>2026-07-29T00:46:52Z</time></trkpt>
<trkpt lat="35.197008" lon="-84.907241"><ele>223.7</ele><time>2026-07-29T00:46:54Z</time></trkpt>
<trkpt lat="35.197006" lon="-84.90728"><ele>224.3</ele><time>2026-07-29T00:46:56Z</time></trkpt>
<trkpt lat="35.197015" lon="-84.907318"><ele>223.1</ele><time>2026-07-29T00:46:58Z</time></trkpt>
<trkpt lat="35.197017" lon="-84.907357"><ele>222.8</ele><time>2026-07-29T00:47:00Z</time></trkpt>
<trkpt lat="35.197018" lon="-84.907395"><ele>223.1</ele><time>2026-07-29T00:47:02Z</time></trkpt>
<trkpt lat="35.197021" lon="-84.907434"><ele>223.4</ele><time>2026-07-29T00:47:04Z</time></trkpt>
<trkpt lat="35.197024" lon="-84.90747"><ele>223.1</ele><time>2026-07-29T00:47:06Z</time></trkpt>
<trkpt lat="35.197025" lon="-84.907506"><ele>223.4</ele><time>2026-07-29T00:47:08Z</time></trkpt>
<trkpt lat="35.197029" lon="-84.907544"><ele>223.7</ele><time>2026-07-29T00:47:10Z</time></trkpt>
<trkpt lat="35.197031" lon="-84.90758"><ele>223.1</ele><time>2026-07-29T00:47:12Z</time></trkpt>
<trkpt lat="35.197035" lon="-84.907616"><ele>223.4</ele><time>2026-07-29T00:47:14Z</time></trkpt>
<trkpt lat="35.197033" lon="-84.907652"><ele>223.7</ele><time>2026-07-29T00:47:16Z</time></trkpt>
<trkpt lat="35.197034" lon="-84.907687"><ele>224.3</ele><time>2026-07-29T00:47:18Z</time></trkpt>
<trkpt lat="35.197035" lon="-84.907727"><ele>224.0</ele><time>2026-07-29T00:47:20Z</time></trkpt>
<trkpt lat="35.197034" lon="-84.907765"><ele>224.0</ele><time>2026-07-29T00:47:22Z</time></trkpt>
<trkpt lat="35.197033" lon="-84.907804"><ele>223.7</ele><time>2026-07-29T00:47:24Z</time></trkpt>
<trkpt lat="35.197035" lon="-84.907841"><ele>223.1</ele><time>2026-07-29T00:47:26Z</time></trkpt>
<trkpt lat="35.197035" lon="-84.907877"><ele>223.1</ele><time>2026-07-29T00:47:28Z</time></trkpt>
<trkpt lat="35.197038" lon="-84.907915"><ele>223.1</ele><time>2026-07-29T00:47:30Z</time></trkpt>
<trkpt lat="35.19704" lon="-84.90795"><ele>223.1</ele><time>2026-07-29T00:47:32Z</time></trkpt>
<trkpt lat="35.197037" lon="-84.907988"><ele>222.8</ele><time>2026-07-29T00:47:34Z</time></trkpt>
<trkpt lat="35.197033" lon="-84.908026"><ele>223.4</ele><time>2026-07-29T00:47:36Z</time></trkpt>
<trkpt lat="35.197031" lon="-84.908063"><ele>223.7</ele><time>2026-07-29T00:47:38Z</time></trkpt>
<trkpt lat="35.197029" lon="-84.9081"><ele>224.6</ele><time>2026-07-29T00:47:40Z</time></trkpt>
<trkpt lat="35.197026" lon="-84.908138"><ele>224.6</ele><time>2026-07-29T00:47:42Z</time></trkpt>
<trkpt lat="35.197026" lon="-84.908175"><ele>224.3</ele><time>2026-07-29T00:47:44Z</time></trkpt>
<trkpt lat="35.197029" lon="-84.908214"><ele>224.0</ele><time>2026-07-29T00:47:46Z</time></trkpt>
<trkpt lat="35.197031" lon="-84.908251"><ele>224.3</ele><time>2026-07-29T00:47:48Z</time></trkpt>
<trkpt lat="35.19704" lon="-84.908287"><ele>223.7</ele><time>2026-07-29T00:47:50Z</time></trkpt>
<trkpt lat="35.197054" lon="-84.908321"><ele>222.2</ele><time>2026-07-29T00:47:52Z</time></trkpt>
<trkpt lat="35.197068" lon="-84.908356"><ele>221.9</ele><time>2026-07-29T00:47:54Z</time></trkpt>
<trkpt lat="35.197079" lon="-84.908392"><ele>222.5</ele><time>2026-07-29T00:47:56Z</time></trkpt>
<trkpt lat="35.197089" lon="-84.90843"><ele>222.5</ele><time>2026-07-29T00:47:58Z</time></trkpt>
<trkpt lat="35.197095" lon="-84.908468"><ele>223.1</ele><time>2026-07-29T00:48:00Z</time></trkpt>
<trkpt lat="35.197091" lon="-84.908506"><ele>223.1</ele><time>2026-07-29T00:48:02Z</time></trkpt>
<trkpt lat="35.197078" lon="-84.90854"><ele>223.4</ele><time>2026-07-29T00:48:04Z</time></trkpt>
<trkpt lat="35.197059" lon="-84.908569"><ele>223.4</ele><time>2026-07-29T00:48:06Z</time></trkpt>
<trkpt lat="35.197036" lon="-84.908594"><ele>223.4</ele><time>2026-07-29T00:48:08Z</time></trkpt>
<trkpt lat="35.197009" lon="-84.908616"><ele>223.1</ele><time>2026-07-29T00:48:10Z</time></trkpt>
<trkpt lat="35.196978" lon="-84.908635"><ele>223.4</ele><time>2026-07-29T00:48:12Z</time></trkpt>
<trkpt lat="35.19695" lon="-84.908652"><ele>223.1</ele><time>2026-07-29T00:48:14Z</time></trkpt>
<trkpt lat="35.196924" lon="-84.908666"><ele>223.4</ele><time>2026-07-29T00:48:16Z</time></trkpt>
<trkpt lat="35.196895" lon="-84.90868"><ele>223.1</ele><time>2026-07-29T00:48:18Z</time></trkpt>
<trkpt lat="35.196868" lon="-84.908695"><ele>223.4</ele><time>2026-07-29T00:48:20Z</time></trkpt>
<trkpt lat="35.19684" lon="-84.908709"><ele>223.4</ele><time>2026-07-29T00:48:22Z</time></trkpt>
<trkpt lat="35.196811" lon="-84.908723"><ele>223.4</ele><time>2026-07-29T00:48:24Z</time></trkpt>
<trkpt lat="35.196782" lon="-84.908739"><ele>223.7</ele><time>2026-07-29T00:48:26Z</time></trkpt>
<trkpt lat="35.196753" lon="-84.908755"><ele>223.7</ele><time>2026-07-29T00:48:28Z</time></trkpt>
<trkpt lat="35.196725" lon="-84.908769"><ele>224.0</ele><time>2026-07-29T00:48:30Z</time></trkpt>
<trkpt lat="35.196697" lon="-84.908784"><ele>223.7</ele><time>2026-07-29T00:48:32Z</time></trkpt>
<trkpt lat="35.196669" lon="-84.908799"><ele>223.7</ele><time>2026-07-29T00:48:34Z</time></trkpt>
<trkpt lat="35.196644" lon="-84.908815"><ele>223.4</ele><time>2026-07-29T00:48:36Z</time></trkpt>
<trkpt lat="35.196617" lon="-84.908831"><ele>223.4</ele><time>2026-07-29T00:48:38Z</time></trkpt>
<trkpt lat="35.196592" lon="-84.908847"><ele>223.7</ele><time>2026-07-29T00:48:40Z</time></trkpt>
<trkpt lat="35.196566" lon="-84.90886"><ele>223.7</ele><time>2026-07-29T00:48:42Z</time></trkpt>
<trkpt lat="35.19654" lon="-84.908874"><ele>224.3</ele><time>2026-07-29T00:48:44Z</time></trkpt>
<trkpt lat="35.196513" lon="-84.90889"><ele>224.3</ele><time>2026-07-29T00:48:46Z</time></trkpt>
<trkpt lat="35.196485" lon="-84.908903"><ele>224.3</ele><time>2026-07-29T00:48:48Z</time></trkpt>
<trkpt lat="35.196457" lon="-84.908915"><ele>224.3</ele><time>2026-07-29T00:48:50Z</time></trkpt>
<trkpt lat="35.196429" lon="-84.908925"><ele>224.3</ele><time>2026-07-29T00:48:52Z</time></trkpt>
<trkpt lat="35.196403" lon="-84.908936"><ele>224.3</ele><time>2026-07-29T00:48:54Z</time></trkpt>
<trkpt lat="35.196373" lon="-84.908948"><ele>223.7</ele><time>2026-07-29T00:48:56Z</time></trkpt>
<trkpt lat="35.196344" lon="-84.908957"><ele>223.4</ele><time>2026-07-29T00:48:58Z</time></trkpt>
<trkpt lat="35.196316" lon="-84.908968"><ele>223.4</ele><time>2026-07-29T00:49:00Z</time></trkpt>
<trkpt lat="35.196288" lon="-84.908973"><ele>223.4</ele><time>2026-07-29T00:49:02Z</time></trkpt>
<trkpt lat="35.196259" lon="-84.908981"><ele>223.4</ele><time>2026-07-29T00:49:04Z</time></trkpt>
<trkpt lat="35.196231" lon="-84.908989"><ele>223.7</ele><time>2026-07-29T00:49:06Z</time></trkpt>
<trkpt lat="35.196203" lon="-84.908995"><ele>223.7</ele><time>2026-07-29T00:49:08Z</time></trkpt>
<trkpt lat="35.196164" lon="-84.909009"><ele>224.0</ele><time>2026-07-29T00:49:11Z</time></trkpt>
<trkpt lat="35.196135" lon="-84.909015"><ele>224.0</ele><time>2026-07-29T00:49:13Z</time></trkpt>
<trkpt lat="35.196106" lon="-84.90902"><ele>224.0</ele><time>2026-07-29T00:49:15Z</time></trkpt>
<trkpt lat="35.196078" lon="-84.909022"><ele>224.0</ele><time>2026-07-29T00:49:17Z</time></trkpt>
<trkpt lat="35.19605" lon="-84.909025"><ele>224.3</ele><time>2026-07-29T00:49:19Z</time></trkpt>
<trkpt lat="35.196019" lon="-84.909028"><ele>224.6</ele><time>2026-07-29T00:49:21Z</time></trkpt>
<trkpt lat="35.195991" lon="-84.909027"><ele>224.3</ele><time>2026-07-29T00:49:23Z</time></trkpt>
<trkpt lat="35.195949" lon="-84.909024"><ele>224.3</ele><time>2026-07-29T00:49:26Z</time></trkpt>
<trkpt lat="35.195922" lon="-84.909017"><ele>224.3</ele><time>2026-07-29T00:49:28Z</time></trkpt>
<trkpt lat="35.195895" lon="-84.909005"><ele>224.6</ele><time>2026-07-29T00:49:30Z</time></trkpt>
<trkpt lat="35.195868" lon="-84.908992"><ele>224.3</ele><time>2026-07-29T00:49:32Z</time></trkpt>
<trkpt lat="35.195843" lon="-84.908971"><ele>224.3</ele><time>2026-07-29T00:49:34Z</time></trkpt>
<trkpt lat="35.195821" lon="-84.908944"><ele>224.3</ele><time>2026-07-29T00:49:36Z</time></trkpt>
<trkpt lat="35.195805" lon="-84.908913"><ele>224.3</ele><time>2026-07-29T00:49:38Z</time></trkpt>
<trkpt lat="35.195796" lon="-84.908878"><ele>224.6</ele><time>2026-07-29T00:49:40Z</time></trkpt>
<trkpt lat="35.195794" lon="-84.908843"><ele>224.0</ele><time>2026-07-29T00:49:42Z</time></trkpt>
<trkpt lat="35.195797" lon="-84.908808"><ele>224.6</ele><time>2026-07-29T00:49:44Z</time></trkpt>
<trkpt lat="35.195798" lon="-84.908769"><ele>224.6</ele><time>2026-07-29T00:49:46Z</time></trkpt>
<trkpt lat="35.195801" lon="-84.90873"><ele>224.6</ele><time>2026-07-29T00:49:48Z</time></trkpt>
<trkpt lat="35.195809" lon="-84.908694"><ele>225.2</ele><time>2026-07-29T00:49:50Z</time></trkpt>
<trkpt lat="35.195811" lon="-84.90866"><ele>225.6</ele><time>2026-07-29T00:49:52Z</time></trkpt>
<trkpt lat="35.195806" lon="-84.908623"><ele>225.2</ele><time>2026-07-29T00:49:54Z</time></trkpt>
<trkpt lat="35.195788" lon="-84.90859"><ele>222.8</ele><time>2026-07-29T00:49:56Z</time></trkpt>
<trkpt lat="35.195752" lon="-84.908569"><ele>219.8</ele><time>2026-07-29T00:49:58Z</time></trkpt>
<trkpt lat="35.19573" lon="-84.908537"><ele>220.1</ele><time>2026-07-29T00:50:00Z</time></trkpt>
<trkpt lat="35.195722" lon="-84.908503"><ele>219.5</ele><time>2026-07-29T00:50:02Z</time></trkpt>
<trkpt lat="35.195734" lon="-84.90846"><ele>220.1</ele><time>2026-07-29T00:50:04Z</time></trkpt>
<trkpt lat="35.195747" lon="-84.90842"><ele>220.4</ele><time>2026-07-29T00:50:06Z</time></trkpt>
<trkpt lat="35.195765" lon="-84.908379"><ele>220.7</ele><time>2026-07-29T00:50:08Z</time></trkpt>
<trkpt lat="35.19578" lon="-84.908338"><ele>221.3</ele><time>2026-07-29T00:50:10Z</time></trkpt>
<trkpt lat="35.195797" lon="-84.9083"><ele>221.6</ele><time>2026-07-29T00:50:12Z</time></trkpt>
<trkpt lat="35.195809" lon="-84.908265"><ele>222.2</ele><time>2026-07-29T00:50:14Z</time></trkpt>
<trkpt lat="35.19582" lon="-84.908231"><ele>222.2</ele><time>2026-07-29T00:50:16Z</time></trkpt>
<trkpt lat="35.195835" lon="-84.908197"><ele>222.5</ele><time>2026-07-29T00:50:18Z</time></trkpt>
<trkpt lat="35.195851" lon="-84.908163"><ele>223.1</ele><time>2026-07-29T00:50:20Z</time></trkpt>
<trkpt lat="35.195861" lon="-84.908128"><ele>223.1</ele><time>2026-07-29T00:50:22Z</time></trkpt>
<trkpt lat="35.195868" lon="-84.908094"><ele>222.8</ele><time>2026-07-29T00:50:24Z</time></trkpt>
<trkpt lat="35.195881" lon="-84.90806"><ele>223.4</ele><time>2026-07-29T00:50:26Z</time></trkpt>
<trkpt lat="35.195889" lon="-84.908027"><ele>223.1</ele><time>2026-07-29T00:50:28Z</time></trkpt>
<trkpt lat="35.195896" lon="-84.907992"><ele>222.8</ele><time>2026-07-29T00:50:30Z</time></trkpt>
<trkpt lat="35.195905" lon="-84.907957"><ele>223.1</ele><time>2026-07-29T00:50:32Z</time></trkpt>
<trkpt lat="35.195907" lon="-84.907917"><ele>223.4</ele><time>2026-07-29T00:50:34Z</time></trkpt>
<trkpt lat="35.195919" lon="-84.907881"><ele>223.7</ele><time>2026-07-29T00:50:36Z</time></trkpt>
<trkpt lat="35.195929" lon="-84.907847"><ele>223.7</ele><time>2026-07-29T00:50:38Z</time></trkpt>
<trkpt lat="35.195939" lon="-84.907812"><ele>223.7</ele><time>2026-07-29T00:50:40Z</time></trkpt>
<trkpt lat="35.195944" lon="-84.907777"><ele>224.3</ele><time>2026-07-29T00:50:42Z</time></trkpt>
<trkpt lat="35.195954" lon="-84.907745"><ele>224.0</ele><time>2026-07-29T00:50:44Z</time></trkpt>
<trkpt lat="35.195964" lon="-84.90771"><ele>224.0</ele><time>2026-07-29T00:50:46Z</time></trkpt>
<trkpt lat="35.195971" lon="-84.907676"><ele>223.7</ele><time>2026-07-29T00:50:48Z</time></trkpt>
<trkpt lat="35.195975" lon="-84.907638"><ele>224.0</ele><time>2026-07-29T00:50:50Z</time></trkpt>
<trkpt lat="35.195983" lon="-84.907601"><ele>223.7</ele><time>2026-07-29T00:50:52Z</time></trkpt>
<trkpt lat="35.195994" lon="-84.907567"><ele>224.0</ele><time>2026-07-29T00:50:54Z</time></trkpt>
<trkpt lat="35.196007" lon="-84.907534"><ele>224.0</ele><time>2026-07-29T00:50:56Z</time></trkpt>
<trkpt lat="35.196015" lon="-84.907501"><ele>223.7</ele><time>2026-07-29T00:50:58Z</time></trkpt>
<trkpt lat="35.196021" lon="-84.907467"><ele>223.7</ele><time>2026-07-29T00:51:00Z</time></trkpt>
<trkpt lat="35.196028" lon="-84.907432"><ele>222.8</ele><time>2026-07-29T00:51:02Z</time></trkpt>
<trkpt lat="35.196031" lon="-84.907398"><ele>223.1</ele><time>2026-07-29T00:51:04Z</time></trkpt>
<trkpt lat="35.19604" lon="-84.907362"><ele>223.7</ele><time>2026-07-29T00:51:06Z</time></trkpt>
<trkpt lat="35.196041" lon="-84.907327"><ele>223.4</ele><time>2026-07-29T00:51:08Z</time></trkpt>
<trkpt lat="35.196046" lon="-84.907289"><ele>223.4</ele><time>2026-07-29T00:51:10Z</time></trkpt>
<trkpt lat="35.196048" lon="-84.907252"><ele>223.4</ele><time>2026-07-29T00:51:12Z</time></trkpt>
<trkpt lat="35.196044" lon="-84.907214"><ele>223.4</ele><time>2026-07-29T00:51:14Z</time></trkpt>
<trkpt lat="35.196041" lon="-84.907179"><ele>222.5</ele><time>2026-07-29T00:51:16Z</time></trkpt>
<trkpt lat="35.196044" lon="-84.907143"><ele>222.5</ele><time>2026-07-29T00:51:18Z</time></trkpt>
<trkpt lat="35.196044" lon="-84.907107"><ele>222.8</ele><time>2026-07-29T00:51:20Z</time></trkpt>
<trkpt lat="35.196045" lon="-84.907069"><ele>222.8</ele><time>2026-07-29T00:51:22Z</time></trkpt>
<trkpt lat="35.19605" lon="-84.90703"><ele>222.8</ele><time>2026-07-29T00:51:24Z</time></trkpt>
<trkpt lat="35.196048" lon="-84.906992"><ele>223.4</ele><time>2026-07-29T00:51:26Z</time></trkpt>
<trkpt lat="35.196048" lon="-84.906952"><ele>223.4</ele><time>2026-07-29T00:51:28Z</time></trkpt>
<trkpt lat="35.196039" lon="-84.906913"><ele>223.4</ele><time>2026-07-29T00:51:30Z</time></trkpt>
<trkpt lat="35.196033" lon="-84.906871"><ele>224.0</ele><time>2026-07-29T00:51:32Z</time></trkpt>
<trkpt lat="35.196034" lon="-84.906831"><ele>224.9</ele><time>2026-07-29T00:51:34Z</time></trkpt>
<trkpt lat="35.19603" lon="-84.906789"><ele>224.0</ele><time>2026-07-29T00:51:36Z</time></trkpt>
<trkpt lat="35.196026" lon="-84.906752"><ele>223.4</ele><time>2026-07-29T00:51:38Z</time></trkpt>
<trkpt lat="35.196024" lon="-84.906709"><ele>224.0</ele><time>2026-07-29T00:51:40Z</time></trkpt>
<trkpt lat="35.196016" lon="-84.906675"><ele>224.9</ele><time>2026-07-29T00:51:42Z</time></trkpt>
<trkpt lat="35.196008" lon="-84.90664"><ele>225.6</ele><time>2026-07-29T00:51:44Z</time></trkpt>
<trkpt lat="35.196007" lon="-84.906605"><ele>224.9</ele><time>2026-07-29T00:51:46Z</time></trkpt>
<trkpt lat="35.196005" lon="-84.906568"><ele>225.2</ele><time>2026-07-29T00:51:48Z</time></trkpt>
<trkpt lat="35.196006" lon="-84.906531"><ele>226.5</ele><time>2026-07-29T00:51:50Z</time></trkpt>
<trkpt lat="35.196011" lon="-84.906497"><ele>226.5</ele><time>2026-07-29T00:51:52Z</time></trkpt>
<trkpt lat="35.196014" lon="-84.906459"><ele>225.6</ele><time>2026-07-29T00:51:54Z</time></trkpt>
<trkpt lat="35.19601" lon="-84.906423"><ele>224.9</ele><time>2026-07-29T00:51:56Z</time></trkpt>
<trkpt lat="35.196008" lon="-84.906387"><ele>224.9</ele><time>2026-07-29T00:51:58Z</time></trkpt>
<trkpt lat="35.196004" lon="-84.906348"><ele>225.2</ele><time>2026-07-29T00:52:00Z</time></trkpt>
<trkpt lat="35.196" lon="-84.90631"><ele>225.6</ele><time>2026-07-29T00:52:02Z</time></trkpt>
<trkpt lat="35.195996" lon="-84.906272"><ele>225.2</ele><time>2026-07-29T00:52:04Z</time></trkpt>
<trkpt lat="35.195994" lon="-84.906234"><ele>224.0</ele><time>2026-07-29T00:52:06Z</time></trkpt>
<trkpt lat="35.19599" lon="-84.906196"><ele>223.4</ele><time>2026-07-29T00:52:08Z</time></trkpt>
<trkpt lat="35.195994" lon="-84.906156"><ele>223.4</ele><time>2026-07-29T00:52:10Z</time></trkpt>
<trkpt lat="35.195997" lon="-84.906117"><ele>222.8</ele><time>2026-07-29T00:52:12Z</time></trkpt>
<trkpt lat="35.195995" lon="-84.906079"><ele>223.4</ele><time>2026-07-29T00:52:14Z</time></trkpt>
<trkpt lat="35.195993" lon="-84.906044"><ele>222.8</ele><time>2026-07-29T00:52:16Z</time></trkpt>
<trkpt lat="35.195982" lon="-84.906009"><ele>222.5</ele><time>2026-07-29T00:52:18Z</time></trkpt>
<trkpt lat="35.195982" lon="-84.905968"><ele>223.1</ele><time>2026-07-29T00:52:20Z</time></trkpt>
<trkpt lat="35.195977" lon="-84.905927"><ele>222.8</ele><time>2026-07-29T00:52:22Z</time></trkpt>
<trkpt lat="35.19597" lon="-84.905888"><ele>222.5</ele><time>2026-07-29T00:52:24Z</time></trkpt>
<trkpt lat="35.195967" lon="-84.905849"><ele>222.5</ele><time>2026-07-29T00:52:26Z</time></trkpt>
<trkpt lat="35.195965" lon="-84.90581"><ele>223.1</ele><time>2026-07-29T00:52:28Z</time></trkpt>
<trkpt lat="35.195966" lon="-84.905772"><ele>224.3</ele><time>2026-07-29T00:52:30Z</time></trkpt>
<trkpt lat="35.195966" lon="-84.905732"><ele>223.4</ele><time>2026-07-29T00:52:32Z</time></trkpt>
<trkpt lat="35.195957" lon="-84.905694"><ele>223.4</ele><time>2026-07-29T00:52:34Z</time></trkpt>
<trkpt lat="35.195954" lon="-84.905653"><ele>224.3</ele><time>2026-07-29T00:52:36Z</time></trkpt>
<trkpt lat="35.195958" lon="-84.905614"><ele>224.3</ele><time>2026-07-29T00:52:38Z</time></trkpt>
<trkpt lat="35.195956" lon="-84.905576"><ele>224.0</ele><time>2026-07-29T00:52:40Z</time></trkpt>
<trkpt lat="35.19595" lon="-84.905537"><ele>223.7</ele><time>2026-07-29T00:52:42Z</time></trkpt>
<trkpt lat="35.195944" lon="-84.905501"><ele>223.7</ele><time>2026-07-29T00:52:44Z</time></trkpt>
<trkpt lat="35.195941" lon="-84.905466"><ele>223.1</ele><time>2026-07-29T00:52:46Z</time></trkpt>
<trkpt lat="35.195937" lon="-84.905427"><ele>223.1</ele><time>2026-07-29T00:52:48Z</time></trkpt>
<trkpt lat="35.195932" lon="-84.905392"><ele>222.2</ele><time>2026-07-29T00:52:50Z</time></trkpt>
<trkpt lat="35.195924" lon="-84.905357"><ele>221.9</ele><time>2026-07-29T00:52:52Z</time></trkpt>
<trkpt lat="35.19592" lon="-84.905322"><ele>222.5</ele><time>2026-07-29T00:52:54Z</time></trkpt>
<trkpt lat="35.195908" lon="-84.905289"><ele>222.2</ele><time>2026-07-29T00:52:56Z</time></trkpt>
<trkpt lat="35.195896" lon="-84.905256"><ele>222.2</ele><time>2026-07-29T00:52:58Z</time></trkpt>
<trkpt lat="35.195891" lon="-84.90522"><ele>223.7</ele><time>2026-07-29T00:53:00Z</time></trkpt>
<trkpt lat="35.195881" lon="-84.905185"><ele>224.6</ele><time>2026-07-29T00:53:02Z</time></trkpt>
<trkpt lat="35.195873" lon="-84.90515"><ele>226.8</ele><time>2026-07-29T00:53:04Z</time></trkpt>
<trkpt lat="35.195865" lon="-84.905113"><ele>227.4</ele><time>2026-07-29T00:53:06Z</time></trkpt>
<trkpt lat="35.195856" lon="-84.905077"><ele>227.1</ele><time>2026-07-29T00:53:08Z</time></trkpt>
<trkpt lat="35.195847" lon="-84.905039"><ele>227.7</ele><time>2026-07-29T00:53:10Z</time></trkpt>
<trkpt lat="35.195841" lon="-84.905001"><ele>228.3</ele><time>2026-07-29T00:53:12Z</time></trkpt>
<trkpt lat="35.195837" lon="-84.904961"><ele>228.9</ele><time>2026-07-29T00:53:14Z</time></trkpt>
<trkpt lat="35.195834" lon="-84.904921"><ele>228.6</ele><time>2026-07-29T00:53:16Z</time></trkpt>
<trkpt lat="35.195828" lon="-84.904882"><ele>227.7</ele><time>2026-07-29T00:53:18Z</time></trkpt>
<trkpt lat="35.195825" lon="-84.904843"><ele>228.6</ele><time>2026-07-29T00:53:20Z</time></trkpt>
<trkpt lat="35.195827" lon="-84.904803"><ele>229.2</ele><time>2026-07-29T00:53:22Z</time></trkpt>
<trkpt lat="35.195824" lon="-84.904765"><ele>229.2</ele><time>2026-07-29T00:53:24Z</time></trkpt>
<trkpt lat="35.195818" lon="-84.904727"><ele>228.3</ele><time>2026-07-29T00:53:26Z</time></trkpt>
<trkpt lat="35.195814" lon="-84.904688"><ele>227.4</ele><time>2026-07-29T00:53:28Z</time></trkpt>
<trkpt lat="35.195812" lon="-84.904651"><ele>227.4</ele><time>2026-07-29T00:53:30Z</time></trkpt>
<trkpt lat="35.195807" lon="-84.904612"><ele>226.8</ele><time>2026-07-29T00:53:32Z</time></trkpt>
<trkpt lat="35.195799" lon="-84.904578"><ele>227.4</ele><time>2026-07-29T00:53:34Z</time></trkpt>
<trkpt lat="35.195794" lon="-84.904543"><ele>228.6</ele><time>2026-07-29T00:53:36Z</time></trkpt>
<trkpt lat="35.19579" lon="-84.904505"><ele>228.6</ele><time>2026-07-29T00:53:38Z</time></trkpt>
<trkpt lat="35.195787" lon="-84.904469"><ele>228.0</ele><time>2026-07-29T00:53:40Z</time></trkpt>
<trkpt lat="35.195783" lon="-84.904431"><ele>228.6</ele><time>2026-07-29T00:53:42Z</time></trkpt>
<trkpt lat="35.195784" lon="-84.904391"><ele>228.0</ele><time>2026-07-29T00:53:44Z</time></trkpt>
<trkpt lat="35.19579" lon="-84.904352"><ele>228.3</ele><time>2026-07-29T00:53:46Z</time></trkpt>
<trkpt lat="35.195795" lon="-84.904314"><ele>226.5</ele><time>2026-07-29T00:53:48Z</time></trkpt>
<trkpt lat="35.195801" lon="-84.904277"><ele>226.8</ele><time>2026-07-29T00:53:50Z</time></trkpt>
<trkpt lat="35.195802" lon="-84.904242"><ele>227.4</ele><time>2026-07-29T00:53:52Z</time></trkpt>
<trkpt lat="35.195802" lon="-84.904206"><ele>227.7</ele><time>2026-07-29T00:53:54Z</time></trkpt>
<trkpt lat="35.195803" lon="-84.904168"><ele>228.6</ele><time>2026-07-29T00:53:56Z</time></trkpt>
<trkpt lat="35.195806" lon="-84.904132"><ele>228.6</ele><time>2026-07-29T00:53:58Z</time></trkpt>
<trkpt lat="35.195807" lon="-84.904097"><ele>228.9</ele><time>2026-07-29T00:54:00Z</time></trkpt>
<trkpt lat="35.195804" lon="-84.904061"><ele>228.0</ele><time>2026-07-29T00:54:02Z</time></trkpt>
<trkpt lat="35.195804" lon="-84.904026"><ele>228.0</ele><time>2026-07-29T00:54:04Z</time></trkpt>
<trkpt lat="35.195803" lon="-84.903991"><ele>227.7</ele><time>2026-07-29T00:54:06Z</time></trkpt>
<trkpt lat="35.195802" lon="-84.903954"><ele>227.4</ele><time>2026-07-29T00:54:08Z</time></trkpt>
<trkpt lat="35.195803" lon="-84.903916"><ele>227.4</ele><time>2026-07-29T00:54:10Z</time></trkpt>
<trkpt lat="35.195806" lon="-84.90388"><ele>226.8</ele><time>2026-07-29T00:54:12Z</time></trkpt>
<trkpt lat="35.195811" lon="-84.903844"><ele>226.2</ele><time>2026-07-29T00:54:14Z</time></trkpt>
<trkpt lat="35.195818" lon="-84.90381"><ele>226.2</ele><time>2026-07-29T00:54:16Z</time></trkpt>
<trkpt lat="35.195821" lon="-84.903773"><ele>225.2</ele><time>2026-07-29T00:54:18Z</time></trkpt>
<trkpt lat="35.195823" lon="-84.903737"><ele>224.9</ele><time>2026-07-29T00:54:20Z</time></trkpt>
<trkpt lat="35.19583" lon="-84.9037"><ele>224.6</ele><time>2026-07-29T00:54:22Z</time></trkpt>
<trkpt lat="35.195835" lon="-84.903664"><ele>224.6</ele><time>2026-07-29T00:54:24Z</time></trkpt>
<trkpt lat="35.195843" lon="-84.903626"><ele>224.0</ele><time>2026-07-29T00:54:26Z</time></trkpt>
<trkpt lat="35.195849" lon="-84.90359"><ele>224.3</ele><time>2026-07-29T00:54:28Z</time></trkpt>
<trkpt lat="35.195852" lon="-84.903555"><ele>224.9</ele><time>2026-07-29T00:54:30Z</time></trkpt>
<trkpt lat="35.195859" lon="-84.903515"><ele>224.3</ele><time>2026-07-29T00:54:32Z</time></trkpt>
<trkpt lat="35.195862" lon="-84.903479"><ele>224.0</ele><time>2026-07-29T00:54:34Z</time></trkpt>
<trkpt lat="35.195864" lon="-84.903442"><ele>222.8</ele><time>2026-07-29T00:54:36Z</time></trkpt>
<trkpt lat="35.19587" lon="-84.903406"><ele>222.8</ele><time>2026-07-29T00:54:38Z</time></trkpt>
<trkpt lat="35.195875" lon="-84.903369"><ele>222.8</ele><time>2026-07-29T00:54:40Z</time></trkpt>
<trkpt lat="35.19588" lon="-84.903333"><ele>222.8</ele><time>2026-07-29T00:54:42Z</time></trkpt>
<trkpt lat="35.195883" lon="-84.903298"><ele>222.5</ele><time>2026-07-29T00:54:44Z</time></trkpt>
<trkpt lat="35.195888" lon="-84.903263"><ele>221.9</ele><time>2026-07-29T00:54:46Z</time></trkpt>
<trkpt lat="35.195896" lon="-84.903226"><ele>223.1</ele><time>2026-07-29T00:54:48Z</time></trkpt>
<trkpt lat="35.195902" lon="-84.903188"><ele>223.1</ele><time>2026-07-29T00:54:50Z</time></trkpt>
<trkpt lat="35.195908" lon="-84.903149"><ele>223.4</ele><time>2026-07-29T00:54:52Z</time></trkpt>
<trkpt lat="35.195914" lon="-84.903112"><ele>223.7</ele><time>2026-07-29T00:54:54Z</time></trkpt>
<trkpt lat="35.195923" lon="-84.903075"><ele>224.0</ele><time>2026-07-29T00:54:56Z</time></trkpt>
<trkpt lat="35.195925" lon="-84.903037"><ele>224.0</ele><time>2026-07-29T00:54:58Z</time></trkpt>
<trkpt lat="35.195928" lon="-84.903002"><ele>224.3</ele><time>2026-07-29T00:55:00Z</time></trkpt>
<trkpt lat="35.195929" lon="-84.902964"><ele>224.9</ele><time>2026-07-29T00:55:02Z</time></trkpt>
<trkpt lat="35.195934" lon="-84.902926"><ele>225.2</ele><time>2026-07-29T00:55:04Z</time></trkpt>
<trkpt lat="35.195938" lon="-84.902891"><ele>225.2</ele><time>2026-07-29T00:55:06Z</time></trkpt>
<trkpt lat="35.195941" lon="-84.902855"><ele>225.2</ele><time>2026-07-29T00:55:08Z</time></trkpt>
<trkpt lat="35.19595" lon="-84.902807"><ele>225.2</ele><time>2026-07-29T00:55:11Z</time></trkpt>
<trkpt lat="35.195957" lon="-84.902773"><ele>225.2</ele><time>2026-07-29T00:55:13Z</time></trkpt>
<trkpt lat="35.195968" lon="-84.902737"><ele>224.3</ele><time>2026-07-29T00:55:15Z</time></trkpt>
<trkpt lat="35.195976" lon="-84.9027"><ele>224.6</ele><time>2026-07-29T00:55:17Z</time></trkpt>
<trkpt lat="35.195983" lon="-84.902663"><ele>224.9</ele><time>2026-07-29T00:55:19Z</time></trkpt>
<trkpt lat="35.19599" lon="-84.902626"><ele>224.9</ele><time>2026-07-29T00:55:21Z</time></trkpt>
<trkpt lat="35.195995" lon="-84.90259"><ele>224.0</ele><time>2026-07-29T00:55:23Z</time></trkpt>
<trkpt lat="35.196002" lon="-84.902554"><ele>223.4</ele><time>2026-07-29T00:55:25Z</time></trkpt>
<trkpt lat="35.19601" lon="-84.902518"><ele>223.4</ele><time>2026-07-29T00:55:27Z</time></trkpt>
<trkpt lat="35.196015" lon="-84.902482"><ele>222.2</ele><time>2026-07-29T00:55:29Z</time></trkpt>
<trkpt lat="35.196019" lon="-84.902445"><ele>222.2</ele><time>2026-07-29T00:55:31Z</time></trkpt>
<trkpt lat="35.196027" lon="-84.902408"><ele>221.3</ele><time>2026-07-29T00:55:33Z</time></trkpt>
<trkpt lat="35.196039" lon="-84.902373"><ele>221.9</ele><time>2026-07-29T00:55:35Z</time></trkpt>
<trkpt lat="35.196041" lon="-84.902331"><ele>222.2</ele><time>2026-07-29T00:55:37Z</time></trkpt>
<trkpt lat="35.196045" lon="-84.902294"><ele>222.2</ele><time>2026-07-29T00:55:39Z</time></trkpt>
<trkpt lat="35.196047" lon="-84.902256"><ele>222.5</ele><time>2026-07-29T00:55:41Z</time></trkpt>
<trkpt lat="35.19605" lon="-84.902218"><ele>223.4</ele><time>2026-07-29T00:55:43Z</time></trkpt>
<trkpt lat="35.196057" lon="-84.902181"><ele>224.6</ele><time>2026-07-29T00:55:45Z</time></trkpt>
<trkpt lat="35.196065" lon="-84.902143"><ele>225.6</ele><time>2026-07-29T00:55:47Z</time></trkpt>
<trkpt lat="35.196072" lon="-84.902104"><ele>226.2</ele><time>2026-07-29T00:55:49Z</time></trkpt>
<trkpt lat="35.196079" lon="-84.902066"><ele>227.4</ele><time>2026-07-29T00:55:51Z</time></trkpt>
<trkpt lat="35.196082" lon="-84.902031"><ele>228.0</ele><time>2026-07-29T00:55:53Z</time></trkpt>
<trkpt lat="35.196089" lon="-84.901995"><ele>227.7</ele><time>2026-07-29T00:55:55Z</time></trkpt>
<trkpt lat="35.196104" lon="-84.901962"><ele>226.8</ele><time>2026-07-29T00:55:57Z</time></trkpt>
<trkpt lat="35.196108" lon="-84.901925"><ele>227.4</ele><time>2026-07-29T00:55:59Z</time></trkpt>
<trkpt lat="35.196118" lon="-84.901887"><ele>227.7</ele><time>2026-07-29T00:56:01Z</time></trkpt>
<trkpt lat="35.196122" lon="-84.90185"><ele>228.0</ele><time>2026-07-29T00:56:03Z</time></trkpt>
<trkpt lat="35.196132" lon="-84.901813"><ele>227.7</ele><time>2026-07-29T00:56:05Z</time></trkpt>
<trkpt lat="35.19613" lon="-84.901772"><ele>228.0</ele><time>2026-07-29T00:56:07Z</time></trkpt>
<trkpt lat="35.196137" lon="-84.901732"><ele>227.7</ele><time>2026-07-29T00:56:09Z</time></trkpt>
<trkpt lat="35.196148" lon="-84.901695"><ele>226.5</ele><time>2026-07-29T00:56:11Z</time></trkpt>
<trkpt lat="35.196158" lon="-84.901661"><ele>224.3</ele><time>2026-07-29T00:56:13Z</time></trkpt>
<trkpt lat="35.19617" lon="-84.901627"><ele>224.3</ele><time>2026-07-29T00:56:15Z</time></trkpt>
<trkpt lat="35.196186" lon="-84.901593"><ele>224.3</ele><time>2026-07-29T00:56:17Z</time></trkpt>
<trkpt lat="35.196195" lon="-84.901558"><ele>225.2</ele><time>2026-07-29T00:56:19Z</time></trkpt>
<trkpt lat="35.196212" lon="-84.901526"><ele>224.6</ele><time>2026-07-29T00:56:21Z</time></trkpt>
<trkpt lat="35.196222" lon="-84.901491"><ele>224.3</ele><time>2026-07-29T00:56:23Z</time></trkpt>
<trkpt lat="35.196233" lon="-84.901456"><ele>224.6</ele><time>2026-07-29T00:56:25Z</time></trkpt>
<trkpt lat="35.196243" lon="-84.901419"><ele>225.2</ele><time>2026-07-29T00:56:27Z</time></trkpt>
<trkpt lat="35.196257" lon="-84.901386"><ele>225.6</ele><time>2026-07-29T00:56:29Z</time></trkpt>
<trkpt lat="35.196268" lon="-84.90135"><ele>225.6</ele><time>2026-07-29T00:56:31Z</time></trkpt>
<trkpt lat="35.196283" lon="-84.901318"><ele>225.9</ele><time>2026-07-29T00:56:33Z</time></trkpt>
<trkpt lat="35.1963" lon="-84.901285"><ele>225.9</ele><time>2026-07-29T00:56:35Z</time></trkpt>
<trkpt lat="35.196318" lon="-84.901252"><ele>224.9</ele><time>2026-07-29T00:56:37Z</time></trkpt>
<trkpt lat="35.196336" lon="-84.901223"><ele>224.3</ele><time>2026-07-29T00:56:39Z</time></trkpt>
<trkpt lat="35.196354" lon="-84.90119"><ele>222.8</ele><time>2026-07-29T00:56:41Z</time></trkpt>
<trkpt lat="35.196369" lon="-84.901157"><ele>221.6</ele><time>2026-07-29T00:56:43Z</time></trkpt>
<trkpt lat="35.196386" lon="-84.901125"><ele>221.3</ele><time>2026-07-29T00:56:45Z</time></trkpt>
<trkpt lat="35.196403" lon="-84.901097"><ele>221.3</ele><time>2026-07-29T00:56:47Z</time></trkpt>
<trkpt lat="35.196422" lon="-84.901071"><ele>221.6</ele><time>2026-07-29T00:56:49Z</time></trkpt>
<trkpt lat="35.196446" lon="-84.901047"><ele>221.3</ele><time>2026-07-29T00:56:51Z</time></trkpt>
<trkpt lat="35.196468" lon="-84.901019"><ele>221.0</ele><time>2026-07-29T00:56:53Z</time></trkpt>
<trkpt lat="35.196489" lon="-84.900987"><ele>221.0</ele><time>2026-07-29T00:56:55Z</time></trkpt>
<trkpt lat="35.196511" lon="-84.900959"><ele>220.4</ele><time>2026-07-29T00:56:57Z</time></trkpt>
<trkpt lat="35.196533" lon="-84.900932"><ele>220.4</ele><time>2026-07-29T00:56:59Z</time></trkpt>
<trkpt lat="35.196556" lon="-84.900908"><ele>220.4</ele><time>2026-07-29T00:57:01Z</time></trkpt>
<trkpt lat="35.196583" lon="-84.900885"><ele>220.1</ele><time>2026-07-29T00:57:03Z</time></trkpt>
<trkpt lat="35.196609" lon="-84.900862"><ele>220.1</ele><time>2026-07-29T00:57:05Z</time></trkpt>
<trkpt lat="35.196635" lon="-84.900842"><ele>219.8</ele><time>2026-07-29T00:57:07Z</time></trkpt>
<trkpt lat="35.196662" lon="-84.900826"><ele>219.8</ele><time>2026-07-29T00:57:09Z</time></trkpt>
<trkpt lat="35.196689" lon="-84.900808"><ele>219.5</ele><time>2026-07-29T00:57:11Z</time></trkpt>
<trkpt lat="35.196716" lon="-84.900788"><ele>219.5</ele><time>2026-07-29T00:57:13Z</time></trkpt>
<trkpt lat="35.196737" lon="-84.900762"><ele>219.5</ele><time>2026-07-29T00:57:15Z</time></trkpt>
<trkpt lat="35.196761" lon="-84.900743"><ele>218.8</ele><time>2026-07-29T00:57:17Z</time></trkpt>
<trkpt lat="35.196784" lon="-84.90072"><ele>219.2</ele><time>2026-07-29T00:57:19Z</time></trkpt>
<trkpt lat="35.19681" lon="-84.900698"><ele>219.2</ele><time>2026-07-29T00:57:21Z</time></trkpt>
<trkpt lat="35.196841" lon="-84.900664"><ele>218.8</ele><time>2026-07-29T00:57:24Z</time></trkpt>
<trkpt lat="35.196857" lon="-84.900634"><ele>218.5</ele><time>2026-07-29T00:57:26Z</time></trkpt>
<trkpt lat="35.196881" lon="-84.900617"><ele>218.8</ele><time>2026-07-29T00:57:28Z</time></trkpt>
<trkpt lat="35.196903" lon="-84.900591"><ele>218.8</ele><time>2026-07-29T00:57:30Z</time></trkpt>
<trkpt lat="35.196927" lon="-84.900564"><ele>219.5</ele><time>2026-07-29T00:57:32Z</time></trkpt>
<trkpt lat="35.196952" lon="-84.900541"><ele>219.8</ele><time>2026-07-29T00:57:34Z</time></trkpt>
<trkpt lat="35.196978" lon="-84.900517"><ele>219.8</ele><time>2026-07-29T00:57:36Z</time></trkpt>
<trkpt lat="35.197002" lon="-84.900493"><ele>220.7</ele><time>2026-07-29T00:57:38Z</time></trkpt>
<trkpt lat="35.197023" lon="-84.900465"><ele>221.6</ele><time>2026-07-29T00:57:40Z</time></trkpt>
<trkpt lat="35.197044" lon="-84.90044"><ele>221.9</ele><time>2026-07-29T00:57:42Z</time></trkpt>
<trkpt lat="35.197063" lon="-84.900413"><ele>222.2</ele><time>2026-07-29T00:57:44Z</time></trkpt>
<trkpt lat="35.197085" lon="-84.900387"><ele>221.6</ele><time>2026-07-29T00:57:46Z</time></trkpt>
<trkpt lat="35.197107" lon="-84.900363"><ele>221.9</ele><time>2026-07-29T00:57:48Z</time></trkpt>
<trkpt lat="35.197128" lon="-84.90034"><ele>221.6</ele><time>2026-07-29T00:57:50Z</time></trkpt>
<trkpt lat="35.197155" lon="-84.900324"><ele>221.3</ele><time>2026-07-29T00:57:52Z</time></trkpt>
<trkpt lat="35.19718" lon="-84.900306"><ele>221.0</ele><time>2026-07-29T00:57:54Z</time></trkpt>
<trkpt lat="35.197196" lon="-84.900273"><ele>221.9</ele><time>2026-07-29T00:57:56Z</time></trkpt>
<trkpt lat="35.197223" lon="-84.900256"><ele>221.3</ele><time>2026-07-29T00:57:58Z</time></trkpt>
<trkpt lat="35.197254" lon="-84.900244"><ele>221.0</ele><time>2026-07-29T00:58:00Z</time></trkpt>
<trkpt lat="35.197281" lon="-84.90023"><ele>220.7</ele><time>2026-07-29T00:58:02Z</time></trkpt>
<trkpt lat="35.197305" lon="-84.900209"><ele>220.1</ele><time>2026-07-29T00:58:04Z</time></trkpt>
<trkpt lat="35.197336" lon="-84.900177"><ele>220.1</ele><time>2026-07-29T00:58:07Z</time></trkpt>
<trkpt lat="35.19736" lon="-84.90015"><ele>220.1</ele><time>2026-07-29T00:58:09Z</time></trkpt>
<trkpt lat="35.197385" lon="-84.900125"><ele>220.7</ele><time>2026-07-29T00:58:11Z</time></trkpt>
<trkpt lat="35.197408" lon="-84.900103"><ele>220.7</ele><time>2026-07-29T00:58:13Z</time></trkpt>
<trkpt lat="35.197432" lon="-84.900077"><ele>220.7</ele><time>2026-07-29T00:58:15Z</time></trkpt>
<trkpt lat="35.197455" lon="-84.900053"><ele>220.4</ele><time>2026-07-29T00:58:17Z</time></trkpt>
<trkpt lat="35.197476" lon="-84.900026"><ele>221.0</ele><time>2026-07-29T00:58:19Z</time></trkpt>
<trkpt lat="35.197499" lon="-84.899997"><ele>221.6</ele><time>2026-07-29T00:58:21Z</time></trkpt>
<trkpt lat="35.197519" lon="-84.899973"><ele>221.3</ele><time>2026-07-29T00:58:23Z</time></trkpt>
<trkpt lat="35.19754" lon="-84.899951"><ele>220.7</ele><time>2026-07-29T00:58:25Z</time></trkpt>
<trkpt lat="35.197562" lon="-84.899931"><ele>221.0</ele><time>2026-07-29T00:58:27Z</time></trkpt>
<trkpt lat="35.197588" lon="-84.899912"><ele>220.4</ele><time>2026-07-29T00:58:29Z</time></trkpt>
<trkpt lat="35.197612" lon="-84.899891"><ele>221.0</ele><time>2026-07-29T00:58:31Z</time></trkpt>
<trkpt lat="35.197638" lon="-84.899873"><ele>220.7</ele><time>2026-07-29T00:58:33Z</time></trkpt>
<trkpt lat="35.197663" lon="-84.899853"><ele>221.0</ele><time>2026-07-29T00:58:35Z</time></trkpt>
<trkpt lat="35.197689" lon="-84.899833"><ele>220.7</ele><time>2026-07-29T00:58:37Z</time></trkpt>
<trkpt lat="35.197718" lon="-84.899812"><ele>221.3</ele><time>2026-07-29T00:58:39Z</time></trkpt>
<trkpt lat="35.197743" lon="-84.899797"><ele>220.7</ele><time>2026-07-29T00:58:41Z</time></trkpt>
<trkpt lat="35.197768" lon="-84.899775"><ele>220.4</ele><time>2026-07-29T00:58:43Z</time></trkpt>
<trkpt lat="35.197789" lon="-84.899753"><ele>220.4</ele><time>2026-07-29T00:58:45Z</time></trkpt>
<trkpt lat="35.197812" lon="-84.899729"><ele>220.1</ele><time>2026-07-29T00:58:47Z</time></trkpt>
<trkpt lat="35.197836" lon="-84.899709"><ele>220.1</ele><time>2026-07-29T00:58:49Z</time></trkpt>
<trkpt lat="35.197861" lon="-84.899686"><ele>219.5</ele><time>2026-07-29T00:58:51Z</time></trkpt>
<trkpt lat="35.197886" lon="-84.899666"><ele>219.5</ele><time>2026-07-29T00:58:53Z</time></trkpt>
<trkpt lat="35.197911" lon="-84.899648"><ele>219.5</ele><time>2026-07-29T00:58:55Z</time></trkpt>
<trkpt lat="35.197937" lon="-84.899627"><ele>219.5</ele><time>2026-07-29T00:58:57Z</time></trkpt>
<trkpt lat="35.197962" lon="-84.899607"><ele>219.5</ele><time>2026-07-29T00:58:59Z</time></trkpt>
<trkpt lat="35.197986" lon="-84.899583"><ele>219.5</ele><time>2026-07-29T00:59:01Z</time></trkpt>
<trkpt lat="35.198008" lon="-84.899557"><ele>219.5</ele><time>2026-07-29T00:59:03Z</time></trkpt>
<trkpt lat="35.198029" lon="-84.899531"><ele>219.5</ele><time>2026-07-29T00:59:05Z</time></trkpt>
<trkpt lat="35.19805" lon="-84.899506"><ele>219.5</ele><time>2026-07-29T00:59:07Z</time></trkpt>
<trkpt lat="35.198091" lon="-84.899505"><ele>218.8</ele><time>2026-07-29T00:59:10Z</time></trkpt>
<trkpt lat="35.19811" lon="-84.899538"><ele>218.5</ele><time>2026-07-29T00:59:12Z</time></trkpt>
<trkpt lat="35.198122" lon="-84.899573"><ele>219.5</ele><time>2026-07-29T00:59:14Z</time></trkpt>
<trkpt lat="35.198133" lon="-84.899607"><ele>219.5</ele><time>2026-07-29T00:59:16Z</time></trkpt>
<trkpt lat="35.198144" lon="-84.899641"><ele>219.5</ele><time>2026-07-29T00:59:18Z</time></trkpt>
<trkpt lat="35.198156" lon="-84.899676"><ele>218.8</ele><time>2026-07-29T00:59:20Z</time></trkpt>
<trkpt lat="35.198168" lon="-84.899708"><ele>218.5</ele><time>2026-07-29T00:59:22Z</time></trkpt>
<trkpt lat="35.198177" lon="-84.899741"><ele>218.8</ele><time>2026-07-29T00:59:24Z</time></trkpt>
<trkpt lat="35.198189" lon="-84.899777"><ele>219.2</ele><time>2026-07-29T00:59:26Z</time></trkpt>
<trkpt lat="35.198202" lon="-84.899812"><ele>219.5</ele><time>2026-07-29T00:59:28Z</time></trkpt>
<trkpt lat="35.198217" lon="-84.899846"><ele>219.5</ele><time>2026-07-29T00:59:30Z</time></trkpt>
<trkpt lat="35.198229" lon="-84.899882"><ele>220.1</ele><time>2026-07-29T00:59:32Z</time></trkpt>
<trkpt lat="35.198238" lon="-84.89992"><ele>219.5</ele><time>2026-07-29T00:59:34Z</time></trkpt>
<trkpt lat="35.198253" lon="-84.899956"><ele>219.5</ele><time>2026-07-29T00:59:36Z</time></trkpt>
<trkpt lat="35.198272" lon="-84.899988"><ele>219.5</ele><time>2026-07-29T00:59:38Z</time></trkpt>
<trkpt lat="35.198291" lon="-84.900023"><ele>219.8</ele><time>2026-07-29T00:59:40Z</time></trkpt>
<trkpt lat="35.198314" lon="-84.900054"><ele>219.5</ele><time>2026-07-29T00:59:42Z</time></trkpt>
<trkpt lat="35.198339" lon="-84.900079"><ele>219.5</ele><time>2026-07-29T00:59:44Z</time></trkpt>
<trkpt lat="35.198365" lon="-84.900097"><ele>219.2</ele><time>2026-07-29T00:59:46Z</time></trkpt>
<trkpt lat="35.198393" lon="-84.90011"><ele>219.8</ele><time>2026-07-29T00:59:48Z</time></trkpt>
<trkpt lat="35.198424" lon="-84.900108"><ele>219.8</ele><time>2026-07-29T00:59:50Z</time></trkpt>
<trkpt lat="35.198454" lon="-84.900098"><ele>220.1</ele><time>2026-07-29T00:59:52Z</time></trkpt>
<trkpt lat="35.198483" lon="-84.90009"><ele>220.1</ele><time>2026-07-29T00:59:54Z</time></trkpt>
<trkpt lat="35.19851" lon="-84.900073"><ele>220.4</ele><time>2026-07-29T00:59:56Z</time></trkpt>
<trkpt lat="35.198539" lon="-84.900054"><ele>220.4</ele><time>2026-07-29T00:59:58Z</time></trkpt>
<trkpt lat="35.198568" lon="-84.90004"><ele>220.7</ele><time>2026-07-29T01:00:00Z</time></trkpt>
<trkpt lat="35.198598" lon="-84.900027"><ele>220.7</ele><time>2026-07-29T01:00:02Z</time></trkpt>
<trkpt lat="35.198628" lon="-84.90002"><ele>220.4</ele><time>2026-07-29T01:00:04Z</time></trkpt>
<trkpt lat="35.198658" lon="-84.900016"><ele>221.0</ele><time>2026-07-29T01:00:06Z</time></trkpt>
<trkpt lat="35.198688" lon="-84.900012"><ele>221.0</ele><time>2026-07-29T01:00:08Z</time></trkpt>
<trkpt lat="35.198717" lon="-84.900003"><ele>221.0</ele><time>2026-07-29T01:00:10Z</time></trkpt>
<trkpt lat="35.198748" lon="-84.899992"><ele>220.7</ele><time>2026-07-29T01:00:12Z</time></trkpt>
<trkpt lat="35.198774" lon="-84.899978"><ele>220.7</ele><time>2026-07-29T01:00:14Z</time></trkpt>
<trkpt lat="35.1988" lon="-84.89996"><ele>220.7</ele><time>2026-07-29T01:00:16Z</time></trkpt>
<trkpt lat="35.198808" lon="-84.899923"><ele>220.4</ele><time>2026-07-29T01:00:18Z</time></trkpt>
<trkpt lat="35.198792" lon="-84.899889"><ele>220.4</ele><time>2026-07-29T01:00:20Z</time></trkpt>
<trkpt lat="35.198776" lon="-84.89986"><ele>220.7</ele><time>2026-07-29T01:00:22Z</time></trkpt>
<trkpt lat="35.198762" lon="-84.899827"><ele>221.3</ele><time>2026-07-29T01:00:24Z</time></trkpt>
<trkpt lat="35.19875" lon="-84.899795"><ele>221.6</ele><time>2026-07-29T01:00:26Z</time></trkpt>
<trkpt lat="35.198735" lon="-84.899764"><ele>221.6</ele><time>2026-07-29T01:00:28Z</time></trkpt>
<trkpt lat="35.198714" lon="-84.899721"><ele>221.0</ele><time>2026-07-29T01:00:31Z</time></trkpt>
<trkpt lat="35.1987" lon="-84.899691"><ele>221.3</ele><time>2026-07-29T01:00:33Z</time></trkpt>
<trkpt lat="35.198693" lon="-84.899656"><ele>221.3</ele><time>2026-07-29T01:00:35Z</time></trkpt>
<trkpt lat="35.198685" lon="-84.899623"><ele>221.9</ele><time>2026-07-29T01:00:37Z</time></trkpt>
<trkpt lat="35.198667" lon="-84.89958"><ele>221.9</ele><time>2026-07-29T01:00:40Z</time></trkpt>
<trkpt lat="35.198654" lon="-84.899547"><ele>221.9</ele><time>2026-07-29T01:00:42Z</time></trkpt>
<trkpt lat="35.19864" lon="-84.899514"><ele>222.2</ele><time>2026-07-29T01:00:44Z</time></trkpt>
<trkpt lat="35.198631" lon="-84.899479"><ele>222.2</ele><time>2026-07-29T01:00:46Z</time></trkpt>
<trkpt lat="35.198616" lon="-84.899449"><ele>221.6</ele><time>2026-07-29T01:00:48Z</time></trkpt>
<trkpt lat="35.198606" lon="-84.899414"><ele>222.2</ele><time>2026-07-29T01:00:50Z</time></trkpt>
<trkpt lat="35.198595" lon="-84.899382"><ele>221.9</ele><time>2026-07-29T01:00:52Z</time></trkpt>
<trkpt lat="35.198586" lon="-84.899349"><ele>221.9</ele><time>2026-07-29T01:00:54Z</time></trkpt>
<trkpt lat="35.198576" lon="-84.899317"><ele>222.2</ele><time>2026-07-29T01:00:56Z</time></trkpt>
<trkpt lat="35.198563" lon="-84.899271"><ele>221.9</ele><time>2026-07-29T01:00:59Z</time></trkpt>
<trkpt lat="35.19855" lon="-84.899228"><ele>221.9</ele><time>2026-07-29T01:01:02Z</time></trkpt>
<trkpt lat="35.198531" lon="-84.899186"><ele>222.2</ele><time>2026-07-29T01:01:05Z</time></trkpt>
<trkpt lat="35.198518" lon="-84.899142"><ele>222.5</ele><time>2026-07-29T01:01:08Z</time></trkpt>
<trkpt lat="35.198506" lon="-84.899111"><ele>222.2</ele><time>2026-07-29T01:01:10Z</time></trkpt>
<trkpt lat="35.198495" lon="-84.89908"><ele>222.2</ele><time>2026-07-29T01:01:12Z</time></trkpt>
<trkpt lat="35.198485" lon="-84.899045"><ele>222.5</ele><time>2026-07-29T01:01:14Z</time></trkpt>
<trkpt lat="35.19847" lon="-84.899011"><ele>222.5</ele><time>2026-07-29T01:01:16Z</time></trkpt>
<trkpt lat="35.198458" lon="-84.898977"><ele>222.2</ele><time>2026-07-29T01:01:18Z</time></trkpt>
<trkpt lat="35.198446" lon="-84.898945"><ele>222.8</ele><time>2026-07-29T01:01:20Z</time></trkpt>
<trkpt lat="35.198428" lon="-84.898902"><ele>223.1</ele><time>2026-07-29T01:01:23Z</time></trkpt>
<trkpt lat="35.198415" lon="-84.898858"><ele>222.8</ele><time>2026-07-29T01:01:26Z</time></trkpt>
<trkpt lat="35.198402" lon="-84.898829"><ele>222.8</ele><time>2026-07-29T01:01:28Z</time></trkpt>
<trkpt lat="35.198392" lon="-84.898797"><ele>223.1</ele><time>2026-07-29T01:01:30Z</time></trkpt>
<trkpt lat="35.198379" lon="-84.898766"><ele>223.4</ele><time>2026-07-29T01:01:32Z</time></trkpt>
<trkpt lat="35.198369" lon="-84.898733"><ele>223.4</ele><time>2026-07-29T01:01:34Z</time></trkpt>
<trkpt lat="35.198355" lon="-84.8987"><ele>223.7</ele><time>2026-07-29T01:01:36Z</time></trkpt>
<trkpt lat="35.19834" lon="-84.898668"><ele>223.7</ele><time>2026-07-29T01:01:38Z</time></trkpt>
<trkpt lat="35.198327" lon="-84.898635"><ele>224.0</ele><time>2026-07-29T01:01:40Z</time></trkpt>
<trkpt lat="35.198314" lon="-84.898602"><ele>224.3</ele><time>2026-07-29T01:01:42Z</time></trkpt>
<trkpt lat="35.198301" lon="-84.898569"><ele>224.6</ele><time>2026-07-29T01:01:44Z</time></trkpt>
<trkpt lat="35.198289" lon="-84.898538"><ele>224.6</ele><time>2026-07-29T01:01:46Z</time></trkpt>
<trkpt lat="35.198273" lon="-84.898493"><ele>224.9</ele><time>2026-07-29T01:01:49Z</time></trkpt>
<trkpt lat="35.198263" lon="-84.898462"><ele>224.9</ele><time>2026-07-29T01:01:51Z</time></trkpt>
<trkpt lat="35.198245" lon="-84.898418"><ele>225.2</ele><time>2026-07-29T01:01:54Z</time></trkpt>
<trkpt lat="35.198233" lon="-84.898387"><ele>225.6</ele><time>2026-07-29T01:01:56Z</time></trkpt>
<trkpt lat="35.198214" lon="-84.898345"><ele>225.9</ele><time>2026-07-29T01:01:59Z</time></trkpt>
<trkpt lat="35.198199" lon="-84.898302"><ele>225.9</ele><time>2026-07-29T01:02:02Z</time></trkpt>
<trkpt lat="35.198179" lon="-84.898259"><ele>225.9</ele><time>2026-07-29T01:02:05Z</time></trkpt>
<trkpt lat="35.198167" lon="-84.898228"><ele>226.2</ele><time>2026-07-29T01:02:07Z</time></trkpt>
<trkpt lat="35.198148" lon="-84.898195"><ele>226.5</ele><time>2026-07-29T01:02:09Z</time></trkpt>
<trkpt lat="35.198136" lon="-84.898163"><ele>227.4</ele><time>2026-07-29T01:02:11Z</time></trkpt>
<trkpt lat="35.198125" lon="-84.898128"><ele>227.4</ele><time>2026-07-29T01:02:13Z</time></trkpt>
<trkpt lat="35.198118" lon="-84.898091"><ele>227.4</ele><time>2026-07-29T01:02:15Z</time></trkpt>
<trkpt lat="35.198108" lon="-84.898055"><ele>227.1</ele><time>2026-07-29T01:02:17Z</time></trkpt>
<trkpt lat="35.198104" lon="-84.898021"><ele>227.4</ele><time>2026-07-29T01:02:19Z</time></trkpt>
<trkpt lat="35.198092" lon="-84.897986"><ele>227.4</ele><time>2026-07-29T01:02:21Z</time></trkpt>
<trkpt lat="35.198075" lon="-84.897954"><ele>227.1</ele><time>2026-07-29T01:02:23Z</time></trkpt>
<trkpt lat="35.198059" lon="-84.897923"><ele>226.2</ele><time>2026-07-29T01:02:25Z</time></trkpt>
<trkpt lat="35.198047" lon="-84.897891"><ele>226.2</ele><time>2026-07-29T01:02:27Z</time></trkpt>
<trkpt lat="35.198034" lon="-84.89786"><ele>225.6</ele><time>2026-07-29T01:02:29Z</time></trkpt>
<trkpt lat="35.198022" lon="-84.897827"><ele>225.9</ele><time>2026-07-29T01:02:31Z</time></trkpt>
<trkpt lat="35.198015" lon="-84.897795"><ele>226.2</ele><time>2026-07-29T01:02:33Z</time></trkpt>
<trkpt lat="35.198001" lon="-84.897764"><ele>225.9</ele><time>2026-07-29T01:02:35Z</time></trkpt>
<trkpt lat="35.197982" lon="-84.897719"><ele>226.2</ele><time>2026-07-29T01:02:38Z</time></trkpt>
<trkpt lat="35.197969" lon="-84.897686"><ele>225.9</ele><time>2026-07-29T01:02:40Z</time></trkpt>
<trkpt lat="35.197957" lon="-84.897655"><ele>224.6</ele><time>2026-07-29T01:02:42Z</time></trkpt>
<trkpt lat="35.197945" lon="-84.897621"><ele>225.2</ele><time>2026-07-29T01:02:44Z</time></trkpt>
<trkpt lat="35.197932" lon="-84.897587"><ele>225.2</ele><time>2026-07-29T01:02:46Z</time></trkpt>
<trkpt lat="35.19792" lon="-84.897556"><ele>224.6</ele><time>2026-07-29T01:02:48Z</time></trkpt>
<trkpt lat="35.19791" lon="-84.897522"><ele>224.6</ele><time>2026-07-29T01:02:50Z</time></trkpt>
<trkpt lat="35.19789" lon="-84.897479"><ele>223.7</ele><time>2026-07-29T01:02:53Z</time></trkpt>
<trkpt lat="35.197875" lon="-84.89745"><ele>223.4</ele><time>2026-07-29T01:02:55Z</time></trkpt>
<trkpt lat="35.197852" lon="-84.897408"><ele>222.8</ele><time>2026-07-29T01:02:58Z</time></trkpt>
<trkpt lat="35.197819" lon="-84.897411"><ele>222.2</ele><time>2026-07-29T01:03:00Z</time></trkpt>
<trkpt lat="35.197792" lon="-84.89743"><ele>222.2</ele><time>2026-07-29T01:03:02Z</time></trkpt>
<trkpt lat="35.197764" lon="-84.897452"><ele>222.5</ele><time>2026-07-29T01:03:04Z</time></trkpt>
<trkpt lat="35.197738" lon="-84.897472"><ele>222.8</ele><time>2026-07-29T01:03:06Z</time></trkpt>
<trkpt lat="35.197711" lon="-84.897491"><ele>222.8</ele><time>2026-07-29T01:03:08Z</time></trkpt>
<trkpt lat="35.197685" lon="-84.897508"><ele>223.1</ele><time>2026-07-29T01:03:10Z</time></trkpt>
<trkpt lat="35.197659" lon="-84.897519"><ele>222.8</ele><time>2026-07-29T01:03:12Z</time></trkpt>
<trkpt lat="35.197632" lon="-84.897532"><ele>222.5</ele><time>2026-07-29T01:03:14Z</time></trkpt>
<trkpt lat="35.197597" lon="-84.897553"><ele>222.5</ele><time>2026-07-29T01:03:17Z</time></trkpt>
<trkpt lat="35.197561" lon="-84.897575"><ele>222.2</ele><time>2026-07-29T01:03:20Z</time></trkpt>
<trkpt lat="35.197536" lon="-84.89759"><ele>221.9</ele><time>2026-07-29T01:03:22Z</time></trkpt>
<trkpt lat="35.197497" lon="-84.897609"><ele>220.7</ele><time>2026-07-29T01:03:25Z</time></trkpt>
<trkpt lat="35.197467" lon="-84.897615"><ele>220.4</ele><time>2026-07-29T01:03:27Z</time></trkpt>
<trkpt lat="35.197438" lon="-84.897619"><ele>220.7</ele><time>2026-07-29T01:03:29Z</time></trkpt>
<trkpt lat="35.197408" lon="-84.897617"><ele>220.7</ele><time>2026-07-29T01:03:31Z</time></trkpt>
<trkpt lat="35.197383" lon="-84.897594"><ele>221.0</ele><time>2026-07-29T01:03:33Z</time></trkpt>
<trkpt lat="35.197358" lon="-84.897572"><ele>220.7</ele><time>2026-07-29T01:03:35Z</time></trkpt>
<trkpt lat="35.197338" lon="-84.897545"><ele>221.0</ele><time>2026-07-29T01:03:37Z</time></trkpt>
<trkpt lat="35.1973" lon="-84.897549"><ele>220.7</ele><time>2026-07-29T01:03:40Z</time></trkpt>
<trkpt lat="35.197281" lon="-84.897575"><ele>221.0</ele><time>2026-07-29T01:03:42Z</time></trkpt>
<trkpt lat="35.19726" lon="-84.897597"><ele>221.3</ele><time>2026-07-29T01:03:44Z</time></trkpt>
<trkpt lat="35.197225" lon="-84.897567"><ele>220.7</ele><time>2026-07-29T01:03:47Z</time></trkpt>
<trkpt lat="35.197203" lon="-84.897546"><ele>220.7</ele><time>2026-07-29T01:03:49Z</time></trkpt>
<trkpt lat="35.197173" lon="-84.897517"><ele>220.1</ele><time>2026-07-29T01:03:52Z</time></trkpt>
<trkpt lat="35.197145" lon="-84.89748"><ele>219.8</ele><time>2026-07-29T01:03:55Z</time></trkpt>
<trkpt lat="35.197124" lon="-84.897455"><ele>219.5</ele><time>2026-07-29T01:03:57Z</time></trkpt>
<trkpt lat="35.197103" lon="-84.897428"><ele>219.5</ele><time>2026-07-29T01:03:59Z</time></trkpt>
<trkpt lat="35.197083" lon="-84.897398"><ele>219.5</ele><time>2026-07-29T01:04:01Z</time></trkpt>
<trkpt lat="35.197065" lon="-84.897371"><ele>219.8</ele><time>2026-07-29T01:04:03Z</time></trkpt>
<trkpt lat="35.197051" lon="-84.897341"><ele>219.8</ele><time>2026-07-29T01:04:05Z</time></trkpt>
<trkpt lat="35.197036" lon="-84.897311"><ele>219.8</ele><time>2026-07-29T01:04:07Z</time></trkpt>
<trkpt lat="35.197024" lon="-84.897278"><ele>219.8</ele><time>2026-07-29T01:04:09Z</time></trkpt>
<trkpt lat="35.197024" lon="-84.897239"><ele>220.4</ele><time>2026-07-29T01:04:11Z</time></trkpt>
<trkpt lat="35.197041" lon="-84.897211"><ele>220.4</ele><time>2026-07-29T01:04:13Z</time></trkpt>
<trkpt lat="35.197071" lon="-84.897175"><ele>220.4</ele><time>2026-07-29T01:04:16Z</time></trkpt>
<trkpt lat="35.197092" lon="-84.89715"><ele>219.8</ele><time>2026-07-29T01:04:18Z</time></trkpt>
<trkpt lat="35.197112" lon="-84.897123"><ele>219.5</ele><time>2026-07-29T01:04:20Z</time></trkpt>
<trkpt lat="35.197132" lon="-84.897095"><ele>219.5</ele><time>2026-07-29T01:04:22Z</time></trkpt>
<trkpt lat="35.197152" lon="-84.897068"><ele>219.8</ele><time>2026-07-29T01:04:24Z</time></trkpt>
<trkpt lat="35.19718" lon="-84.897033"><ele>220.7</ele><time>2026-07-29T01:04:27Z</time></trkpt>
<trkpt lat="35.197198" lon="-84.897007"><ele>220.7</ele><time>2026-07-29T01:04:29Z</time></trkpt>
<trkpt lat="35.197225" lon="-84.89697"><ele>221.0</ele><time>2026-07-29T01:04:32Z</time></trkpt>
<trkpt lat="35.197245" lon="-84.896946"><ele>221.3</ele><time>2026-07-29T01:04:34Z</time></trkpt>
<trkpt lat="35.197278" lon="-84.896917"><ele>221.0</ele><time>2026-07-29T01:04:37Z</time></trkpt>
<trkpt lat="35.197314" lon="-84.896901"><ele>221.0</ele><time>2026-07-29T01:04:40Z</time></trkpt>
<trkpt lat="35.197352" lon="-84.896898"><ele>221.0</ele><time>2026-07-29T01:04:43Z</time></trkpt>
<trkpt lat="35.19739" lon="-84.896892"><ele>221.6</ele><time>2026-07-29T01:04:46Z</time></trkpt>
<trkpt lat="35.197402" lon="-84.896892"><ele>222.2</ele><time>2026-07-29T01:04:47Z</time></trkpt>
<trkpt lat="35.197402" lon="-84.896892"><ele>222.2</ele><time>2026-07-29T01:04:48Z</time></trkpt>
</trkseg></trk></gpx>